<?xml version="1.0" encoding="UTF-8" standalone="no" ?>
<gpx xmlns="http://www.topografix.com/GPX/1/1" xmlns:xsi="http://www.w3.org/2001/XMLSchema-instance" xsi:schemaLocation="http://www.topografix.com/GPX/1/1 http://www.topografix.com/GPX/1/1/gpx.xsd" version="1.1" creator="VisuGPX - https://www.visugpx.com">
  <metadata>
    <name>Pot_Thur 60</name>
  </metadata>
  <wpt lat="48.87672" lon="-0.388">
    <ele>204.2</ele>
    <name><![CDATA[WP 1]]></name>
  </wpt>
  <wpt lat="48.87672" lon="-0.388">
    <ele>204.2</ele>
    <name><![CDATA[Départ Arrivee]]></name>
  </wpt>
  <trk>
    <name><![CDATA[ACTIVE LOG 001]]></name>
    <extensions>
      <line xmlns="http://www.topografix.com/GPX/gpx_style/0/2">
        <color>008888</color>
        <width>4</width>
      </line>
    </extensions>
    <trkseg>
      <trkpt lat="48.90945" lon="-0.46942">
        <ele>43</ele>
        <time>2013-05-19T07:38:33Z</time>
      </trkpt>
      <trkpt lat="48.90945" lon="-0.46942">
        <ele>43</ele>
        <time>2013-05-19T07:38:33Z</time>
      </trkpt>
      <trkpt lat="48.90945" lon="-0.46942">
        <ele>43</ele>
        <time>2013-05-19T07:38:33Z</time>
      </trkpt>
      <trkpt lat="48.90945" lon="-0.46942">
        <ele>43</ele>
        <time>2013-05-19T07:38:33Z</time>
      </trkpt>
      <trkpt lat="48.90945" lon="-0.46942">
        <ele>43</ele>
        <time>2013-05-19T07:38:33Z</time>
      </trkpt>
      <trkpt lat="48.90949" lon="-0.46953">
        <ele>43</ele>
        <time>2013-05-19T07:39:31Z</time>
      </trkpt>
      <trkpt lat="48.90943" lon="-0.46937">
        <ele>43</ele>
        <time>2013-05-19T07:39:39Z</time>
      </trkpt>
      <trkpt lat="48.90936" lon="-0.46929">
        <ele>42</ele>
        <time>2013-05-19T07:39:44Z</time>
      </trkpt>
      <trkpt lat="48.90931" lon="-0.46922">
        <ele>42</ele>
        <time>2013-05-19T07:39:47Z</time>
      </trkpt>
      <trkpt lat="48.90925" lon="-0.46882">
        <ele>43</ele>
        <time>2013-05-19T07:39:58Z</time>
      </trkpt>
      <trkpt lat="48.90909" lon="-0.46881">
        <ele>45</ele>
        <time>2013-05-19T07:40:06Z</time>
      </trkpt>
      <trkpt lat="48.90887" lon="-0.46912">
        <ele>46</ele>
        <time>2013-05-19T07:40:23Z</time>
      </trkpt>
      <trkpt lat="48.90851" lon="-0.46925">
        <ele>48</ele>
        <time>2013-05-19T07:40:27Z</time>
      </trkpt>
      <trkpt lat="48.90869" lon="-0.47014">
        <ele>48</ele>
        <time>2013-05-19T07:40:34Z</time>
      </trkpt>
      <trkpt lat="48.90902" lon="-0.46985">
        <ele>44</ele>
        <time>2013-05-19T07:40:36Z</time>
      </trkpt>
      <trkpt lat="48.90902" lon="-0.46989">
        <ele>44</ele>
        <time>2013-05-19T07:40:38Z</time>
      </trkpt>
      <trkpt lat="48.90897" lon="-0.47001">
        <ele>45</ele>
        <time>2013-05-19T07:40:44Z</time>
      </trkpt>
      <trkpt lat="48.90897" lon="-0.47017">
        <ele>46</ele>
        <time>2013-05-19T07:40:54Z</time>
      </trkpt>
      <trkpt lat="48.90897" lon="-0.4702">
        <ele>46</ele>
        <time>2013-05-19T07:40:55Z</time>
      </trkpt>
      <trkpt lat="48.90893" lon="-0.4703">
        <ele>47</ele>
        <time>2013-05-19T07:41:00Z</time>
      </trkpt>
      <trkpt lat="48.90893" lon="-0.47036">
        <ele>47</ele>
        <time>2013-05-19T07:41:13Z</time>
      </trkpt>
      <trkpt lat="48.90892" lon="-0.47033">
        <ele>47</ele>
        <time>2013-05-19T07:41:27Z</time>
      </trkpt>
      <trkpt lat="48.90892" lon="-0.47034">
        <ele>47</ele>
        <time>2013-05-19T07:41:33Z</time>
      </trkpt>
      <trkpt lat="48.90884" lon="-0.47036">
        <ele>47</ele>
        <time>2013-05-19T07:41:40Z</time>
      </trkpt>
      <trkpt lat="48.90883" lon="-0.47033">
        <ele>47</ele>
        <time>2013-05-19T07:41:41Z</time>
      </trkpt>
      <trkpt lat="48.90878" lon="-0.4702">
        <ele>48</ele>
        <time>2013-05-19T07:41:47Z</time>
      </trkpt>
      <trkpt lat="48.90852" lon="-0.46993">
        <ele>49</ele>
        <time>2013-05-19T07:42:04Z</time>
      </trkpt>
      <trkpt lat="48.90825" lon="-0.46976">
        <ele>54</ele>
        <time>2013-05-19T07:42:21Z</time>
      </trkpt>
      <trkpt lat="48.90802" lon="-0.46962">
        <ele>54</ele>
        <time>2013-05-19T07:42:36Z</time>
      </trkpt>
      <trkpt lat="48.90766" lon="-0.46941">
        <ele>56</ele>
        <time>2013-05-19T07:42:58Z</time>
      </trkpt>
      <trkpt lat="48.90726" lon="-0.4692">
        <ele>58</ele>
        <time>2013-05-19T07:43:21Z</time>
      </trkpt>
      <trkpt lat="48.9068" lon="-0.46895">
        <ele>61</ele>
        <time>2013-05-19T07:43:43Z</time>
      </trkpt>
      <trkpt lat="48.90641" lon="-0.46872">
        <ele>61</ele>
        <time>2013-05-19T07:43:59Z</time>
      </trkpt>
      <trkpt lat="48.9061" lon="-0.4682">
        <ele>63</ele>
        <time>2013-05-19T07:44:15Z</time>
      </trkpt>
      <trkpt lat="48.90578" lon="-0.46763">
        <ele>63</ele>
        <time>2013-05-19T07:44:32Z</time>
      </trkpt>
      <trkpt lat="48.9057" lon="-0.46759">
        <ele>63</ele>
        <time>2013-05-19T07:44:42Z</time>
      </trkpt>
      <trkpt lat="48.9057" lon="-0.46759">
        <ele>63</ele>
        <time>2013-05-19T07:45:06Z</time>
      </trkpt>
      <trkpt lat="48.90565" lon="-0.46763">
        <ele>63</ele>
        <time>2013-05-19T07:45:11Z</time>
      </trkpt>
      <trkpt lat="48.90564" lon="-0.46766">
        <ele>63</ele>
        <time>2013-05-19T07:45:13Z</time>
      </trkpt>
      <trkpt lat="48.90557" lon="-0.46775">
        <ele>63</ele>
        <time>2013-05-19T07:45:20Z</time>
      </trkpt>
      <trkpt lat="48.90557" lon="-0.46778">
        <ele>63</ele>
        <time>2013-05-19T07:45:23Z</time>
      </trkpt>
      <trkpt lat="48.90566" lon="-0.46795">
        <ele>63</ele>
        <time>2013-05-19T07:45:35Z</time>
      </trkpt>
      <trkpt lat="48.90584" lon="-0.46829">
        <ele>62</ele>
        <time>2013-05-19T07:45:49Z</time>
      </trkpt>
      <trkpt lat="48.90609" lon="-0.46873">
        <ele>61</ele>
        <time>2013-05-19T07:46:04Z</time>
      </trkpt>
      <trkpt lat="48.90627" lon="-0.46901">
        <ele>61</ele>
        <time>2013-05-19T07:46:17Z</time>
      </trkpt>
      <trkpt lat="48.90653" lon="-0.46937">
        <ele>59</ele>
        <time>2013-05-19T07:46:32Z</time>
      </trkpt>
      <trkpt lat="48.90688" lon="-0.4698">
        <ele>58</ele>
        <time>2013-05-19T07:46:50Z</time>
      </trkpt>
      <trkpt lat="48.9071" lon="-0.47003">
        <ele>56</ele>
        <time>2013-05-19T07:47:03Z</time>
      </trkpt>
      <trkpt lat="48.9073" lon="-0.47022">
        <ele>55</ele>
        <time>2013-05-19T07:47:15Z</time>
      </trkpt>
      <trkpt lat="48.90745" lon="-0.47035">
        <ele>55</ele>
        <time>2013-05-19T07:47:28Z</time>
      </trkpt>
      <trkpt lat="48.90776" lon="-0.47058">
        <ele>54</ele>
        <time>2013-05-19T07:47:44Z</time>
      </trkpt>
      <trkpt lat="48.90802" lon="-0.47074">
        <ele>54</ele>
        <time>2013-05-19T07:47:57Z</time>
      </trkpt>
      <trkpt lat="48.90829" lon="-0.4709">
        <ele>53</ele>
        <time>2013-05-19T07:48:11Z</time>
      </trkpt>
      <trkpt lat="48.90846" lon="-0.47099">
        <ele>50</ele>
        <time>2013-05-19T07:48:22Z</time>
      </trkpt>
      <trkpt lat="48.90858" lon="-0.47104">
        <ele>48</ele>
        <time>2013-05-19T07:48:32Z</time>
      </trkpt>
      <trkpt lat="48.90859" lon="-0.47103">
        <ele>48</ele>
        <time>2013-05-19T07:48:35Z</time>
      </trkpt>
      <trkpt lat="48.90864" lon="-0.47105">
        <ele>48</ele>
        <time>2013-05-19T07:48:44Z</time>
      </trkpt>
      <trkpt lat="48.9087" lon="-0.47107">
        <ele>47</ele>
        <time>2013-05-19T07:48:58Z</time>
      </trkpt>
      <trkpt lat="48.90873" lon="-0.47108">
        <ele>47</ele>
        <time>2013-05-19T07:49:16Z</time>
      </trkpt>
      <trkpt lat="48.90892" lon="-0.47116">
        <ele>46</ele>
        <time>2013-05-19T07:49:27Z</time>
      </trkpt>
      <trkpt lat="48.90892" lon="-0.47116">
        <ele>46</ele>
        <time>2013-05-19T07:49:59Z</time>
      </trkpt>
      <trkpt lat="48.90905" lon="-0.47124">
        <ele>45</ele>
        <time>2013-05-19T07:50:36Z</time>
      </trkpt>
      <trkpt lat="48.90945" lon="-0.47141">
        <ele>43</ele>
        <time>2013-05-19T07:50:50Z</time>
      </trkpt>
      <trkpt lat="48.90978" lon="-0.47157">
        <ele>44</ele>
        <time>2013-05-19T07:51:02Z</time>
      </trkpt>
      <trkpt lat="48.91001" lon="-0.47169">
        <ele>45</ele>
        <time>2013-05-19T07:51:12Z</time>
      </trkpt>
      <trkpt lat="48.91031" lon="-0.47183">
        <ele>50</ele>
        <time>2013-05-19T07:51:24Z</time>
      </trkpt>
      <trkpt lat="48.91038" lon="-0.47186">
        <ele>51</ele>
        <time>2013-05-19T07:51:33Z</time>
      </trkpt>
      <trkpt lat="48.91039" lon="-0.4719">
        <ele>50</ele>
        <time>2013-05-19T07:51:57Z</time>
      </trkpt>
      <trkpt lat="48.9104" lon="-0.47191">
        <ele>51</ele>
        <time>2013-05-19T07:52:10Z</time>
      </trkpt>
      <trkpt lat="48.91041" lon="-0.47193">
        <ele>51</ele>
        <time>2013-05-19T07:52:26Z</time>
      </trkpt>
      <trkpt lat="48.91045" lon="-0.47193">
        <ele>51</ele>
        <time>2013-05-19T07:52:37Z</time>
      </trkpt>
      <trkpt lat="48.91072" lon="-0.47205">
        <ele>53</ele>
        <time>2013-05-19T07:52:49Z</time>
      </trkpt>
      <trkpt lat="48.91117" lon="-0.47226">
        <ele>60</ele>
        <time>2013-05-19T07:53:02Z</time>
      </trkpt>
      <trkpt lat="48.9116" lon="-0.47243">
        <ele>59</ele>
        <time>2013-05-19T07:53:14Z</time>
      </trkpt>
      <trkpt lat="48.91205" lon="-0.47254">
        <ele>53</ele>
        <time>2013-05-19T07:53:27Z</time>
      </trkpt>
      <trkpt lat="48.91277" lon="-0.47238">
        <ele>54</ele>
        <time>2013-05-19T07:53:40Z</time>
      </trkpt>
      <trkpt lat="48.9128" lon="-0.47244">
        <ele>54</ele>
        <time>2013-05-19T07:53:43Z</time>
      </trkpt>
      <trkpt lat="48.91315" lon="-0.47239">
        <ele>52</ele>
        <time>2013-05-19T07:53:55Z</time>
      </trkpt>
      <trkpt lat="48.91333" lon="-0.47231">
        <ele>52</ele>
        <time>2013-05-19T07:54:02Z</time>
      </trkpt>
      <trkpt lat="48.91354" lon="-0.47247">
        <ele>48</ele>
        <time>2013-05-19T07:54:14Z</time>
      </trkpt>
      <trkpt lat="48.91354" lon="-0.47247">
        <ele>49</ele>
        <time>2013-05-19T07:55:43Z</time>
      </trkpt>
      <trkpt lat="48.91355" lon="-0.47246">
        <ele>48</ele>
        <time>2013-05-19T07:56:08Z</time>
      </trkpt>
      <trkpt lat="48.91365" lon="-0.47246">
        <ele>48</ele>
        <time>2013-05-19T07:56:17Z</time>
      </trkpt>
      <trkpt lat="48.91368" lon="-0.47254">
        <ele>46</ele>
        <time>2013-05-19T07:56:34Z</time>
      </trkpt>
      <trkpt lat="48.91367" lon="-0.4726">
        <ele>46</ele>
        <time>2013-05-19T07:56:47Z</time>
      </trkpt>
      <trkpt lat="48.91366" lon="-0.47264">
        <ele>46</ele>
        <time>2013-05-19T07:57:03Z</time>
      </trkpt>
      <trkpt lat="48.91361" lon="-0.47271">
        <ele>46</ele>
        <time>2013-05-19T07:57:15Z</time>
      </trkpt>
      <trkpt lat="48.91357" lon="-0.47274">
        <ele>46</ele>
        <time>2013-05-19T07:57:21Z</time>
      </trkpt>
      <trkpt lat="48.91351" lon="-0.47283">
        <ele>46</ele>
        <time>2013-05-19T07:57:35Z</time>
      </trkpt>
      <trkpt lat="48.91351" lon="-0.47284">
        <ele>46</ele>
        <time>2013-05-19T07:57:52Z</time>
      </trkpt>
      <trkpt lat="48.91355" lon="-0.47311">
        <ele>45</ele>
        <time>2013-05-19T07:57:59Z</time>
      </trkpt>
      <trkpt lat="48.91371" lon="-0.47344">
        <ele>42</ele>
        <time>2013-05-19T07:58:08Z</time>
      </trkpt>
      <trkpt lat="48.91377" lon="-0.47368">
        <ele>41</ele>
        <time>2013-05-19T07:58:19Z</time>
      </trkpt>
      <trkpt lat="48.91392" lon="-0.47381">
        <ele>41</ele>
        <time>2013-05-19T07:58:34Z</time>
      </trkpt>
      <trkpt lat="48.91443" lon="-0.47369">
        <ele>40</ele>
        <time>2013-05-19T07:58:46Z</time>
      </trkpt>
      <trkpt lat="48.91493" lon="-0.47368">
        <ele>40</ele>
        <time>2013-05-19T07:58:59Z</time>
      </trkpt>
      <trkpt lat="48.91557" lon="-0.47363">
        <ele>41</ele>
        <time>2013-05-19T07:59:16Z</time>
      </trkpt>
      <trkpt lat="48.91653" lon="-0.47353">
        <ele>39</ele>
        <time>2013-05-19T07:59:36Z</time>
      </trkpt>
      <trkpt lat="48.9168" lon="-0.47332">
        <ele>39</ele>
        <time>2013-05-19T07:59:46Z</time>
      </trkpt>
      <trkpt lat="48.91696" lon="-0.47288">
        <ele>40</ele>
        <time>2013-05-19T08:00:00Z</time>
      </trkpt>
      <trkpt lat="48.91708" lon="-0.47252">
        <ele>41</ele>
        <time>2013-05-19T08:00:13Z</time>
      </trkpt>
      <trkpt lat="48.91712" lon="-0.47219">
        <ele>43</ele>
        <time>2013-05-19T08:00:24Z</time>
      </trkpt>
      <trkpt lat="48.91711" lon="-0.47189">
        <ele>44</ele>
        <time>2013-05-19T08:00:32Z</time>
      </trkpt>
      <trkpt lat="48.9172" lon="-0.47146">
        <ele>47</ele>
        <time>2013-05-19T08:00:43Z</time>
      </trkpt>
      <trkpt lat="48.91727" lon="-0.47113">
        <ele>48</ele>
        <time>2013-05-19T08:00:56Z</time>
      </trkpt>
      <trkpt lat="48.91739" lon="-0.47111">
        <ele>48</ele>
        <time>2013-05-19T08:01:01Z</time>
      </trkpt>
      <trkpt lat="48.91739" lon="-0.47111">
        <ele>48</ele>
        <time>2013-05-19T08:01:19Z</time>
      </trkpt>
      <trkpt lat="48.91739" lon="-0.47111">
        <ele>48</ele>
        <time>2013-05-19T08:01:43Z</time>
      </trkpt>
      <trkpt lat="48.91739" lon="-0.47111">
        <ele>48</ele>
        <time>2013-05-19T08:02:00Z</time>
      </trkpt>
      <trkpt lat="48.91739" lon="-0.47111">
        <ele>48</ele>
        <time>2013-05-19T08:02:17Z</time>
      </trkpt>
      <trkpt lat="48.91739" lon="-0.47111">
        <ele>48</ele>
        <time>2013-05-19T08:02:32Z</time>
      </trkpt>
      <trkpt lat="48.91814" lon="-0.47034">
        <ele>59</ele>
        <time>2013-05-19T08:02:41Z</time>
      </trkpt>
      <trkpt lat="48.91814" lon="-0.47034">
        <ele>59</ele>
        <time>2013-05-19T08:02:49Z</time>
      </trkpt>
      <trkpt lat="48.91814" lon="-0.47034">
        <ele>59</ele>
        <time>2013-05-19T08:03:12Z</time>
      </trkpt>
      <trkpt lat="48.91814" lon="-0.47034">
        <ele>59</ele>
        <time>2013-05-19T08:03:35Z</time>
      </trkpt>
      <trkpt lat="48.91814" lon="-0.47034">
        <ele>59</ele>
        <time>2013-05-19T08:03:57Z</time>
      </trkpt>
      <trkpt lat="48.91814" lon="-0.47034">
        <ele>59</ele>
        <time>2013-05-19T08:04:22Z</time>
      </trkpt>
      <trkpt lat="48.91814" lon="-0.47034">
        <ele>59</ele>
        <time>2013-05-19T08:04:32Z</time>
      </trkpt>
      <trkpt lat="48.91855" lon="-0.47">
        <ele>67</ele>
        <time>2013-05-19T08:04:41Z</time>
      </trkpt>
      <trkpt lat="48.9186" lon="-0.47001">
        <ele>67</ele>
        <time>2013-05-19T08:04:44Z</time>
      </trkpt>
      <trkpt lat="48.91866" lon="-0.47003">
        <ele>67</ele>
        <time>2013-05-19T08:04:49Z</time>
      </trkpt>
      <trkpt lat="48.91879" lon="-0.47005">
        <ele>68</ele>
        <time>2013-05-19T08:04:56Z</time>
      </trkpt>
      <trkpt lat="48.91892" lon="-0.47005">
        <ele>69</ele>
        <time>2013-05-19T08:05:02Z</time>
      </trkpt>
      <trkpt lat="48.91898" lon="-0.47005">
        <ele>70</ele>
        <time>2013-05-19T08:05:05Z</time>
      </trkpt>
      <trkpt lat="48.91922" lon="-0.47003">
        <ele>75</ele>
        <time>2013-05-19T08:05:15Z</time>
      </trkpt>
      <trkpt lat="48.91939" lon="-0.47003">
        <ele>73</ele>
        <time>2013-05-19T08:05:23Z</time>
      </trkpt>
      <trkpt lat="48.91967" lon="-0.47005">
        <ele>73</ele>
        <time>2013-05-19T08:05:34Z</time>
      </trkpt>
      <trkpt lat="48.91991" lon="-0.47009">
        <ele>76</ele>
        <time>2013-05-19T08:05:42Z</time>
      </trkpt>
      <trkpt lat="48.92011" lon="-0.47009">
        <ele>77</ele>
        <time>2013-05-19T08:05:48Z</time>
      </trkpt>
      <trkpt lat="48.9202" lon="-0.47008">
        <ele>76</ele>
        <time>2013-05-19T08:05:51Z</time>
      </trkpt>
      <trkpt lat="48.92031" lon="-0.47007">
        <ele>76</ele>
        <time>2013-05-19T08:05:55Z</time>
      </trkpt>
      <trkpt lat="48.92049" lon="-0.47004">
        <ele>77</ele>
        <time>2013-05-19T08:06:02Z</time>
      </trkpt>
      <trkpt lat="48.92056" lon="-0.47002">
        <ele>77</ele>
        <time>2013-05-19T08:06:05Z</time>
      </trkpt>
      <trkpt lat="48.92062" lon="-0.47001">
        <ele>78</ele>
        <time>2013-05-19T08:06:11Z</time>
      </trkpt>
      <trkpt lat="48.92091" lon="-0.4699">
        <ele>89</ele>
        <time>2013-05-19T08:06:19Z</time>
      </trkpt>
      <trkpt lat="48.92112" lon="-0.46982">
        <ele>91</ele>
        <time>2013-05-19T08:06:28Z</time>
      </trkpt>
      <trkpt lat="48.92114" lon="-0.46981">
        <ele>91</ele>
        <time>2013-05-19T08:06:29Z</time>
      </trkpt>
      <trkpt lat="48.92126" lon="-0.46976">
        <ele>91</ele>
        <time>2013-05-19T08:06:36Z</time>
      </trkpt>
      <trkpt lat="48.92135" lon="-0.46973">
        <ele>91</ele>
        <time>2013-05-19T08:06:46Z</time>
      </trkpt>
      <trkpt lat="48.92135" lon="-0.46973">
        <ele>91</ele>
        <time>2013-05-19T08:06:47Z</time>
      </trkpt>
      <trkpt lat="48.92165" lon="-0.46961">
        <ele>93</ele>
        <time>2013-05-19T08:06:58Z</time>
      </trkpt>
      <trkpt lat="48.92166" lon="-0.46961">
        <ele>93</ele>
        <time>2013-05-19T08:07:00Z</time>
      </trkpt>
      <trkpt lat="48.92184" lon="-0.46953">
        <ele>89</ele>
        <time>2013-05-19T08:07:10Z</time>
      </trkpt>
      <trkpt lat="48.92203" lon="-0.46946">
        <ele>89</ele>
        <time>2013-05-19T08:07:19Z</time>
      </trkpt>
      <trkpt lat="48.92226" lon="-0.46937">
        <ele>90</ele>
        <time>2013-05-19T08:07:28Z</time>
      </trkpt>
      <trkpt lat="48.92241" lon="-0.46931">
        <ele>91</ele>
        <time>2013-05-19T08:07:33Z</time>
      </trkpt>
      <trkpt lat="48.92269" lon="-0.46918">
        <ele>88</ele>
        <time>2013-05-19T08:07:40Z</time>
      </trkpt>
      <trkpt lat="48.92297" lon="-0.46908">
        <ele>104</ele>
        <time>2013-05-19T08:07:50Z</time>
      </trkpt>
      <trkpt lat="48.92297" lon="-0.46908">
        <ele>104</ele>
        <time>2013-05-19T08:07:53Z</time>
      </trkpt>
      <trkpt lat="48.92307" lon="-0.46906">
        <ele>103</ele>
        <time>2013-05-19T08:08:03Z</time>
      </trkpt>
      <trkpt lat="48.92307" lon="-0.46906">
        <ele>103</ele>
        <time>2013-05-19T08:09:38Z</time>
      </trkpt>
      <trkpt lat="48.92307" lon="-0.46906">
        <ele>103</ele>
        <time>2013-05-19T08:09:52Z</time>
      </trkpt>
      <trkpt lat="48.92307" lon="-0.46906">
        <ele>103</ele>
        <time>2013-05-19T08:10:05Z</time>
      </trkpt>
      <trkpt lat="48.92331" lon="-0.46907">
        <ele>98</ele>
        <time>2013-05-19T08:10:41Z</time>
      </trkpt>
      <trkpt lat="48.92342" lon="-0.46911">
        <ele>98</ele>
        <time>2013-05-19T08:10:51Z</time>
      </trkpt>
      <trkpt lat="48.92342" lon="-0.46911">
        <ele>98</ele>
        <time>2013-05-19T08:11:17Z</time>
      </trkpt>
      <trkpt lat="48.92342" lon="-0.46911">
        <ele>98</ele>
        <time>2013-05-19T08:11:38Z</time>
      </trkpt>
      <trkpt lat="48.92356" lon="-0.46917">
        <ele>85</ele>
        <time>2013-05-19T08:11:44Z</time>
      </trkpt>
      <trkpt lat="48.92373" lon="-0.46919">
        <ele>84</ele>
        <time>2013-05-19T08:11:53Z</time>
      </trkpt>
      <trkpt lat="48.92387" lon="-0.46916">
        <ele>102</ele>
        <time>2013-05-19T08:12:02Z</time>
      </trkpt>
      <trkpt lat="48.92398" lon="-0.46912">
        <ele>101</ele>
        <time>2013-05-19T08:12:08Z</time>
      </trkpt>
      <trkpt lat="48.92403" lon="-0.4691">
        <ele>101</ele>
        <time>2013-05-19T08:12:14Z</time>
      </trkpt>
      <trkpt lat="48.92413" lon="-0.46907">
        <ele>100</ele>
        <time>2013-05-19T08:12:18Z</time>
      </trkpt>
      <trkpt lat="48.9242" lon="-0.46904">
        <ele>101</ele>
        <time>2013-05-19T08:12:24Z</time>
      </trkpt>
      <trkpt lat="48.9244" lon="-0.46897">
        <ele>106</ele>
        <time>2013-05-19T08:12:36Z</time>
      </trkpt>
      <trkpt lat="48.92443" lon="-0.46896">
        <ele>106</ele>
        <time>2013-05-19T08:12:41Z</time>
      </trkpt>
      <trkpt lat="48.92459" lon="-0.4689">
        <ele>107</ele>
        <time>2013-05-19T08:12:49Z</time>
      </trkpt>
      <trkpt lat="48.92478" lon="-0.46883">
        <ele>108</ele>
        <time>2013-05-19T08:13:01Z</time>
      </trkpt>
      <trkpt lat="48.92485" lon="-0.46881">
        <ele>109</ele>
        <time>2013-05-19T08:13:02Z</time>
      </trkpt>
      <trkpt lat="48.92506" lon="-0.46873">
        <ele>113</ele>
        <time>2013-05-19T08:13:11Z</time>
      </trkpt>
      <trkpt lat="48.92514" lon="-0.46871">
        <ele>114</ele>
        <time>2013-05-19T08:13:18Z</time>
      </trkpt>
      <trkpt lat="48.92528" lon="-0.46868">
        <ele>115</ele>
        <time>2013-05-19T08:13:29Z</time>
      </trkpt>
      <trkpt lat="48.92558" lon="-0.46869">
        <ele>116</ele>
        <time>2013-05-19T08:13:38Z</time>
      </trkpt>
      <trkpt lat="48.9256" lon="-0.46869">
        <ele>116</ele>
        <time>2013-05-19T08:13:39Z</time>
      </trkpt>
      <trkpt lat="48.92579" lon="-0.46869">
        <ele>117</ele>
        <time>2013-05-19T08:13:48Z</time>
      </trkpt>
      <trkpt lat="48.9259" lon="-0.4687">
        <ele>122</ele>
        <time>2013-05-19T08:13:58Z</time>
      </trkpt>
      <trkpt lat="48.92604" lon="-0.46871">
        <ele>122</ele>
        <time>2013-05-19T08:14:06Z</time>
      </trkpt>
      <trkpt lat="48.92612" lon="-0.46873">
        <ele>122</ele>
        <time>2013-05-19T08:14:14Z</time>
      </trkpt>
      <trkpt lat="48.92627" lon="-0.46877">
        <ele>122</ele>
        <time>2013-05-19T08:14:19Z</time>
      </trkpt>
      <trkpt lat="48.92627" lon="-0.46877">
        <ele>122</ele>
        <time>2013-05-19T08:14:26Z</time>
      </trkpt>
      <trkpt lat="48.92648" lon="-0.46887">
        <ele>121</ele>
        <time>2013-05-19T08:14:29Z</time>
      </trkpt>
      <trkpt lat="48.9265" lon="-0.46888">
        <ele>121</ele>
        <time>2013-05-19T08:14:31Z</time>
      </trkpt>
      <trkpt lat="48.92658" lon="-0.46893">
        <ele>120</ele>
        <time>2013-05-19T08:14:34Z</time>
      </trkpt>
      <trkpt lat="48.92678" lon="-0.46904">
        <ele>125</ele>
        <time>2013-05-19T08:14:43Z</time>
      </trkpt>
      <trkpt lat="48.92701" lon="-0.46918">
        <ele>110</ele>
        <time>2013-05-19T08:14:51Z</time>
      </trkpt>
      <trkpt lat="48.92739" lon="-0.4695">
        <ele>111</ele>
        <time>2013-05-19T08:15:01Z</time>
      </trkpt>
      <trkpt lat="48.92769" lon="-0.46978">
        <ele>121</ele>
        <time>2013-05-19T08:15:10Z</time>
      </trkpt>
      <trkpt lat="48.92781" lon="-0.46988">
        <ele>122</ele>
        <time>2013-05-19T08:15:18Z</time>
      </trkpt>
      <trkpt lat="48.92781" lon="-0.46988">
        <ele>122</ele>
        <time>2013-05-19T08:15:28Z</time>
      </trkpt>
      <trkpt lat="48.92794" lon="-0.47">
        <ele>125</ele>
        <time>2013-05-19T08:15:40Z</time>
      </trkpt>
      <trkpt lat="48.92794" lon="-0.47">
        <ele>125</ele>
        <time>2013-05-19T08:16:23Z</time>
      </trkpt>
      <trkpt lat="48.92794" lon="-0.47">
        <ele>125</ele>
        <time>2013-05-19T08:16:36Z</time>
      </trkpt>
      <trkpt lat="48.92794" lon="-0.47">
        <ele>125</ele>
        <time>2013-05-19T08:16:45Z</time>
      </trkpt>
      <trkpt lat="48.92794" lon="-0.47">
        <ele>125</ele>
        <time>2013-05-19T08:17:07Z</time>
      </trkpt>
      <trkpt lat="48.92794" lon="-0.47">
        <ele>125</ele>
        <time>2013-05-19T08:17:17Z</time>
      </trkpt>
      <trkpt lat="48.92794" lon="-0.47">
        <ele>125</ele>
        <time>2013-05-19T08:17:28Z</time>
      </trkpt>
      <trkpt lat="48.92794" lon="-0.47">
        <ele>125</ele>
        <time>2013-05-19T08:18:04Z</time>
      </trkpt>
      <trkpt lat="48.92794" lon="-0.47">
        <ele>125</ele>
        <time>2013-05-19T08:18:21Z</time>
      </trkpt>
      <trkpt lat="48.92794" lon="-0.47">
        <ele>125</ele>
        <time>2013-05-19T08:18:33Z</time>
      </trkpt>
      <trkpt lat="48.92835" lon="-0.47027">
        <ele>135</ele>
        <time>2013-05-19T08:18:43Z</time>
      </trkpt>
      <trkpt lat="48.92839" lon="-0.47033">
        <ele>135</ele>
        <time>2013-05-19T08:18:52Z</time>
      </trkpt>
      <trkpt lat="48.92839" lon="-0.47033">
        <ele>135</ele>
        <time>2013-05-19T08:19:43Z</time>
      </trkpt>
      <trkpt lat="48.92845" lon="-0.47041">
        <ele>134</ele>
        <time>2013-05-19T08:19:53Z</time>
      </trkpt>
      <trkpt lat="48.92845" lon="-0.47041">
        <ele>134</ele>
        <time>2013-05-19T08:20:03Z</time>
      </trkpt>
      <trkpt lat="48.9286" lon="-0.47064">
        <ele>132</ele>
        <time>2013-05-19T08:20:06Z</time>
      </trkpt>
      <trkpt lat="48.92861" lon="-0.47066">
        <ele>132</ele>
        <time>2013-05-19T08:20:21Z</time>
      </trkpt>
      <trkpt lat="48.92861" lon="-0.47066">
        <ele>132</ele>
        <time>2013-05-19T08:20:31Z</time>
      </trkpt>
      <trkpt lat="48.92861" lon="-0.47066">
        <ele>132</ele>
        <time>2013-05-19T08:20:40Z</time>
      </trkpt>
      <trkpt lat="48.92861" lon="-0.47066">
        <ele>132</ele>
        <time>2013-05-19T08:20:51Z</time>
      </trkpt>
      <trkpt lat="48.92861" lon="-0.47066">
        <ele>132</ele>
        <time>2013-05-19T08:21:05Z</time>
      </trkpt>
      <trkpt lat="48.92861" lon="-0.47066">
        <ele>132</ele>
        <time>2013-05-19T08:21:47Z</time>
      </trkpt>
      <trkpt lat="48.92861" lon="-0.47066">
        <ele>132</ele>
        <time>2013-05-19T08:22:49Z</time>
      </trkpt>
      <trkpt lat="48.92861" lon="-0.47066">
        <ele>132</ele>
        <time>2013-05-19T08:23:02Z</time>
      </trkpt>
      <trkpt lat="48.92902" lon="-0.47116">
        <ele>123</ele>
        <time>2013-05-19T08:23:10Z</time>
      </trkpt>
      <trkpt lat="48.9291" lon="-0.47126">
        <ele>121</ele>
        <time>2013-05-19T08:23:21Z</time>
      </trkpt>
      <trkpt lat="48.9291" lon="-0.47126">
        <ele>121</ele>
        <time>2013-05-19T08:23:30Z</time>
      </trkpt>
      <trkpt lat="48.92925" lon="-0.47147">
        <ele>147</ele>
        <time>2013-05-19T08:23:39Z</time>
      </trkpt>
      <trkpt lat="48.92927" lon="-0.47151">
        <ele>145</ele>
        <time>2013-05-19T08:23:40Z</time>
      </trkpt>
      <trkpt lat="48.92936" lon="-0.4717">
        <ele>136</ele>
        <time>2013-05-19T08:23:49Z</time>
      </trkpt>
      <trkpt lat="48.92936" lon="-0.4717">
        <ele>136</ele>
        <time>2013-05-19T08:24:09Z</time>
      </trkpt>
      <trkpt lat="48.92951" lon="-0.47225">
        <ele>138</ele>
        <time>2013-05-19T08:24:20Z</time>
      </trkpt>
      <trkpt lat="48.92957" lon="-0.47254">
        <ele>130</ele>
        <time>2013-05-19T08:24:29Z</time>
      </trkpt>
      <trkpt lat="48.9296" lon="-0.47266">
        <ele>131</ele>
        <time>2013-05-19T08:24:39Z</time>
      </trkpt>
      <trkpt lat="48.9296" lon="-0.47266">
        <ele>131</ele>
        <time>2013-05-19T08:24:55Z</time>
      </trkpt>
      <trkpt lat="48.9296" lon="-0.47266">
        <ele>131</ele>
        <time>2013-05-19T08:25:08Z</time>
      </trkpt>
      <trkpt lat="48.9296" lon="-0.47266">
        <ele>131</ele>
        <time>2013-05-19T08:25:22Z</time>
      </trkpt>
      <trkpt lat="48.9296" lon="-0.47266">
        <ele>131</ele>
        <time>2013-05-19T08:25:36Z</time>
      </trkpt>
      <trkpt lat="48.92974" lon="-0.4734">
        <ele>131</ele>
        <time>2013-05-19T08:25:49Z</time>
      </trkpt>
      <trkpt lat="48.92974" lon="-0.47344">
        <ele>131</ele>
        <time>2013-05-19T08:26:00Z</time>
      </trkpt>
      <trkpt lat="48.92977" lon="-0.47358">
        <ele>130</ele>
        <time>2013-05-19T08:26:02Z</time>
      </trkpt>
      <trkpt lat="48.92981" lon="-0.47381">
        <ele>130</ele>
        <time>2013-05-19T08:26:12Z</time>
      </trkpt>
      <trkpt lat="48.92981" lon="-0.47381">
        <ele>130</ele>
        <time>2013-05-19T08:26:23Z</time>
      </trkpt>
      <trkpt lat="48.92981" lon="-0.47381">
        <ele>130</ele>
        <time>2013-05-19T08:26:33Z</time>
      </trkpt>
      <trkpt lat="48.92981" lon="-0.47381">
        <ele>130</ele>
        <time>2013-05-19T08:27:15Z</time>
      </trkpt>
      <trkpt lat="48.92981" lon="-0.47381">
        <ele>130</ele>
        <time>2013-05-19T08:27:28Z</time>
      </trkpt>
      <trkpt lat="48.92981" lon="-0.47381">
        <ele>130</ele>
        <time>2013-05-19T08:27:39Z</time>
      </trkpt>
      <trkpt lat="48.92981" lon="-0.47381">
        <ele>130</ele>
        <time>2013-05-19T08:27:51Z</time>
      </trkpt>
      <trkpt lat="48.92981" lon="-0.47381">
        <ele>130</ele>
        <time>2013-05-19T08:28:01Z</time>
      </trkpt>
      <trkpt lat="48.92981" lon="-0.47381">
        <ele>130</ele>
        <time>2013-05-19T08:28:04Z</time>
      </trkpt>
      <trkpt lat="48.92988" lon="-0.4746">
        <ele>134</ele>
        <time>2013-05-19T08:28:17Z</time>
      </trkpt>
      <trkpt lat="48.92988" lon="-0.4746">
        <ele>134</ele>
        <time>2013-05-19T08:28:36Z</time>
      </trkpt>
      <trkpt lat="48.92988" lon="-0.4746">
        <ele>134</ele>
        <time>2013-05-19T08:28:47Z</time>
      </trkpt>
      <trkpt lat="48.92988" lon="-0.4746">
        <ele>134</ele>
        <time>2013-05-19T08:28:59Z</time>
      </trkpt>
      <trkpt lat="48.92988" lon="-0.4746">
        <ele>134</ele>
        <time>2013-05-19T08:29:19Z</time>
      </trkpt>
      <trkpt lat="48.92988" lon="-0.4746">
        <ele>134</ele>
        <time>2013-05-19T08:29:30Z</time>
      </trkpt>
      <trkpt lat="48.92988" lon="-0.4746">
        <ele>134</ele>
        <time>2013-05-19T08:29:42Z</time>
      </trkpt>
      <trkpt lat="48.92988" lon="-0.4746">
        <ele>134</ele>
        <time>2013-05-19T08:29:52Z</time>
      </trkpt>
      <trkpt lat="48.92988" lon="-0.4746">
        <ele>134</ele>
        <time>2013-05-19T08:30:04Z</time>
      </trkpt>
      <trkpt lat="48.92988" lon="-0.4746">
        <ele>134</ele>
        <time>2013-05-19T08:30:17Z</time>
      </trkpt>
      <trkpt lat="48.92988" lon="-0.4746">
        <ele>134</ele>
        <time>2013-05-19T08:30:41Z</time>
      </trkpt>
      <trkpt lat="48.93004" lon="-0.47521">
        <ele>157</ele>
        <time>2013-05-19T08:30:46Z</time>
      </trkpt>
      <trkpt lat="48.93012" lon="-0.47534">
        <ele>158</ele>
        <time>2013-05-19T08:30:54Z</time>
      </trkpt>
      <trkpt lat="48.93012" lon="-0.47535">
        <ele>158</ele>
        <time>2013-05-19T08:31:03Z</time>
      </trkpt>
      <trkpt lat="48.93012" lon="-0.47535">
        <ele>158</ele>
        <time>2013-05-19T08:31:11Z</time>
      </trkpt>
      <trkpt lat="48.93012" lon="-0.47535">
        <ele>158</ele>
        <time>2013-05-19T08:31:31Z</time>
      </trkpt>
      <trkpt lat="48.93012" lon="-0.47535">
        <ele>158</ele>
        <time>2013-05-19T08:31:41Z</time>
      </trkpt>
      <trkpt lat="48.92984" lon="-0.47606">
        <ele>147</ele>
        <time>2013-05-19T08:31:47Z</time>
      </trkpt>
      <trkpt lat="48.92985" lon="-0.4761">
        <ele>146</ele>
        <time>2013-05-19T08:31:57Z</time>
      </trkpt>
      <trkpt lat="48.92978" lon="-0.47623">
        <ele>144</ele>
        <time>2013-05-19T08:32:09Z</time>
      </trkpt>
      <trkpt lat="48.92976" lon="-0.4763">
        <ele>144</ele>
        <time>2013-05-19T08:32:19Z</time>
      </trkpt>
      <trkpt lat="48.92974" lon="-0.47636">
        <ele>144</ele>
        <time>2013-05-19T08:32:26Z</time>
      </trkpt>
      <trkpt lat="48.92967" lon="-0.47646">
        <ele>143</ele>
        <time>2013-05-19T08:32:37Z</time>
      </trkpt>
      <trkpt lat="48.92967" lon="-0.47651">
        <ele>143</ele>
        <time>2013-05-19T08:32:46Z</time>
      </trkpt>
      <trkpt lat="48.92968" lon="-0.47651">
        <ele>143</ele>
        <time>2013-05-19T08:33:03Z</time>
      </trkpt>
      <trkpt lat="48.92967" lon="-0.47649">
        <ele>143</ele>
        <time>2013-05-19T08:33:17Z</time>
      </trkpt>
      <trkpt lat="48.9297" lon="-0.47649">
        <ele>144</ele>
        <time>2013-05-19T08:33:34Z</time>
      </trkpt>
      <trkpt lat="48.92969" lon="-0.47653">
        <ele>144</ele>
        <time>2013-05-19T08:33:50Z</time>
      </trkpt>
      <trkpt lat="48.92972" lon="-0.47653">
        <ele>144</ele>
        <time>2013-05-19T08:34:07Z</time>
      </trkpt>
      <trkpt lat="48.92971" lon="-0.47654">
        <ele>144</ele>
        <time>2013-05-19T08:34:17Z</time>
      </trkpt>
      <trkpt lat="48.92975" lon="-0.47655">
        <ele>145</ele>
        <time>2013-05-19T08:34:32Z</time>
      </trkpt>
      <trkpt lat="48.92971" lon="-0.47651">
        <ele>144</ele>
        <time>2013-05-19T08:34:45Z</time>
      </trkpt>
      <trkpt lat="48.92978" lon="-0.47659">
        <ele>146</ele>
        <time>2013-05-19T08:35:04Z</time>
      </trkpt>
      <trkpt lat="48.92976" lon="-0.47653">
        <ele>145</ele>
        <time>2013-05-19T08:35:19Z</time>
      </trkpt>
      <trkpt lat="48.92975" lon="-0.47654">
        <ele>145</ele>
        <time>2013-05-19T08:35:38Z</time>
      </trkpt>
      <trkpt lat="48.92975" lon="-0.47653">
        <ele>145</ele>
        <time>2013-05-19T08:36:02Z</time>
      </trkpt>
      <trkpt lat="48.92974" lon="-0.47652">
        <ele>144</ele>
        <time>2013-05-19T08:36:53Z</time>
      </trkpt>
      <trkpt lat="48.92974" lon="-0.47646">
        <ele>144</ele>
        <time>2013-05-19T08:37:54Z</time>
      </trkpt>
      <trkpt lat="48.92978" lon="-0.47642">
        <ele>145</ele>
        <time>2013-05-19T08:38:10Z</time>
      </trkpt>
      <trkpt lat="48.92976" lon="-0.4764">
        <ele>144</ele>
        <time>2013-05-19T08:38:34Z</time>
      </trkpt>
      <trkpt lat="48.92992" lon="-0.47623">
        <ele>146</ele>
        <time>2013-05-19T08:39:07Z</time>
      </trkpt>
      <trkpt lat="48.92989" lon="-0.4762">
        <ele>146</ele>
        <time>2013-05-19T08:44:28Z</time>
      </trkpt>
      <trkpt lat="48.92989" lon="-0.4762">
        <ele>146</ele>
        <time>2013-05-19T08:45:24Z</time>
      </trkpt>
      <trkpt lat="48.92996" lon="-0.4762">
        <ele>147</ele>
        <time>2013-05-19T08:45:35Z</time>
      </trkpt>
      <trkpt lat="48.92997" lon="-0.4762">
        <ele>147</ele>
        <time>2013-05-19T08:45:44Z</time>
      </trkpt>
      <trkpt lat="48.93005" lon="-0.47603">
        <ele>155</ele>
        <time>2013-05-19T08:45:50Z</time>
      </trkpt>
      <trkpt lat="48.9303" lon="-0.4754">
        <ele>159</ele>
        <time>2013-05-19T08:45:55Z</time>
      </trkpt>
      <trkpt lat="48.93036" lon="-0.4754">
        <ele>160</ele>
        <time>2013-05-19T08:46:05Z</time>
      </trkpt>
      <trkpt lat="48.93036" lon="-0.4754">
        <ele>160</ele>
        <time>2013-05-19T08:46:17Z</time>
      </trkpt>
      <trkpt lat="48.93036" lon="-0.4754">
        <ele>160</ele>
        <time>2013-05-19T08:46:37Z</time>
      </trkpt>
      <trkpt lat="48.93036" lon="-0.4754">
        <ele>160</ele>
        <time>2013-05-19T08:46:55Z</time>
      </trkpt>
      <trkpt lat="48.93036" lon="-0.4754">
        <ele>160</ele>
        <time>2013-05-19T08:47:07Z</time>
      </trkpt>
      <trkpt lat="48.93036" lon="-0.4754">
        <ele>160</ele>
        <time>2013-05-19T08:47:19Z</time>
      </trkpt>
      <trkpt lat="48.93036" lon="-0.4754">
        <ele>160</ele>
        <time>2013-05-19T08:47:31Z</time>
      </trkpt>
      <trkpt lat="48.93036" lon="-0.4754">
        <ele>160</ele>
        <time>2013-05-19T08:47:50Z</time>
      </trkpt>
      <trkpt lat="48.93036" lon="-0.4754">
        <ele>160</ele>
        <time>2013-05-19T08:48:04Z</time>
      </trkpt>
      <trkpt lat="48.93036" lon="-0.4754">
        <ele>160</ele>
        <time>2013-05-19T08:50:20Z</time>
      </trkpt>
      <trkpt lat="48.93036" lon="-0.4754">
        <ele>160</ele>
        <time>2013-05-19T08:50:34Z</time>
      </trkpt>
      <trkpt lat="48.93036" lon="-0.4754">
        <ele>160</ele>
        <time>2013-05-19T08:50:50Z</time>
      </trkpt>
      <trkpt lat="48.93036" lon="-0.4754">
        <ele>160</ele>
        <time>2013-05-19T08:51:03Z</time>
      </trkpt>
      <trkpt lat="48.93036" lon="-0.4754">
        <ele>160</ele>
        <time>2013-05-19T08:51:18Z</time>
      </trkpt>
      <trkpt lat="48.93036" lon="-0.4754">
        <ele>160</ele>
        <time>2013-05-19T08:51:33Z</time>
      </trkpt>
      <trkpt lat="48.93036" lon="-0.4754">
        <ele>160</ele>
        <time>2013-05-19T08:51:50Z</time>
      </trkpt>
      <trkpt lat="48.93036" lon="-0.4754">
        <ele>160</ele>
        <time>2013-05-19T08:52:07Z</time>
      </trkpt>
      <trkpt lat="48.93036" lon="-0.4754">
        <ele>160</ele>
        <time>2013-05-19T08:52:27Z</time>
      </trkpt>
      <trkpt lat="48.931" lon="-0.4748">
        <ele>179</ele>
        <time>2013-05-19T08:52:41Z</time>
      </trkpt>
      <trkpt lat="48.93104" lon="-0.47474">
        <ele>181</ele>
        <time>2013-05-19T08:52:52Z</time>
      </trkpt>
      <trkpt lat="48.93109" lon="-0.4747">
        <ele>181</ele>
        <time>2013-05-19T08:53:04Z</time>
      </trkpt>
      <trkpt lat="48.93115" lon="-0.47468">
        <ele>182</ele>
        <time>2013-05-19T08:53:16Z</time>
      </trkpt>
      <trkpt lat="48.93119" lon="-0.47465">
        <ele>182</ele>
        <time>2013-05-19T08:53:36Z</time>
      </trkpt>
      <trkpt lat="48.93122" lon="-0.47461">
        <ele>183</ele>
        <time>2013-05-19T08:53:56Z</time>
      </trkpt>
      <trkpt lat="48.93124" lon="-0.47457">
        <ele>183</ele>
        <time>2013-05-19T08:54:13Z</time>
      </trkpt>
      <trkpt lat="48.93126" lon="-0.47448">
        <ele>184</ele>
        <time>2013-05-19T08:54:26Z</time>
      </trkpt>
      <trkpt lat="48.93127" lon="-0.47442">
        <ele>184</ele>
        <time>2013-05-19T08:54:40Z</time>
      </trkpt>
      <trkpt lat="48.93127" lon="-0.47439">
        <ele>185</ele>
        <time>2013-05-19T08:54:50Z</time>
      </trkpt>
      <trkpt lat="48.93128" lon="-0.47438">
        <ele>185</ele>
        <time>2013-05-19T08:54:53Z</time>
      </trkpt>
      <trkpt lat="48.9313" lon="-0.4743">
        <ele>185</ele>
        <time>2013-05-19T08:55:02Z</time>
      </trkpt>
      <trkpt lat="48.93133" lon="-0.47421">
        <ele>186</ele>
        <time>2013-05-19T08:55:15Z</time>
      </trkpt>
      <trkpt lat="48.93138" lon="-0.47407">
        <ele>192</ele>
        <time>2013-05-19T08:55:35Z</time>
      </trkpt>
      <trkpt lat="48.93139" lon="-0.47405">
        <ele>192</ele>
        <time>2013-05-19T08:55:54Z</time>
      </trkpt>
      <trkpt lat="48.9314" lon="-0.47404">
        <ele>192</ele>
        <time>2013-05-19T08:56:37Z</time>
      </trkpt>
      <trkpt lat="48.93138" lon="-0.47399">
        <ele>192</ele>
        <time>2013-05-19T08:57:50Z</time>
      </trkpt>
      <trkpt lat="48.93128" lon="-0.47385">
        <ele>193</ele>
        <time>2013-05-19T08:58:07Z</time>
      </trkpt>
      <trkpt lat="48.93117" lon="-0.47371">
        <ele>193</ele>
        <time>2013-05-19T08:58:20Z</time>
      </trkpt>
      <trkpt lat="48.93099" lon="-0.47348">
        <ele>193</ele>
        <time>2013-05-19T08:58:41Z</time>
      </trkpt>
      <trkpt lat="48.93096" lon="-0.47344">
        <ele>194</ele>
        <time>2013-05-19T08:58:45Z</time>
      </trkpt>
      <trkpt lat="48.93082" lon="-0.47325">
        <ele>190</ele>
        <time>2013-05-19T08:59:03Z</time>
      </trkpt>
      <trkpt lat="48.93073" lon="-0.47312">
        <ele>187</ele>
        <time>2013-05-19T08:59:14Z</time>
      </trkpt>
      <trkpt lat="48.93066" lon="-0.47279">
        <ele>187</ele>
        <time>2013-05-19T08:59:39Z</time>
      </trkpt>
      <trkpt lat="48.93067" lon="-0.4727">
        <ele>189</ele>
        <time>2013-05-19T08:59:45Z</time>
      </trkpt>
      <trkpt lat="48.93068" lon="-0.47238">
        <ele>197</ele>
        <time>2013-05-19T09:00:06Z</time>
      </trkpt>
      <trkpt lat="48.93069" lon="-0.472">
        <ele>196</ele>
        <time>2013-05-19T09:00:30Z</time>
      </trkpt>
      <trkpt lat="48.93069" lon="-0.47159">
        <ele>205</ele>
        <time>2013-05-19T09:00:48Z</time>
      </trkpt>
      <trkpt lat="48.93069" lon="-0.47118">
        <ele>206</ele>
        <time>2013-05-19T09:01:03Z</time>
      </trkpt>
      <trkpt lat="48.93071" lon="-0.47074">
        <ele>215</ele>
        <time>2013-05-19T09:01:22Z</time>
      </trkpt>
      <trkpt lat="48.93085" lon="-0.47045">
        <ele>220</ele>
        <time>2013-05-19T09:01:38Z</time>
      </trkpt>
      <trkpt lat="48.93099" lon="-0.47007">
        <ele>221</ele>
        <time>2013-05-19T09:01:59Z</time>
      </trkpt>
      <trkpt lat="48.9311" lon="-0.46981">
        <ele>223</ele>
        <time>2013-05-19T09:02:09Z</time>
      </trkpt>
      <trkpt lat="48.93127" lon="-0.46932">
        <ele>223</ele>
        <time>2013-05-19T09:02:23Z</time>
      </trkpt>
      <trkpt lat="48.93156" lon="-0.46856">
        <ele>226</ele>
        <time>2013-05-19T09:02:40Z</time>
      </trkpt>
      <trkpt lat="48.93184" lon="-0.46777">
        <ele>227</ele>
        <time>2013-05-19T09:02:56Z</time>
      </trkpt>
      <trkpt lat="48.93171" lon="-0.46745">
        <ele>228</ele>
        <time>2013-05-19T09:03:04Z</time>
      </trkpt>
      <trkpt lat="48.93143" lon="-0.46715">
        <ele>228</ele>
        <time>2013-05-19T09:03:17Z</time>
      </trkpt>
      <trkpt lat="48.93121" lon="-0.46687">
        <ele>228</ele>
        <time>2013-05-19T09:03:30Z</time>
      </trkpt>
      <trkpt lat="48.93101" lon="-0.46654">
        <ele>229</ele>
        <time>2013-05-19T09:03:44Z</time>
      </trkpt>
      <trkpt lat="48.93077" lon="-0.46624">
        <ele>231</ele>
        <time>2013-05-19T09:03:59Z</time>
      </trkpt>
      <trkpt lat="48.93057" lon="-0.46597">
        <ele>231</ele>
        <time>2013-05-19T09:04:13Z</time>
      </trkpt>
      <trkpt lat="48.93031" lon="-0.46566">
        <ele>231</ele>
        <time>2013-05-19T09:04:28Z</time>
      </trkpt>
      <trkpt lat="48.9301" lon="-0.4654">
        <ele>231</ele>
        <time>2013-05-19T09:04:39Z</time>
      </trkpt>
      <trkpt lat="48.92983" lon="-0.46504">
        <ele>232</ele>
        <time>2013-05-19T09:04:51Z</time>
      </trkpt>
      <trkpt lat="48.92962" lon="-0.46466">
        <ele>233</ele>
        <time>2013-05-19T09:05:05Z</time>
      </trkpt>
      <trkpt lat="48.9294" lon="-0.46452">
        <ele>233</ele>
        <time>2013-05-19T09:05:16Z</time>
      </trkpt>
      <trkpt lat="48.92917" lon="-0.46438">
        <ele>234</ele>
        <time>2013-05-19T09:05:27Z</time>
      </trkpt>
      <trkpt lat="48.92896" lon="-0.46423">
        <ele>235</ele>
        <time>2013-05-19T09:05:38Z</time>
      </trkpt>
      <trkpt lat="48.92869" lon="-0.46396">
        <ele>233</ele>
        <time>2013-05-19T09:05:50Z</time>
      </trkpt>
      <trkpt lat="48.9283" lon="-0.46364">
        <ele>233</ele>
        <time>2013-05-19T09:06:02Z</time>
      </trkpt>
      <trkpt lat="48.9279" lon="-0.46313">
        <ele>232</ele>
        <time>2013-05-19T09:06:16Z</time>
      </trkpt>
      <trkpt lat="48.92759" lon="-0.46266">
        <ele>233</ele>
        <time>2013-05-19T09:06:30Z</time>
      </trkpt>
      <trkpt lat="48.92734" lon="-0.4621">
        <ele>233</ele>
        <time>2013-05-19T09:06:47Z</time>
      </trkpt>
      <trkpt lat="48.92718" lon="-0.46174">
        <ele>233</ele>
        <time>2013-05-19T09:07:02Z</time>
      </trkpt>
      <trkpt lat="48.9269" lon="-0.46112">
        <ele>233</ele>
        <time>2013-05-19T09:07:24Z</time>
      </trkpt>
      <trkpt lat="48.9266" lon="-0.46042">
        <ele>236</ele>
        <time>2013-05-19T09:07:44Z</time>
      </trkpt>
      <trkpt lat="48.92638" lon="-0.45986">
        <ele>235</ele>
        <time>2013-05-19T09:08:01Z</time>
      </trkpt>
      <trkpt lat="48.92615" lon="-0.45933">
        <ele>236</ele>
        <time>2013-05-19T09:08:19Z</time>
      </trkpt>
      <trkpt lat="48.92594" lon="-0.45887">
        <ele>235</ele>
        <time>2013-05-19T09:08:35Z</time>
      </trkpt>
      <trkpt lat="48.92574" lon="-0.45845">
        <ele>239</ele>
        <time>2013-05-19T09:08:50Z</time>
      </trkpt>
      <trkpt lat="48.92556" lon="-0.45809">
        <ele>239</ele>
        <time>2013-05-19T09:09:06Z</time>
      </trkpt>
      <trkpt lat="48.9254" lon="-0.4578">
        <ele>240</ele>
        <time>2013-05-19T09:09:20Z</time>
      </trkpt>
      <trkpt lat="48.92518" lon="-0.45743">
        <ele>240</ele>
        <time>2013-05-19T09:09:35Z</time>
      </trkpt>
      <trkpt lat="48.92483" lon="-0.45697">
        <ele>243</ele>
        <time>2013-05-19T09:09:51Z</time>
      </trkpt>
      <trkpt lat="48.92437" lon="-0.45626">
        <ele>242</ele>
        <time>2013-05-19T09:10:10Z</time>
      </trkpt>
      <trkpt lat="48.9238" lon="-0.45544">
        <ele>241</ele>
        <time>2013-05-19T09:10:32Z</time>
      </trkpt>
      <trkpt lat="48.92338" lon="-0.45511">
        <ele>241</ele>
        <time>2013-05-19T09:10:48Z</time>
      </trkpt>
      <trkpt lat="48.92317" lon="-0.4549">
        <ele>240</ele>
        <time>2013-05-19T09:11:00Z</time>
      </trkpt>
      <trkpt lat="48.92317" lon="-0.4549">
        <ele>240</ele>
        <time>2013-05-19T09:14:37Z</time>
      </trkpt>
      <trkpt lat="48.92317" lon="-0.4549">
        <ele>240</ele>
        <time>2013-05-19T09:15:27Z</time>
      </trkpt>
      <trkpt lat="48.92317" lon="-0.4549">
        <ele>240</ele>
        <time>2013-05-19T09:16:02Z</time>
      </trkpt>
      <trkpt lat="48.92317" lon="-0.4549">
        <ele>240</ele>
        <time>2013-05-19T09:16:41Z</time>
      </trkpt>
      <trkpt lat="48.92317" lon="-0.4549">
        <ele>240</ele>
        <time>2013-05-19T09:16:53Z</time>
      </trkpt>
      <trkpt lat="48.923" lon="-0.45468">
        <ele>240</ele>
        <time>2013-05-19T09:17:05Z</time>
      </trkpt>
      <trkpt lat="48.92275" lon="-0.4543">
        <ele>239</ele>
        <time>2013-05-19T09:17:17Z</time>
      </trkpt>
      <trkpt lat="48.92253" lon="-0.45398">
        <ele>238</ele>
        <time>2013-05-19T09:17:29Z</time>
      </trkpt>
      <trkpt lat="48.92244" lon="-0.45383">
        <ele>237</ele>
        <time>2013-05-19T09:17:36Z</time>
      </trkpt>
      <trkpt lat="48.9224" lon="-0.45378">
        <ele>237</ele>
        <time>2013-05-19T09:17:39Z</time>
      </trkpt>
      <trkpt lat="48.92217" lon="-0.4534">
        <ele>237</ele>
        <time>2013-05-19T09:17:50Z</time>
      </trkpt>
      <trkpt lat="48.92188" lon="-0.45274">
        <ele>239</ele>
        <time>2013-05-19T09:18:07Z</time>
      </trkpt>
      <trkpt lat="48.92172" lon="-0.4521">
        <ele>242</ele>
        <time>2013-05-19T09:18:25Z</time>
      </trkpt>
      <trkpt lat="48.92161" lon="-0.45161">
        <ele>242</ele>
        <time>2013-05-19T09:18:42Z</time>
      </trkpt>
      <trkpt lat="48.92151" lon="-0.45108">
        <ele>242</ele>
        <time>2013-05-19T09:18:56Z</time>
      </trkpt>
      <trkpt lat="48.92138" lon="-0.45019">
        <ele>245</ele>
        <time>2013-05-19T09:19:18Z</time>
      </trkpt>
      <trkpt lat="48.92127" lon="-0.44932">
        <ele>247</ele>
        <time>2013-05-19T09:19:39Z</time>
      </trkpt>
      <trkpt lat="48.9212" lon="-0.44868">
        <ele>248</ele>
        <time>2013-05-19T09:19:54Z</time>
      </trkpt>
      <trkpt lat="48.92106" lon="-0.44794">
        <ele>249</ele>
        <time>2013-05-19T09:20:11Z</time>
      </trkpt>
      <trkpt lat="48.92094" lon="-0.44734">
        <ele>250</ele>
        <time>2013-05-19T09:20:26Z</time>
      </trkpt>
      <trkpt lat="48.92094" lon="-0.44697">
        <ele>251</ele>
        <time>2013-05-19T09:20:37Z</time>
      </trkpt>
      <trkpt lat="48.92091" lon="-0.44628">
        <ele>253</ele>
        <time>2013-05-19T09:20:53Z</time>
      </trkpt>
      <trkpt lat="48.92085" lon="-0.44591">
        <ele>254</ele>
        <time>2013-05-19T09:21:05Z</time>
      </trkpt>
      <trkpt lat="48.92079" lon="-0.44559">
        <ele>255</ele>
        <time>2013-05-19T09:21:18Z</time>
      </trkpt>
      <trkpt lat="48.92064" lon="-0.44509">
        <ele>255</ele>
        <time>2013-05-19T09:21:33Z</time>
      </trkpt>
      <trkpt lat="48.92049" lon="-0.44463">
        <ele>257</ele>
        <time>2013-05-19T09:21:48Z</time>
      </trkpt>
      <trkpt lat="48.92033" lon="-0.44429">
        <ele>258</ele>
        <time>2013-05-19T09:22:01Z</time>
      </trkpt>
      <trkpt lat="48.92016" lon="-0.44387">
        <ele>260</ele>
        <time>2013-05-19T09:22:13Z</time>
      </trkpt>
      <trkpt lat="48.9201" lon="-0.4437">
        <ele>260</ele>
        <time>2013-05-19T09:22:25Z</time>
      </trkpt>
      <trkpt lat="48.9201" lon="-0.4437">
        <ele>260</ele>
        <time>2013-05-19T09:23:15Z</time>
      </trkpt>
      <trkpt lat="48.9201" lon="-0.4437">
        <ele>260</ele>
        <time>2013-05-19T09:24:12Z</time>
      </trkpt>
      <trkpt lat="48.9201" lon="-0.4437">
        <ele>260</ele>
        <time>2013-05-19T09:24:35Z</time>
      </trkpt>
      <trkpt lat="48.91992" lon="-0.44376">
        <ele>261</ele>
        <time>2013-05-19T09:24:48Z</time>
      </trkpt>
      <trkpt lat="48.91953" lon="-0.44397">
        <ele>261</ele>
        <time>2013-05-19T09:25:06Z</time>
      </trkpt>
      <trkpt lat="48.91925" lon="-0.4441">
        <ele>261</ele>
        <time>2013-05-19T09:25:19Z</time>
      </trkpt>
      <trkpt lat="48.91899" lon="-0.44417">
        <ele>260</ele>
        <time>2013-05-19T09:25:29Z</time>
      </trkpt>
      <trkpt lat="48.91864" lon="-0.4442">
        <ele>260</ele>
        <time>2013-05-19T09:25:39Z</time>
      </trkpt>
      <trkpt lat="48.91833" lon="-0.44418">
        <ele>260</ele>
        <time>2013-05-19T09:25:47Z</time>
      </trkpt>
      <trkpt lat="48.91775" lon="-0.4441">
        <ele>257</ele>
        <time>2013-05-19T09:26:01Z</time>
      </trkpt>
      <trkpt lat="48.91736" lon="-0.44401">
        <ele>253</ele>
        <time>2013-05-19T09:26:13Z</time>
      </trkpt>
      <trkpt lat="48.91703" lon="-0.44393">
        <ele>251</ele>
        <time>2013-05-19T09:26:23Z</time>
      </trkpt>
      <trkpt lat="48.91676" lon="-0.44391">
        <ele>250</ele>
        <time>2013-05-19T09:26:34Z</time>
      </trkpt>
      <trkpt lat="48.91631" lon="-0.44387">
        <ele>244</ele>
        <time>2013-05-19T09:26:47Z</time>
      </trkpt>
      <trkpt lat="48.91565" lon="-0.44382">
        <ele>236</ele>
        <time>2013-05-19T09:27:02Z</time>
      </trkpt>
      <trkpt lat="48.91536" lon="-0.4438">
        <ele>235</ele>
        <time>2013-05-19T09:27:08Z</time>
      </trkpt>
      <trkpt lat="48.91505" lon="-0.44378">
        <ele>233</ele>
        <time>2013-05-19T09:27:17Z</time>
      </trkpt>
      <trkpt lat="48.91503" lon="-0.44378">
        <ele>233</ele>
        <time>2013-05-19T09:27:26Z</time>
      </trkpt>
      <trkpt lat="48.91503" lon="-0.44378">
        <ele>233</ele>
        <time>2013-05-19T09:27:28Z</time>
      </trkpt>
      <trkpt lat="48.915" lon="-0.44376">
        <ele>233</ele>
        <time>2013-05-19T09:27:38Z</time>
      </trkpt>
      <trkpt lat="48.915" lon="-0.44376">
        <ele>233</ele>
        <time>2013-05-19T09:27:52Z</time>
      </trkpt>
      <trkpt lat="48.91496" lon="-0.44369">
        <ele>227</ele>
        <time>2013-05-19T09:27:57Z</time>
      </trkpt>
      <trkpt lat="48.9151" lon="-0.44336">
        <ele>233</ele>
        <time>2013-05-19T09:28:10Z</time>
      </trkpt>
      <trkpt lat="48.91534" lon="-0.44282">
        <ele>236</ele>
        <time>2013-05-19T09:28:28Z</time>
      </trkpt>
      <trkpt lat="48.91562" lon="-0.44225">
        <ele>237</ele>
        <time>2013-05-19T09:28:47Z</time>
      </trkpt>
      <trkpt lat="48.91591" lon="-0.44179">
        <ele>239</ele>
        <time>2013-05-19T09:29:04Z</time>
      </trkpt>
      <trkpt lat="48.91625" lon="-0.44143">
        <ele>239</ele>
        <time>2013-05-19T09:29:22Z</time>
      </trkpt>
      <trkpt lat="48.91667" lon="-0.44096">
        <ele>242</ele>
        <time>2013-05-19T09:29:42Z</time>
      </trkpt>
      <trkpt lat="48.91692" lon="-0.44037">
        <ele>242</ele>
        <time>2013-05-19T09:29:57Z</time>
      </trkpt>
      <trkpt lat="48.91725" lon="-0.4393">
        <ele>240</ele>
        <time>2013-05-19T09:30:21Z</time>
      </trkpt>
      <trkpt lat="48.91727" lon="-0.43859">
        <ele>240</ele>
        <time>2013-05-19T09:30:37Z</time>
      </trkpt>
      <trkpt lat="48.91723" lon="-0.43797">
        <ele>242</ele>
        <time>2013-05-19T09:30:53Z</time>
      </trkpt>
      <trkpt lat="48.91711" lon="-0.4371">
        <ele>245</ele>
        <time>2013-05-19T09:31:14Z</time>
      </trkpt>
      <trkpt lat="48.917" lon="-0.43645">
        <ele>248</ele>
        <time>2013-05-19T09:31:35Z</time>
      </trkpt>
      <trkpt lat="48.91695" lon="-0.43608">
        <ele>249</ele>
        <time>2013-05-19T09:31:53Z</time>
      </trkpt>
      <trkpt lat="48.91691" lon="-0.43572">
        <ele>252</ele>
        <time>2013-05-19T09:32:13Z</time>
      </trkpt>
      <trkpt lat="48.91688" lon="-0.4354">
        <ele>253</ele>
        <time>2013-05-19T09:32:30Z</time>
      </trkpt>
      <trkpt lat="48.91687" lon="-0.43539">
        <ele>253</ele>
        <time>2013-05-19T09:32:34Z</time>
      </trkpt>
      <trkpt lat="48.91683" lon="-0.43497">
        <ele>257</ele>
        <time>2013-05-19T09:32:52Z</time>
      </trkpt>
      <trkpt lat="48.91679" lon="-0.4347">
        <ele>258</ele>
        <time>2013-05-19T09:33:06Z</time>
      </trkpt>
      <trkpt lat="48.91675" lon="-0.43433">
        <ele>260</ele>
        <time>2013-05-19T09:33:24Z</time>
      </trkpt>
      <trkpt lat="48.91672" lon="-0.43391">
        <ele>262</ele>
        <time>2013-05-19T09:33:44Z</time>
      </trkpt>
      <trkpt lat="48.91667" lon="-0.43345">
        <ele>263</ele>
        <time>2013-05-19T09:34:04Z</time>
      </trkpt>
      <trkpt lat="48.91662" lon="-0.43296">
        <ele>266</ele>
        <time>2013-05-19T09:34:19Z</time>
      </trkpt>
      <trkpt lat="48.91654" lon="-0.43225">
        <ele>267</ele>
        <time>2013-05-19T09:34:38Z</time>
      </trkpt>
      <trkpt lat="48.91645" lon="-0.43147">
        <ele>268</ele>
        <time>2013-05-19T09:35:00Z</time>
      </trkpt>
      <trkpt lat="48.9164" lon="-0.43099">
        <ele>269</ele>
        <time>2013-05-19T09:35:14Z</time>
      </trkpt>
      <trkpt lat="48.91632" lon="-0.43025">
        <ele>270</ele>
        <time>2013-05-19T09:35:35Z</time>
      </trkpt>
      <trkpt lat="48.91629" lon="-0.42941">
        <ele>269</ele>
        <time>2013-05-19T09:35:55Z</time>
      </trkpt>
      <trkpt lat="48.91625" lon="-0.42874">
        <ele>269</ele>
        <time>2013-05-19T09:36:10Z</time>
      </trkpt>
      <trkpt lat="48.91616" lon="-0.42771">
        <ele>269</ele>
        <time>2013-05-19T09:36:26Z</time>
      </trkpt>
      <trkpt lat="48.91613" lon="-0.42735">
        <ele>268</ele>
        <time>2013-05-19T09:36:31Z</time>
      </trkpt>
      <trkpt lat="48.91615" lon="-0.42647">
        <ele>267</ele>
        <time>2013-05-19T09:36:45Z</time>
      </trkpt>
      <trkpt lat="48.91615" lon="-0.4257">
        <ele>267</ele>
        <time>2013-05-19T09:37:00Z</time>
      </trkpt>
      <trkpt lat="48.91613" lon="-0.42493">
        <ele>267</ele>
        <time>2013-05-19T09:37:14Z</time>
      </trkpt>
      <trkpt lat="48.91611" lon="-0.42408">
        <ele>267</ele>
        <time>2013-05-19T09:37:30Z</time>
      </trkpt>
      <trkpt lat="48.91611" lon="-0.42381">
        <ele>268</ele>
        <time>2013-05-19T09:37:39Z</time>
      </trkpt>
      <trkpt lat="48.91611" lon="-0.42381">
        <ele>268</ele>
        <time>2013-05-19T09:37:57Z</time>
      </trkpt>
      <trkpt lat="48.91611" lon="-0.42374">
        <ele>268</ele>
        <time>2013-05-19T09:38:00Z</time>
      </trkpt>
      <trkpt lat="48.9161" lon="-0.42365">
        <ele>268</ele>
        <time>2013-05-19T09:38:08Z</time>
      </trkpt>
      <trkpt lat="48.9161" lon="-0.42365">
        <ele>268</ele>
        <time>2013-05-19T09:38:35Z</time>
      </trkpt>
      <trkpt lat="48.9161" lon="-0.42365">
        <ele>268</ele>
        <time>2013-05-19T09:39:33Z</time>
      </trkpt>
      <trkpt lat="48.91609" lon="-0.42324">
        <ele>270</ele>
        <time>2013-05-19T09:39:45Z</time>
      </trkpt>
      <trkpt lat="48.91614" lon="-0.42245">
        <ele>273</ele>
        <time>2013-05-19T09:40:06Z</time>
      </trkpt>
      <trkpt lat="48.9162" lon="-0.42192">
        <ele>275</ele>
        <time>2013-05-19T09:40:22Z</time>
      </trkpt>
      <trkpt lat="48.91623" lon="-0.42162">
        <ele>278</ele>
        <time>2013-05-19T09:40:32Z</time>
      </trkpt>
      <trkpt lat="48.91631" lon="-0.42118">
        <ele>279</ele>
        <time>2013-05-19T09:40:45Z</time>
      </trkpt>
      <trkpt lat="48.91633" lon="-0.42068">
        <ele>282</ele>
        <time>2013-05-19T09:41:01Z</time>
      </trkpt>
      <trkpt lat="48.91639" lon="-0.42006">
        <ele>283</ele>
        <time>2013-05-19T09:41:18Z</time>
      </trkpt>
      <trkpt lat="48.9165" lon="-0.41926">
        <ele>285</ele>
        <time>2013-05-19T09:41:38Z</time>
      </trkpt>
      <trkpt lat="48.91667" lon="-0.41845">
        <ele>288</ele>
        <time>2013-05-19T09:42:00Z</time>
      </trkpt>
      <trkpt lat="48.91683" lon="-0.41788">
        <ele>289</ele>
        <time>2013-05-19T09:42:16Z</time>
      </trkpt>
      <trkpt lat="48.91708" lon="-0.41716">
        <ele>289</ele>
        <time>2013-05-19T09:42:32Z</time>
      </trkpt>
      <trkpt lat="48.91732" lon="-0.41655">
        <ele>290</ele>
        <time>2013-05-19T09:42:46Z</time>
      </trkpt>
      <trkpt lat="48.91752" lon="-0.41604">
        <ele>292</ele>
        <time>2013-05-19T09:42:59Z</time>
      </trkpt>
      <trkpt lat="48.91777" lon="-0.4154">
        <ele>291</ele>
        <time>2013-05-19T09:43:14Z</time>
      </trkpt>
      <trkpt lat="48.91799" lon="-0.41483">
        <ele>290</ele>
        <time>2013-05-19T09:43:26Z</time>
      </trkpt>
      <trkpt lat="48.91824" lon="-0.41418">
        <ele>291</ele>
        <time>2013-05-19T09:43:40Z</time>
      </trkpt>
      <trkpt lat="48.91859" lon="-0.41332">
        <ele>290</ele>
        <time>2013-05-19T09:43:59Z</time>
      </trkpt>
      <trkpt lat="48.91891" lon="-0.41256">
        <ele>291</ele>
        <time>2013-05-19T09:44:16Z</time>
      </trkpt>
      <trkpt lat="48.91929" lon="-0.41189">
        <ele>291</ele>
        <time>2013-05-19T09:44:30Z</time>
      </trkpt>
      <trkpt lat="48.91961" lon="-0.41138">
        <ele>290</ele>
        <time>2013-05-19T09:44:45Z</time>
      </trkpt>
      <trkpt lat="48.91963" lon="-0.41135">
        <ele>290</ele>
        <time>2013-05-19T09:44:46Z</time>
      </trkpt>
      <trkpt lat="48.91974" lon="-0.41113">
        <ele>290</ele>
        <time>2013-05-19T09:44:58Z</time>
      </trkpt>
      <trkpt lat="48.9202" lon="-0.41069">
        <ele>294</ele>
        <time>2013-05-19T09:45:13Z</time>
      </trkpt>
      <trkpt lat="48.9205" lon="-0.41032">
        <ele>296</ele>
        <time>2013-05-19T09:45:27Z</time>
      </trkpt>
      <trkpt lat="48.9207" lon="-0.40984">
        <ele>296</ele>
        <time>2013-05-19T09:45:41Z</time>
      </trkpt>
      <trkpt lat="48.92077" lon="-0.40903">
        <ele>295</ele>
        <time>2013-05-19T09:45:57Z</time>
      </trkpt>
      <trkpt lat="48.92084" lon="-0.4081">
        <ele>294</ele>
        <time>2013-05-19T09:46:09Z</time>
      </trkpt>
      <trkpt lat="48.92115" lon="-0.40702">
        <ele>291</ele>
        <time>2013-05-19T09:46:21Z</time>
      </trkpt>
      <trkpt lat="48.92159" lon="-0.4062">
        <ele>290</ele>
        <time>2013-05-19T09:46:32Z</time>
      </trkpt>
      <trkpt lat="48.92182" lon="-0.40593">
        <ele>289</ele>
        <time>2013-05-19T09:46:38Z</time>
      </trkpt>
      <trkpt lat="48.92198" lon="-0.40578">
        <ele>289</ele>
        <time>2013-05-19T09:46:42Z</time>
      </trkpt>
      <trkpt lat="48.92262" lon="-0.40528">
        <ele>288</ele>
        <time>2013-05-19T09:46:55Z</time>
      </trkpt>
      <trkpt lat="48.9235" lon="-0.40456">
        <ele>286</ele>
        <time>2013-05-19T09:47:12Z</time>
      </trkpt>
      <trkpt lat="48.92424" lon="-0.404">
        <ele>282</ele>
        <time>2013-05-19T09:47:25Z</time>
      </trkpt>
      <trkpt lat="48.92514" lon="-0.40354">
        <ele>279</ele>
        <time>2013-05-19T09:47:38Z</time>
      </trkpt>
      <trkpt lat="48.92613" lon="-0.40328">
        <ele>280</ele>
        <time>2013-05-19T09:47:50Z</time>
      </trkpt>
      <trkpt lat="48.92632" lon="-0.40327">
        <ele>280</ele>
        <time>2013-05-19T09:47:52Z</time>
      </trkpt>
      <trkpt lat="48.92755" lon="-0.40325">
        <ele>273</ele>
        <time>2013-05-19T09:48:05Z</time>
      </trkpt>
      <trkpt lat="48.92783" lon="-0.40332">
        <ele>273</ele>
        <time>2013-05-19T09:48:08Z</time>
      </trkpt>
      <trkpt lat="48.92925" lon="-0.40378">
        <ele>272</ele>
        <time>2013-05-19T09:48:25Z</time>
      </trkpt>
      <trkpt lat="48.92995" lon="-0.40423">
        <ele>271</ele>
        <time>2013-05-19T09:48:37Z</time>
      </trkpt>
      <trkpt lat="48.9305" lon="-0.40478">
        <ele>271</ele>
        <time>2013-05-19T09:48:50Z</time>
      </trkpt>
      <trkpt lat="48.93053" lon="-0.4048">
        <ele>271</ele>
        <time>2013-05-19T09:48:51Z</time>
      </trkpt>
      <trkpt lat="48.93079" lon="-0.40498">
        <ele>273</ele>
        <time>2013-05-19T09:49:01Z</time>
      </trkpt>
      <trkpt lat="48.93079" lon="-0.40498">
        <ele>273</ele>
        <time>2013-05-19T09:49:07Z</time>
      </trkpt>
      <trkpt lat="48.9307" lon="-0.4049">
        <ele>272</ele>
        <time>2013-05-19T09:49:13Z</time>
      </trkpt>
      <trkpt lat="48.93043" lon="-0.4047">
        <ele>271</ele>
        <time>2013-05-19T09:49:24Z</time>
      </trkpt>
      <trkpt lat="48.93037" lon="-0.40464">
        <ele>271</ele>
        <time>2013-05-19T09:49:34Z</time>
      </trkpt>
      <trkpt lat="48.93037" lon="-0.40464">
        <ele>271</ele>
        <time>2013-05-19T09:49:59Z</time>
      </trkpt>
      <trkpt lat="48.93052" lon="-0.40455">
        <ele>271</ele>
        <time>2013-05-19T09:50:06Z</time>
      </trkpt>
      <trkpt lat="48.93052" lon="-0.40455">
        <ele>271</ele>
        <time>2013-05-19T09:50:20Z</time>
      </trkpt>
      <trkpt lat="48.93052" lon="-0.40455">
        <ele>271</ele>
        <time>2013-05-19T09:50:22Z</time>
      </trkpt>
      <trkpt lat="48.93054" lon="-0.40441">
        <ele>272</ele>
        <time>2013-05-19T09:50:32Z</time>
      </trkpt>
      <trkpt lat="48.93054" lon="-0.40441">
        <ele>272</ele>
        <time>2013-05-19T09:56:43Z</time>
      </trkpt>
      <trkpt lat="48.93054" lon="-0.40441">
        <ele>272</ele>
        <time>2013-05-19T09:56:48Z</time>
      </trkpt>
      <trkpt lat="48.93053" lon="-0.40446">
        <ele>272</ele>
        <time>2013-05-19T09:56:59Z</time>
      </trkpt>
      <trkpt lat="48.93053" lon="-0.40446">
        <ele>272</ele>
        <time>2013-05-19T09:57:15Z</time>
      </trkpt>
      <trkpt lat="48.93053" lon="-0.40446">
        <ele>272</ele>
        <time>2013-05-19T09:57:35Z</time>
      </trkpt>
      <trkpt lat="48.93053" lon="-0.40446">
        <ele>272</ele>
        <time>2013-05-19T09:57:52Z</time>
      </trkpt>
      <trkpt lat="48.93053" lon="-0.40446">
        <ele>272</ele>
        <time>2013-05-19T09:58:04Z</time>
      </trkpt>
      <trkpt lat="48.93052" lon="-0.40456">
        <ele>271</ele>
        <time>2013-05-19T09:58:13Z</time>
      </trkpt>
      <trkpt lat="48.93002" lon="-0.40428">
        <ele>271</ele>
        <time>2013-05-19T09:58:31Z</time>
      </trkpt>
      <trkpt lat="48.92949" lon="-0.40394">
        <ele>272</ele>
        <time>2013-05-19T09:58:50Z</time>
      </trkpt>
      <trkpt lat="48.92896" lon="-0.40366">
        <ele>272</ele>
        <time>2013-05-19T09:59:04Z</time>
      </trkpt>
      <trkpt lat="48.9284" lon="-0.40346">
        <ele>272</ele>
        <time>2013-05-19T09:59:20Z</time>
      </trkpt>
      <trkpt lat="48.928" lon="-0.40335">
        <ele>272</ele>
        <time>2013-05-19T09:59:33Z</time>
      </trkpt>
      <trkpt lat="48.92772" lon="-0.40329">
        <ele>273</ele>
        <time>2013-05-19T09:59:44Z</time>
      </trkpt>
      <trkpt lat="48.92735" lon="-0.40324">
        <ele>275</ele>
        <time>2013-05-19T10:00:00Z</time>
      </trkpt>
      <trkpt lat="48.92685" lon="-0.40323">
        <ele>277</ele>
        <time>2013-05-19T10:00:17Z</time>
      </trkpt>
      <trkpt lat="48.92636" lon="-0.40326">
        <ele>280</ele>
        <time>2013-05-19T10:00:35Z</time>
      </trkpt>
      <trkpt lat="48.92589" lon="-0.40332">
        <ele>280</ele>
        <time>2013-05-19T10:00:51Z</time>
      </trkpt>
      <trkpt lat="48.9257" lon="-0.40336">
        <ele>279</ele>
        <time>2013-05-19T10:01:02Z</time>
      </trkpt>
      <trkpt lat="48.92526" lon="-0.40349">
        <ele>279</ele>
        <time>2013-05-19T10:01:20Z</time>
      </trkpt>
      <trkpt lat="48.92482" lon="-0.4037">
        <ele>280</ele>
        <time>2013-05-19T10:01:39Z</time>
      </trkpt>
      <trkpt lat="48.92436" lon="-0.40394">
        <ele>282</ele>
        <time>2013-05-19T10:01:59Z</time>
      </trkpt>
      <trkpt lat="48.92407" lon="-0.40411">
        <ele>285</ele>
        <time>2013-05-19T10:02:13Z</time>
      </trkpt>
      <trkpt lat="48.92363" lon="-0.40445">
        <ele>286</ele>
        <time>2013-05-19T10:02:32Z</time>
      </trkpt>
      <trkpt lat="48.92318" lon="-0.40481">
        <ele>288</ele>
        <time>2013-05-19T10:02:50Z</time>
      </trkpt>
      <trkpt lat="48.92278" lon="-0.40515">
        <ele>288</ele>
        <time>2013-05-19T10:03:05Z</time>
      </trkpt>
      <trkpt lat="48.92232" lon="-0.4055">
        <ele>289</ele>
        <time>2013-05-19T10:03:21Z</time>
      </trkpt>
      <trkpt lat="48.92179" lon="-0.40597">
        <ele>289</ele>
        <time>2013-05-19T10:03:40Z</time>
      </trkpt>
      <trkpt lat="48.92144" lon="-0.40641">
        <ele>289</ele>
        <time>2013-05-19T10:03:54Z</time>
      </trkpt>
      <trkpt lat="48.92135" lon="-0.40657">
        <ele>289</ele>
        <time>2013-05-19T10:03:59Z</time>
      </trkpt>
      <trkpt lat="48.92146" lon="-0.40671">
        <ele>290</ele>
        <time>2013-05-19T10:04:08Z</time>
      </trkpt>
      <trkpt lat="48.92146" lon="-0.40671">
        <ele>290</ele>
        <time>2013-05-19T10:04:24Z</time>
      </trkpt>
      <trkpt lat="48.92146" lon="-0.40671">
        <ele>290</ele>
        <time>2013-05-19T10:04:31Z</time>
      </trkpt>
      <trkpt lat="48.92154" lon="-0.40673">
        <ele>290</ele>
        <time>2013-05-19T10:04:33Z</time>
      </trkpt>
      <trkpt lat="48.92177" lon="-0.40682">
        <ele>289</ele>
        <time>2013-05-19T10:04:40Z</time>
      </trkpt>
      <trkpt lat="48.92215" lon="-0.40702">
        <ele>288</ele>
        <time>2013-05-19T10:04:49Z</time>
      </trkpt>
      <trkpt lat="48.92238" lon="-0.40716">
        <ele>287</ele>
        <time>2013-05-19T10:04:59Z</time>
      </trkpt>
      <trkpt lat="48.92255" lon="-0.40726">
        <ele>283</ele>
        <time>2013-05-19T10:05:09Z</time>
      </trkpt>
      <trkpt lat="48.92255" lon="-0.40726">
        <ele>283</ele>
        <time>2013-05-19T10:05:25Z</time>
      </trkpt>
      <trkpt lat="48.92271" lon="-0.4073">
        <ele>282</ele>
        <time>2013-05-19T10:05:30Z</time>
      </trkpt>
      <trkpt lat="48.92308" lon="-0.40746">
        <ele>279</ele>
        <time>2013-05-19T10:05:39Z</time>
      </trkpt>
      <trkpt lat="48.92316" lon="-0.40748">
        <ele>277</ele>
        <time>2013-05-19T10:05:42Z</time>
      </trkpt>
      <trkpt lat="48.92335" lon="-0.40752">
        <ele>272</ele>
        <time>2013-05-19T10:05:47Z</time>
      </trkpt>
      <trkpt lat="48.92347" lon="-0.40754">
        <ele>270</ele>
        <time>2013-05-19T10:05:58Z</time>
      </trkpt>
      <trkpt lat="48.92347" lon="-0.40754">
        <ele>270</ele>
        <time>2013-05-19T10:06:01Z</time>
      </trkpt>
      <trkpt lat="48.92353" lon="-0.40755">
        <ele>269</ele>
        <time>2013-05-19T10:06:05Z</time>
      </trkpt>
      <trkpt lat="48.92361" lon="-0.40757">
        <ele>269</ele>
        <time>2013-05-19T10:06:10Z</time>
      </trkpt>
      <trkpt lat="48.92375" lon="-0.40759">
        <ele>267</ele>
        <time>2013-05-19T10:06:21Z</time>
      </trkpt>
      <trkpt lat="48.92379" lon="-0.40759">
        <ele>267</ele>
        <time>2013-05-19T10:06:25Z</time>
      </trkpt>
      <trkpt lat="48.92392" lon="-0.40761">
        <ele>267</ele>
        <time>2013-05-19T10:06:32Z</time>
      </trkpt>
      <trkpt lat="48.92402" lon="-0.40763">
        <ele>267</ele>
        <time>2013-05-19T10:06:37Z</time>
      </trkpt>
      <trkpt lat="48.92403" lon="-0.40763">
        <ele>267</ele>
        <time>2013-05-19T10:06:39Z</time>
      </trkpt>
      <trkpt lat="48.92412" lon="-0.40771">
        <ele>266</ele>
        <time>2013-05-19T10:06:48Z</time>
      </trkpt>
      <trkpt lat="48.92412" lon="-0.40771">
        <ele>266</ele>
        <time>2013-05-19T10:07:20Z</time>
      </trkpt>
      <trkpt lat="48.92419" lon="-0.4078">
        <ele>262</ele>
        <time>2013-05-19T10:07:34Z</time>
      </trkpt>
      <trkpt lat="48.92419" lon="-0.4078">
        <ele>262</ele>
        <time>2013-05-19T10:08:01Z</time>
      </trkpt>
      <trkpt lat="48.92419" lon="-0.4078">
        <ele>262</ele>
        <time>2013-05-19T10:08:22Z</time>
      </trkpt>
      <trkpt lat="48.92419" lon="-0.4078">
        <ele>262</ele>
        <time>2013-05-19T10:08:34Z</time>
      </trkpt>
      <trkpt lat="48.92419" lon="-0.4078">
        <ele>262</ele>
        <time>2013-05-19T10:08:47Z</time>
      </trkpt>
      <trkpt lat="48.92419" lon="-0.4078">
        <ele>262</ele>
        <time>2013-05-19T10:08:56Z</time>
      </trkpt>
      <trkpt lat="48.92419" lon="-0.4078">
        <ele>262</ele>
        <time>2013-05-19T10:09:11Z</time>
      </trkpt>
      <trkpt lat="48.92419" lon="-0.4078">
        <ele>262</ele>
        <time>2013-05-19T10:09:22Z</time>
      </trkpt>
      <trkpt lat="48.92419" lon="-0.4078">
        <ele>262</ele>
        <time>2013-05-19T10:09:32Z</time>
      </trkpt>
      <trkpt lat="48.92419" lon="-0.4078">
        <ele>262</ele>
        <time>2013-05-19T10:09:41Z</time>
      </trkpt>
      <trkpt lat="48.92419" lon="-0.4078">
        <ele>262</ele>
        <time>2013-05-19T10:09:49Z</time>
      </trkpt>
      <trkpt lat="48.92419" lon="-0.4078">
        <ele>262</ele>
        <time>2013-05-19T10:09:52Z</time>
      </trkpt>
      <trkpt lat="48.92466" lon="-0.40821">
        <ele>258</ele>
        <time>2013-05-19T10:09:57Z</time>
      </trkpt>
      <trkpt lat="48.92476" lon="-0.40826">
        <ele>257</ele>
        <time>2013-05-19T10:10:07Z</time>
      </trkpt>
      <trkpt lat="48.9248" lon="-0.40827">
        <ele>257</ele>
        <time>2013-05-19T10:10:09Z</time>
      </trkpt>
      <trkpt lat="48.92491" lon="-0.40832">
        <ele>255</ele>
        <time>2013-05-19T10:10:14Z</time>
      </trkpt>
      <trkpt lat="48.92496" lon="-0.40834">
        <ele>252</ele>
        <time>2013-05-19T10:10:16Z</time>
      </trkpt>
      <trkpt lat="48.92512" lon="-0.4084">
        <ele>250</ele>
        <time>2013-05-19T10:10:23Z</time>
      </trkpt>
      <trkpt lat="48.92516" lon="-0.40842">
        <ele>250</ele>
        <time>2013-05-19T10:10:25Z</time>
      </trkpt>
      <trkpt lat="48.92534" lon="-0.40845">
        <ele>248</ele>
        <time>2013-05-19T10:10:32Z</time>
      </trkpt>
      <trkpt lat="48.92534" lon="-0.40845">
        <ele>248</ele>
        <time>2013-05-19T10:11:05Z</time>
      </trkpt>
      <trkpt lat="48.92534" lon="-0.40845">
        <ele>248</ele>
        <time>2013-05-19T10:11:27Z</time>
      </trkpt>
      <trkpt lat="48.92557" lon="-0.40849">
        <ele>248</ele>
        <time>2013-05-19T10:11:38Z</time>
      </trkpt>
      <trkpt lat="48.92579" lon="-0.40865">
        <ele>247</ele>
        <time>2013-05-19T10:11:47Z</time>
      </trkpt>
      <trkpt lat="48.92604" lon="-0.40885">
        <ele>245</ele>
        <time>2013-05-19T10:11:56Z</time>
      </trkpt>
      <trkpt lat="48.92617" lon="-0.40896">
        <ele>245</ele>
        <time>2013-05-19T10:12:03Z</time>
      </trkpt>
      <trkpt lat="48.92628" lon="-0.40905">
        <ele>245</ele>
        <time>2013-05-19T10:12:12Z</time>
      </trkpt>
      <trkpt lat="48.92631" lon="-0.40908">
        <ele>245</ele>
        <time>2013-05-19T10:12:22Z</time>
      </trkpt>
      <trkpt lat="48.92631" lon="-0.40908">
        <ele>245</ele>
        <time>2013-05-19T10:12:52Z</time>
      </trkpt>
      <trkpt lat="48.92631" lon="-0.40908">
        <ele>245</ele>
        <time>2013-05-19T10:12:54Z</time>
      </trkpt>
      <trkpt lat="48.92631" lon="-0.40908">
        <ele>245</ele>
        <time>2013-05-19T10:13:07Z</time>
      </trkpt>
      <trkpt lat="48.92631" lon="-0.40908">
        <ele>245</ele>
        <time>2013-05-19T10:13:19Z</time>
      </trkpt>
      <trkpt lat="48.92631" lon="-0.40908">
        <ele>245</ele>
        <time>2013-05-19T10:13:33Z</time>
      </trkpt>
      <trkpt lat="48.92676" lon="-0.40942">
        <ele>240</ele>
        <time>2013-05-19T10:13:42Z</time>
      </trkpt>
      <trkpt lat="48.92686" lon="-0.40953">
        <ele>239</ele>
        <time>2013-05-19T10:13:49Z</time>
      </trkpt>
      <trkpt lat="48.927" lon="-0.40971">
        <ele>238</ele>
        <time>2013-05-19T10:13:56Z</time>
      </trkpt>
      <trkpt lat="48.9276" lon="-0.40925">
        <ele>244</ele>
        <time>2013-05-19T10:14:06Z</time>
      </trkpt>
      <trkpt lat="48.92783" lon="-0.40924">
        <ele>243</ele>
        <time>2013-05-19T10:14:15Z</time>
      </trkpt>
      <trkpt lat="48.92794" lon="-0.40924">
        <ele>242</ele>
        <time>2013-05-19T10:14:19Z</time>
      </trkpt>
      <trkpt lat="48.92812" lon="-0.40924">
        <ele>242</ele>
        <time>2013-05-19T10:14:26Z</time>
      </trkpt>
      <trkpt lat="48.9282" lon="-0.4092">
        <ele>243</ele>
        <time>2013-05-19T10:14:31Z</time>
      </trkpt>
      <trkpt lat="48.92825" lon="-0.40927">
        <ele>243</ele>
        <time>2013-05-19T10:14:35Z</time>
      </trkpt>
      <trkpt lat="48.9284" lon="-0.40933">
        <ele>242</ele>
        <time>2013-05-19T10:14:42Z</time>
      </trkpt>
      <trkpt lat="48.92849" lon="-0.40936">
        <ele>242</ele>
        <time>2013-05-19T10:14:53Z</time>
      </trkpt>
      <trkpt lat="48.92858" lon="-0.40942">
        <ele>242</ele>
        <time>2013-05-19T10:15:06Z</time>
      </trkpt>
      <trkpt lat="48.9286" lon="-0.40944">
        <ele>241</ele>
        <time>2013-05-19T10:15:17Z</time>
      </trkpt>
      <trkpt lat="48.92863" lon="-0.40944">
        <ele>242</ele>
        <time>2013-05-19T10:16:09Z</time>
      </trkpt>
      <trkpt lat="48.92866" lon="-0.40944">
        <ele>242</ele>
        <time>2013-05-19T10:16:20Z</time>
      </trkpt>
      <trkpt lat="48.92869" lon="-0.40944">
        <ele>242</ele>
        <time>2013-05-19T10:16:37Z</time>
      </trkpt>
      <trkpt lat="48.9287" lon="-0.40944">
        <ele>242</ele>
        <time>2013-05-19T10:16:38Z</time>
      </trkpt>
      <trkpt lat="48.92875" lon="-0.40942">
        <ele>242</ele>
        <time>2013-05-19T10:16:44Z</time>
      </trkpt>
      <trkpt lat="48.92883" lon="-0.40938">
        <ele>242</ele>
        <time>2013-05-19T10:16:56Z</time>
      </trkpt>
      <trkpt lat="48.92883" lon="-0.40938">
        <ele>242</ele>
        <time>2013-05-19T10:17:11Z</time>
      </trkpt>
      <trkpt lat="48.92883" lon="-0.40938">
        <ele>242</ele>
        <time>2013-05-19T10:17:17Z</time>
      </trkpt>
      <trkpt lat="48.92897" lon="-0.40946">
        <ele>242</ele>
        <time>2013-05-19T10:17:27Z</time>
      </trkpt>
      <trkpt lat="48.92915" lon="-0.40954">
        <ele>242</ele>
        <time>2013-05-19T10:17:41Z</time>
      </trkpt>
      <trkpt lat="48.9292" lon="-0.40958">
        <ele>243</ele>
        <time>2013-05-19T10:17:53Z</time>
      </trkpt>
      <trkpt lat="48.9292" lon="-0.40958">
        <ele>243</ele>
        <time>2013-05-19T10:18:12Z</time>
      </trkpt>
      <trkpt lat="48.92919" lon="-0.40963">
        <ele>243</ele>
        <time>2013-05-19T10:18:28Z</time>
      </trkpt>
      <trkpt lat="48.9292" lon="-0.40967">
        <ele>243</ele>
        <time>2013-05-19T10:18:40Z</time>
      </trkpt>
      <trkpt lat="48.9292" lon="-0.40969">
        <ele>243</ele>
        <time>2013-05-19T10:18:55Z</time>
      </trkpt>
      <trkpt lat="48.9292" lon="-0.40972">
        <ele>243</ele>
        <time>2013-05-19T10:19:09Z</time>
      </trkpt>
      <trkpt lat="48.9292" lon="-0.40972">
        <ele>243</ele>
        <time>2013-05-19T10:19:36Z</time>
      </trkpt>
      <trkpt lat="48.9292" lon="-0.40972">
        <ele>243</ele>
        <time>2013-05-19T10:19:55Z</time>
      </trkpt>
      <trkpt lat="48.92919" lon="-0.40975">
        <ele>242</ele>
        <time>2013-05-19T10:19:57Z</time>
      </trkpt>
      <trkpt lat="48.92921" lon="-0.40976">
        <ele>242</ele>
        <time>2013-05-19T10:19:59Z</time>
      </trkpt>
      <trkpt lat="48.92923" lon="-0.40978">
        <ele>242</ele>
        <time>2013-05-19T10:20:15Z</time>
      </trkpt>
      <trkpt lat="48.92931" lon="-0.40982">
        <ele>242</ele>
        <time>2013-05-19T10:21:07Z</time>
      </trkpt>
      <trkpt lat="48.9294" lon="-0.40989">
        <ele>242</ele>
        <time>2013-05-19T10:21:13Z</time>
      </trkpt>
      <trkpt lat="48.92957" lon="-0.40997">
        <ele>243</ele>
        <time>2013-05-19T10:21:23Z</time>
      </trkpt>
      <trkpt lat="48.92966" lon="-0.41007">
        <ele>239</ele>
        <time>2013-05-19T10:21:34Z</time>
      </trkpt>
      <trkpt lat="48.92969" lon="-0.41008">
        <ele>239</ele>
        <time>2013-05-19T10:21:45Z</time>
      </trkpt>
      <trkpt lat="48.92981" lon="-0.41015">
        <ele>240</ele>
        <time>2013-05-19T10:21:55Z</time>
      </trkpt>
      <trkpt lat="48.9299" lon="-0.4102">
        <ele>240</ele>
        <time>2013-05-19T10:22:08Z</time>
      </trkpt>
      <trkpt lat="48.93015" lon="-0.41024">
        <ele>243</ele>
        <time>2013-05-19T10:22:17Z</time>
      </trkpt>
      <trkpt lat="48.93038" lon="-0.41032">
        <ele>244</ele>
        <time>2013-05-19T10:22:27Z</time>
      </trkpt>
      <trkpt lat="48.93065" lon="-0.41039">
        <ele>244</ele>
        <time>2013-05-19T10:22:37Z</time>
      </trkpt>
      <trkpt lat="48.93084" lon="-0.4104">
        <ele>249</ele>
        <time>2013-05-19T10:22:45Z</time>
      </trkpt>
      <trkpt lat="48.93102" lon="-0.41045">
        <ele>250</ele>
        <time>2013-05-19T10:22:55Z</time>
      </trkpt>
      <trkpt lat="48.93112" lon="-0.41047">
        <ele>250</ele>
        <time>2013-05-19T10:23:01Z</time>
      </trkpt>
      <trkpt lat="48.93121" lon="-0.4106">
        <ele>250</ele>
        <time>2013-05-19T10:23:12Z</time>
      </trkpt>
      <trkpt lat="48.93124" lon="-0.41063">
        <ele>250</ele>
        <time>2013-05-19T10:23:25Z</time>
      </trkpt>
      <trkpt lat="48.93127" lon="-0.41068">
        <ele>250</ele>
        <time>2013-05-19T10:23:42Z</time>
      </trkpt>
      <trkpt lat="48.9313" lon="-0.4107">
        <ele>250</ele>
        <time>2013-05-19T10:23:45Z</time>
      </trkpt>
      <trkpt lat="48.9314" lon="-0.41085">
        <ele>245</ele>
        <time>2013-05-19T10:23:56Z</time>
      </trkpt>
      <trkpt lat="48.93141" lon="-0.41086">
        <ele>245</ele>
        <time>2013-05-19T10:23:57Z</time>
      </trkpt>
      <trkpt lat="48.93144" lon="-0.41087">
        <ele>246</ele>
        <time>2013-05-19T10:24:08Z</time>
      </trkpt>
      <trkpt lat="48.93147" lon="-0.4109">
        <ele>246</ele>
        <time>2013-05-19T10:24:13Z</time>
      </trkpt>
      <trkpt lat="48.93154" lon="-0.41102">
        <ele>246</ele>
        <time>2013-05-19T10:24:20Z</time>
      </trkpt>
      <trkpt lat="48.93163" lon="-0.41112">
        <ele>245</ele>
        <time>2013-05-19T10:24:29Z</time>
      </trkpt>
      <trkpt lat="48.93171" lon="-0.41124">
        <ele>249</ele>
        <time>2013-05-19T10:24:38Z</time>
      </trkpt>
      <trkpt lat="48.93178" lon="-0.41132">
        <ele>248</ele>
        <time>2013-05-19T10:24:44Z</time>
      </trkpt>
      <trkpt lat="48.93187" lon="-0.4114">
        <ele>248</ele>
        <time>2013-05-19T10:24:50Z</time>
      </trkpt>
      <trkpt lat="48.93192" lon="-0.41144">
        <ele>248</ele>
        <time>2013-05-19T10:24:53Z</time>
      </trkpt>
      <trkpt lat="48.93209" lon="-0.41153">
        <ele>248</ele>
        <time>2013-05-19T10:25:03Z</time>
      </trkpt>
      <trkpt lat="48.93225" lon="-0.41158">
        <ele>249</ele>
        <time>2013-05-19T10:25:14Z</time>
      </trkpt>
      <trkpt lat="48.93236" lon="-0.41159">
        <ele>250</ele>
        <time>2013-05-19T10:25:22Z</time>
      </trkpt>
      <trkpt lat="48.93241" lon="-0.41161">
        <ele>250</ele>
        <time>2013-05-19T10:25:33Z</time>
      </trkpt>
      <trkpt lat="48.93249" lon="-0.41165">
        <ele>250</ele>
        <time>2013-05-19T10:25:44Z</time>
      </trkpt>
      <trkpt lat="48.93262" lon="-0.41171">
        <ele>250</ele>
        <time>2013-05-19T10:25:55Z</time>
      </trkpt>
      <trkpt lat="48.93273" lon="-0.41176">
        <ele>250</ele>
        <time>2013-05-19T10:26:03Z</time>
      </trkpt>
      <trkpt lat="48.93277" lon="-0.41179">
        <ele>250</ele>
        <time>2013-05-19T10:26:07Z</time>
      </trkpt>
      <trkpt lat="48.9328" lon="-0.41181">
        <ele>250</ele>
        <time>2013-05-19T10:26:10Z</time>
      </trkpt>
      <trkpt lat="48.9329" lon="-0.41187">
        <ele>250</ele>
        <time>2013-05-19T10:26:18Z</time>
      </trkpt>
      <trkpt lat="48.9329" lon="-0.41188">
        <ele>250</ele>
        <time>2013-05-19T10:26:19Z</time>
      </trkpt>
      <trkpt lat="48.93302" lon="-0.41202">
        <ele>250</ele>
        <time>2013-05-19T10:26:29Z</time>
      </trkpt>
      <trkpt lat="48.93314" lon="-0.4121">
        <ele>251</ele>
        <time>2013-05-19T10:26:38Z</time>
      </trkpt>
      <trkpt lat="48.93327" lon="-0.41226">
        <ele>251</ele>
        <time>2013-05-19T10:26:49Z</time>
      </trkpt>
      <trkpt lat="48.93329" lon="-0.41229">
        <ele>251</ele>
        <time>2013-05-19T10:26:55Z</time>
      </trkpt>
      <trkpt lat="48.93333" lon="-0.41232">
        <ele>251</ele>
        <time>2013-05-19T10:27:05Z</time>
      </trkpt>
      <trkpt lat="48.93333" lon="-0.41232">
        <ele>251</ele>
        <time>2013-05-19T10:27:06Z</time>
      </trkpt>
      <trkpt lat="48.9335" lon="-0.41244">
        <ele>254</ele>
        <time>2013-05-19T10:27:16Z</time>
      </trkpt>
      <trkpt lat="48.93377" lon="-0.41261">
        <ele>252</ele>
        <time>2013-05-19T10:27:31Z</time>
      </trkpt>
      <trkpt lat="48.934" lon="-0.41281">
        <ele>252</ele>
        <time>2013-05-19T10:27:41Z</time>
      </trkpt>
      <trkpt lat="48.93419" lon="-0.41299">
        <ele>254</ele>
        <time>2013-05-19T10:27:53Z</time>
      </trkpt>
      <trkpt lat="48.93439" lon="-0.41316">
        <ele>254</ele>
        <time>2013-05-19T10:28:05Z</time>
      </trkpt>
      <trkpt lat="48.93472" lon="-0.41325">
        <ele>255</ele>
        <time>2013-05-19T10:28:23Z</time>
      </trkpt>
      <trkpt lat="48.93493" lon="-0.41329">
        <ele>255</ele>
        <time>2013-05-19T10:28:34Z</time>
      </trkpt>
      <trkpt lat="48.93515" lon="-0.41339">
        <ele>254</ele>
        <time>2013-05-19T10:28:48Z</time>
      </trkpt>
      <trkpt lat="48.93533" lon="-0.41351">
        <ele>254</ele>
        <time>2013-05-19T10:28:59Z</time>
      </trkpt>
      <trkpt lat="48.93561" lon="-0.41369">
        <ele>254</ele>
        <time>2013-05-19T10:29:11Z</time>
      </trkpt>
      <trkpt lat="48.93592" lon="-0.41396">
        <ele>256</ele>
        <time>2013-05-19T10:29:27Z</time>
      </trkpt>
      <trkpt lat="48.93617" lon="-0.41415">
        <ele>256</ele>
        <time>2013-05-19T10:29:41Z</time>
      </trkpt>
      <trkpt lat="48.93626" lon="-0.4142">
        <ele>254</ele>
        <time>2013-05-19T10:29:46Z</time>
      </trkpt>
      <trkpt lat="48.93636" lon="-0.41423">
        <ele>254</ele>
        <time>2013-05-19T10:29:52Z</time>
      </trkpt>
      <trkpt lat="48.9365" lon="-0.41441">
        <ele>254</ele>
        <time>2013-05-19T10:30:01Z</time>
      </trkpt>
      <trkpt lat="48.93672" lon="-0.41456">
        <ele>255</ele>
        <time>2013-05-19T10:30:13Z</time>
      </trkpt>
      <trkpt lat="48.93683" lon="-0.41455">
        <ele>255</ele>
        <time>2013-05-19T10:30:21Z</time>
      </trkpt>
      <trkpt lat="48.93688" lon="-0.41448">
        <ele>256</ele>
        <time>2013-05-19T10:30:26Z</time>
      </trkpt>
      <trkpt lat="48.93693" lon="-0.41443">
        <ele>256</ele>
        <time>2013-05-19T10:30:36Z</time>
      </trkpt>
      <trkpt lat="48.93691" lon="-0.41443">
        <ele>256</ele>
        <time>2013-05-19T10:30:48Z</time>
      </trkpt>
      <trkpt lat="48.9369" lon="-0.41441">
        <ele>256</ele>
        <time>2013-05-19T11:18:31Z</time>
      </trkpt>
      <trkpt lat="48.93692" lon="-0.41443">
        <ele>256</ele>
        <time>2013-05-19T11:19:05Z</time>
      </trkpt>
      <trkpt lat="48.93693" lon="-0.41443">
        <ele>256</ele>
        <time>2013-05-19T11:21:15Z</time>
      </trkpt>
      <trkpt lat="48.93693" lon="-0.41454">
        <ele>255</ele>
        <time>2013-05-19T11:21:20Z</time>
      </trkpt>
      <trkpt lat="48.93699" lon="-0.41499">
        <ele>254</ele>
        <time>2013-05-19T11:21:30Z</time>
      </trkpt>
      <trkpt lat="48.93697" lon="-0.41525">
        <ele>252</ele>
        <time>2013-05-19T11:21:34Z</time>
      </trkpt>
      <trkpt lat="48.93702" lon="-0.41567">
        <ele>251</ele>
        <time>2013-05-19T11:21:43Z</time>
      </trkpt>
      <trkpt lat="48.93709" lon="-0.41639">
        <ele>248</ele>
        <time>2013-05-19T11:21:55Z</time>
      </trkpt>
      <trkpt lat="48.93721" lon="-0.41751">
        <ele>246</ele>
        <time>2013-05-19T11:22:14Z</time>
      </trkpt>
      <trkpt lat="48.93727" lon="-0.41813">
        <ele>246</ele>
        <time>2013-05-19T11:22:28Z</time>
      </trkpt>
      <trkpt lat="48.93731" lon="-0.41864">
        <ele>246</ele>
        <time>2013-05-19T11:22:41Z</time>
      </trkpt>
      <trkpt lat="48.93738" lon="-0.41945">
        <ele>245</ele>
        <time>2013-05-19T11:22:57Z</time>
      </trkpt>
      <trkpt lat="48.93742" lon="-0.42008">
        <ele>246</ele>
        <time>2013-05-19T11:23:09Z</time>
      </trkpt>
      <trkpt lat="48.93736" lon="-0.42043">
        <ele>244</ele>
        <time>2013-05-19T11:23:18Z</time>
      </trkpt>
      <trkpt lat="48.93732" lon="-0.42059">
        <ele>244</ele>
        <time>2013-05-19T11:23:21Z</time>
      </trkpt>
      <trkpt lat="48.93726" lon="-0.42084">
        <ele>243</ele>
        <time>2013-05-19T11:23:25Z</time>
      </trkpt>
      <trkpt lat="48.93728" lon="-0.42182">
        <ele>240</ele>
        <time>2013-05-19T11:23:37Z</time>
      </trkpt>
      <trkpt lat="48.93746" lon="-0.42239">
        <ele>239</ele>
        <time>2013-05-19T11:23:49Z</time>
      </trkpt>
      <trkpt lat="48.93762" lon="-0.42276">
        <ele>239</ele>
        <time>2013-05-19T11:23:59Z</time>
      </trkpt>
      <trkpt lat="48.93789" lon="-0.42336">
        <ele>237</ele>
        <time>2013-05-19T11:24:12Z</time>
      </trkpt>
      <trkpt lat="48.93838" lon="-0.42393">
        <ele>237</ele>
        <time>2013-05-19T11:24:23Z</time>
      </trkpt>
      <trkpt lat="48.93852" lon="-0.42404">
        <ele>237</ele>
        <time>2013-05-19T11:24:29Z</time>
      </trkpt>
      <trkpt lat="48.93864" lon="-0.42414">
        <ele>237</ele>
        <time>2013-05-19T11:24:53Z</time>
      </trkpt>
      <trkpt lat="48.93903" lon="-0.42445">
        <ele>236</ele>
        <time>2013-05-19T11:25:08Z</time>
      </trkpt>
      <trkpt lat="48.93949" lon="-0.42491">
        <ele>232</ele>
        <time>2013-05-19T11:25:21Z</time>
      </trkpt>
      <trkpt lat="48.93995" lon="-0.42565">
        <ele>232</ele>
        <time>2013-05-19T11:25:36Z</time>
      </trkpt>
      <trkpt lat="48.94024" lon="-0.42624">
        <ele>228</ele>
        <time>2013-05-19T11:25:49Z</time>
      </trkpt>
      <trkpt lat="48.94044" lon="-0.42659">
        <ele>228</ele>
        <time>2013-05-19T11:25:59Z</time>
      </trkpt>
      <trkpt lat="48.94076" lon="-0.42704">
        <ele>228</ele>
        <time>2013-05-19T11:26:10Z</time>
      </trkpt>
      <trkpt lat="48.94079" lon="-0.42709">
        <ele>228</ele>
        <time>2013-05-19T11:26:11Z</time>
      </trkpt>
      <trkpt lat="48.94114" lon="-0.42757">
        <ele>224</ele>
        <time>2013-05-19T11:26:22Z</time>
      </trkpt>
      <trkpt lat="48.94148" lon="-0.42805">
        <ele>223</ele>
        <time>2013-05-19T11:26:35Z</time>
      </trkpt>
      <trkpt lat="48.94194" lon="-0.42866">
        <ele>221</ele>
        <time>2013-05-19T11:26:49Z</time>
      </trkpt>
      <trkpt lat="48.94226" lon="-0.42901">
        <ele>221</ele>
        <time>2013-05-19T11:27:00Z</time>
      </trkpt>
      <trkpt lat="48.94264" lon="-0.42939">
        <ele>221</ele>
        <time>2013-05-19T11:27:14Z</time>
      </trkpt>
      <trkpt lat="48.94266" lon="-0.42941">
        <ele>221</ele>
        <time>2013-05-19T11:27:25Z</time>
      </trkpt>
      <trkpt lat="48.94266" lon="-0.42941">
        <ele>221</ele>
        <time>2013-05-19T11:28:14Z</time>
      </trkpt>
      <trkpt lat="48.94273" lon="-0.42934">
        <ele>220</ele>
        <time>2013-05-19T11:28:19Z</time>
      </trkpt>
      <trkpt lat="48.94281" lon="-0.42918">
        <ele>220</ele>
        <time>2013-05-19T11:28:27Z</time>
      </trkpt>
      <trkpt lat="48.94297" lon="-0.42892">
        <ele>216</ele>
        <time>2013-05-19T11:28:37Z</time>
      </trkpt>
      <trkpt lat="48.94307" lon="-0.42875">
        <ele>216</ele>
        <time>2013-05-19T11:28:45Z</time>
      </trkpt>
      <trkpt lat="48.94346" lon="-0.42815">
        <ele>212</ele>
        <time>2013-05-19T11:28:58Z</time>
      </trkpt>
      <trkpt lat="48.94356" lon="-0.42798">
        <ele>211</ele>
        <time>2013-05-19T11:29:06Z</time>
      </trkpt>
      <trkpt lat="48.94369" lon="-0.42778">
        <ele>210</ele>
        <time>2013-05-19T11:29:13Z</time>
      </trkpt>
      <trkpt lat="48.94403" lon="-0.42724">
        <ele>207</ele>
        <time>2013-05-19T11:29:24Z</time>
      </trkpt>
      <trkpt lat="48.94442" lon="-0.4267">
        <ele>205</ele>
        <time>2013-05-19T11:29:39Z</time>
      </trkpt>
      <trkpt lat="48.9447" lon="-0.4263">
        <ele>202</ele>
        <time>2013-05-19T11:29:50Z</time>
      </trkpt>
      <trkpt lat="48.94495" lon="-0.42594">
        <ele>201</ele>
        <time>2013-05-19T11:30:02Z</time>
      </trkpt>
      <trkpt lat="48.94522" lon="-0.4255">
        <ele>198</ele>
        <time>2013-05-19T11:30:16Z</time>
      </trkpt>
      <trkpt lat="48.94524" lon="-0.42548">
        <ele>198</ele>
        <time>2013-05-19T11:30:25Z</time>
      </trkpt>
      <trkpt lat="48.94525" lon="-0.42546">
        <ele>198</ele>
        <time>2013-05-19T11:30:56Z</time>
      </trkpt>
      <trkpt lat="48.94537" lon="-0.42561">
        <ele>198</ele>
        <time>2013-05-19T11:31:01Z</time>
      </trkpt>
      <trkpt lat="48.94566" lon="-0.42538">
        <ele>197</ele>
        <time>2013-05-19T11:31:10Z</time>
      </trkpt>
      <trkpt lat="48.94593" lon="-0.42503">
        <ele>196</ele>
        <time>2013-05-19T11:31:20Z</time>
      </trkpt>
      <trkpt lat="48.94621" lon="-0.42467">
        <ele>193</ele>
        <time>2013-05-19T11:31:32Z</time>
      </trkpt>
      <trkpt lat="48.94638" lon="-0.42427">
        <ele>192</ele>
        <time>2013-05-19T11:31:44Z</time>
      </trkpt>
      <trkpt lat="48.94655" lon="-0.42386">
        <ele>189</ele>
        <time>2013-05-19T11:31:53Z</time>
      </trkpt>
      <trkpt lat="48.9468" lon="-0.42347">
        <ele>186</ele>
        <time>2013-05-19T11:32:03Z</time>
      </trkpt>
      <trkpt lat="48.947" lon="-0.42314">
        <ele>184</ele>
        <time>2013-05-19T11:32:13Z</time>
      </trkpt>
      <trkpt lat="48.94705" lon="-0.42305">
        <ele>184</ele>
        <time>2013-05-19T11:32:17Z</time>
      </trkpt>
      <trkpt lat="48.94711" lon="-0.42296">
        <ele>183</ele>
        <time>2013-05-19T11:32:21Z</time>
      </trkpt>
      <trkpt lat="48.94727" lon="-0.42269">
        <ele>183</ele>
        <time>2013-05-19T11:32:28Z</time>
      </trkpt>
      <trkpt lat="48.94734" lon="-0.42267">
        <ele>182</ele>
        <time>2013-05-19T11:32:32Z</time>
      </trkpt>
      <trkpt lat="48.94738" lon="-0.42268">
        <ele>182</ele>
        <time>2013-05-19T11:32:36Z</time>
      </trkpt>
      <trkpt lat="48.94742" lon="-0.42268">
        <ele>182</ele>
        <time>2013-05-19T11:32:43Z</time>
      </trkpt>
      <trkpt lat="48.94752" lon="-0.4227">
        <ele>181</ele>
        <time>2013-05-19T11:32:54Z</time>
      </trkpt>
      <trkpt lat="48.94762" lon="-0.42271">
        <ele>181</ele>
        <time>2013-05-19T11:33:03Z</time>
      </trkpt>
      <trkpt lat="48.94777" lon="-0.42262">
        <ele>181</ele>
        <time>2013-05-19T11:33:11Z</time>
      </trkpt>
      <trkpt lat="48.9479" lon="-0.42241">
        <ele>183</ele>
        <time>2013-05-19T11:33:20Z</time>
      </trkpt>
      <trkpt lat="48.948" lon="-0.42223">
        <ele>184</ele>
        <time>2013-05-19T11:33:28Z</time>
      </trkpt>
      <trkpt lat="48.94804" lon="-0.42212">
        <ele>184</ele>
        <time>2013-05-19T11:33:40Z</time>
      </trkpt>
      <trkpt lat="48.94806" lon="-0.42204">
        <ele>184</ele>
        <time>2013-05-19T11:33:45Z</time>
      </trkpt>
      <trkpt lat="48.94806" lon="-0.42204">
        <ele>184</ele>
        <time>2013-05-19T11:33:51Z</time>
      </trkpt>
      <trkpt lat="48.94806" lon="-0.42204">
        <ele>184</ele>
        <time>2013-05-19T11:33:54Z</time>
      </trkpt>
      <trkpt lat="48.94806" lon="-0.42204">
        <ele>184</ele>
        <time>2013-05-19T11:34:04Z</time>
      </trkpt>
      <trkpt lat="48.94806" lon="-0.42204">
        <ele>184</ele>
        <time>2013-05-19T11:34:13Z</time>
      </trkpt>
      <trkpt lat="48.94806" lon="-0.42204">
        <ele>184</ele>
        <time>2013-05-19T11:34:25Z</time>
      </trkpt>
      <trkpt lat="48.94806" lon="-0.42204">
        <ele>184</ele>
        <time>2013-05-19T11:35:03Z</time>
      </trkpt>
      <trkpt lat="48.94806" lon="-0.42204">
        <ele>184</ele>
        <time>2013-05-19T11:35:19Z</time>
      </trkpt>
      <trkpt lat="48.94832" lon="-0.4213">
        <ele>190</ele>
        <time>2013-05-19T11:35:55Z</time>
      </trkpt>
      <trkpt lat="48.94842" lon="-0.42099">
        <ele>193</ele>
        <time>2013-05-19T11:36:09Z</time>
      </trkpt>
      <trkpt lat="48.94843" lon="-0.42095">
        <ele>193</ele>
        <time>2013-05-19T11:36:24Z</time>
      </trkpt>
      <trkpt lat="48.94843" lon="-0.42095">
        <ele>193</ele>
        <time>2013-05-19T11:36:38Z</time>
      </trkpt>
      <trkpt lat="48.94858" lon="-0.42037">
        <ele>197</ele>
        <time>2013-05-19T11:36:46Z</time>
      </trkpt>
      <trkpt lat="48.94861" lon="-0.4202">
        <ele>197</ele>
        <time>2013-05-19T11:37:07Z</time>
      </trkpt>
      <trkpt lat="48.94883" lon="-0.41988">
        <ele>200</ele>
        <time>2013-05-19T11:37:23Z</time>
      </trkpt>
      <trkpt lat="48.94888" lon="-0.41982">
        <ele>200</ele>
        <time>2013-05-19T11:37:38Z</time>
      </trkpt>
      <trkpt lat="48.94906" lon="-0.41959">
        <ele>200</ele>
        <time>2013-05-19T11:37:51Z</time>
      </trkpt>
      <trkpt lat="48.9492" lon="-0.41947">
        <ele>201</ele>
        <time>2013-05-19T11:38:06Z</time>
      </trkpt>
      <trkpt lat="48.9492" lon="-0.41947">
        <ele>201</ele>
        <time>2013-05-19T11:39:06Z</time>
      </trkpt>
      <trkpt lat="48.94928" lon="-0.41939">
        <ele>201</ele>
        <time>2013-05-19T11:39:27Z</time>
      </trkpt>
      <trkpt lat="48.94928" lon="-0.41939">
        <ele>201</ele>
        <time>2013-05-19T11:39:29Z</time>
      </trkpt>
      <trkpt lat="48.94952" lon="-0.41916">
        <ele>202</ele>
        <time>2013-05-19T11:39:43Z</time>
      </trkpt>
      <trkpt lat="48.94978" lon="-0.41889">
        <ele>202</ele>
        <time>2013-05-19T11:39:55Z</time>
      </trkpt>
      <trkpt lat="48.95008" lon="-0.41855">
        <ele>202</ele>
        <time>2013-05-19T11:40:11Z</time>
      </trkpt>
      <trkpt lat="48.95041" lon="-0.41816">
        <ele>202</ele>
        <time>2013-05-19T11:40:28Z</time>
      </trkpt>
      <trkpt lat="48.95071" lon="-0.41775">
        <ele>202</ele>
        <time>2013-05-19T11:40:43Z</time>
      </trkpt>
      <trkpt lat="48.951" lon="-0.41722">
        <ele>202</ele>
        <time>2013-05-19T11:40:57Z</time>
      </trkpt>
      <trkpt lat="48.95126" lon="-0.41689">
        <ele>202</ele>
        <time>2013-05-19T11:41:05Z</time>
      </trkpt>
      <trkpt lat="48.95153" lon="-0.41679">
        <ele>201</ele>
        <time>2013-05-19T11:41:11Z</time>
      </trkpt>
      <trkpt lat="48.95208" lon="-0.41677">
        <ele>199</ele>
        <time>2013-05-19T11:41:21Z</time>
      </trkpt>
      <trkpt lat="48.95225" lon="-0.41677">
        <ele>199</ele>
        <time>2013-05-19T11:41:30Z</time>
      </trkpt>
      <trkpt lat="48.95225" lon="-0.41677">
        <ele>199</ele>
        <time>2013-05-19T11:41:43Z</time>
      </trkpt>
      <trkpt lat="48.95225" lon="-0.41677">
        <ele>199</ele>
        <time>2013-05-19T11:41:52Z</time>
      </trkpt>
      <trkpt lat="48.95229" lon="-0.4166">
        <ele>200</ele>
        <time>2013-05-19T11:41:58Z</time>
      </trkpt>
      <trkpt lat="48.95218" lon="-0.41619">
        <ele>201</ele>
        <time>2013-05-19T11:42:10Z</time>
      </trkpt>
      <trkpt lat="48.95216" lon="-0.41611">
        <ele>202</ele>
        <time>2013-05-19T11:42:13Z</time>
      </trkpt>
      <trkpt lat="48.95215" lon="-0.41607">
        <ele>202</ele>
        <time>2013-05-19T11:42:15Z</time>
      </trkpt>
      <trkpt lat="48.95205" lon="-0.41567">
        <ele>204</ele>
        <time>2013-05-19T11:42:28Z</time>
      </trkpt>
      <trkpt lat="48.95196" lon="-0.41525">
        <ele>205</ele>
        <time>2013-05-19T11:42:42Z</time>
      </trkpt>
      <trkpt lat="48.95187" lon="-0.41478">
        <ele>207</ele>
        <time>2013-05-19T11:42:58Z</time>
      </trkpt>
      <trkpt lat="48.95185" lon="-0.4147">
        <ele>207</ele>
        <time>2013-05-19T11:43:01Z</time>
      </trkpt>
      <trkpt lat="48.95176" lon="-0.41439">
        <ele>207</ele>
        <time>2013-05-19T11:43:12Z</time>
      </trkpt>
      <trkpt lat="48.95173" lon="-0.41432">
        <ele>208</ele>
        <time>2013-05-19T11:43:15Z</time>
      </trkpt>
      <trkpt lat="48.9515" lon="-0.41381">
        <ele>210</ele>
        <time>2013-05-19T11:43:36Z</time>
      </trkpt>
      <trkpt lat="48.95133" lon="-0.41352">
        <ele>211</ele>
        <time>2013-05-19T11:43:49Z</time>
      </trkpt>
      <trkpt lat="48.95129" lon="-0.41346">
        <ele>211</ele>
        <time>2013-05-19T11:43:52Z</time>
      </trkpt>
      <trkpt lat="48.95108" lon="-0.41313">
        <ele>213</ele>
        <time>2013-05-19T11:44:07Z</time>
      </trkpt>
      <trkpt lat="48.95075" lon="-0.41264">
        <ele>215</ele>
        <time>2013-05-19T11:44:27Z</time>
      </trkpt>
      <trkpt lat="48.95049" lon="-0.41215">
        <ele>217</ele>
        <time>2013-05-19T11:44:44Z</time>
      </trkpt>
      <trkpt lat="48.95014" lon="-0.41129">
        <ele>219</ele>
        <time>2013-05-19T11:45:12Z</time>
      </trkpt>
      <trkpt lat="48.95002" lon="-0.41098">
        <ele>220</ele>
        <time>2013-05-19T11:45:24Z</time>
      </trkpt>
      <trkpt lat="48.95001" lon="-0.41095">
        <ele>220</ele>
        <time>2013-05-19T11:45:35Z</time>
      </trkpt>
      <trkpt lat="48.95001" lon="-0.41095">
        <ele>220</ele>
        <time>2013-05-19T11:46:38Z</time>
      </trkpt>
      <trkpt lat="48.94993" lon="-0.41087">
        <ele>221</ele>
        <time>2013-05-19T11:46:58Z</time>
      </trkpt>
      <trkpt lat="48.94992" lon="-0.41087">
        <ele>221</ele>
        <time>2013-05-19T11:47:12Z</time>
      </trkpt>
      <trkpt lat="48.94991" lon="-0.41088">
        <ele>221</ele>
        <time>2013-05-19T11:47:13Z</time>
      </trkpt>
      <trkpt lat="48.9499" lon="-0.41088">
        <ele>221</ele>
        <time>2013-05-19T11:47:24Z</time>
      </trkpt>
      <trkpt lat="48.9499" lon="-0.41088">
        <ele>221</ele>
        <time>2013-05-19T11:47:41Z</time>
      </trkpt>
      <trkpt lat="48.94961" lon="-0.41094">
        <ele>222</ele>
        <time>2013-05-19T11:47:49Z</time>
      </trkpt>
      <trkpt lat="48.94961" lon="-0.41094">
        <ele>222</ele>
        <time>2013-05-19T11:48:00Z</time>
      </trkpt>
      <trkpt lat="48.94961" lon="-0.41094">
        <ele>222</ele>
        <time>2013-05-19T11:48:16Z</time>
      </trkpt>
      <trkpt lat="48.94961" lon="-0.41094">
        <ele>222</ele>
        <time>2013-05-19T11:48:38Z</time>
      </trkpt>
      <trkpt lat="48.94961" lon="-0.41094">
        <ele>222</ele>
        <time>2013-05-19T11:49:14Z</time>
      </trkpt>
      <trkpt lat="48.94961" lon="-0.41094">
        <ele>222</ele>
        <time>2013-05-19T11:49:19Z</time>
      </trkpt>
      <trkpt lat="48.94967" lon="-0.41093">
        <ele>221</ele>
        <time>2013-05-19T11:49:31Z</time>
      </trkpt>
      <trkpt lat="48.94955" lon="-0.41081">
        <ele>222</ele>
        <time>2013-05-19T11:49:39Z</time>
      </trkpt>
      <trkpt lat="48.94955" lon="-0.41081">
        <ele>222</ele>
        <time>2013-05-19T11:50:14Z</time>
      </trkpt>
      <trkpt lat="48.94955" lon="-0.41081">
        <ele>222</ele>
        <time>2013-05-19T11:51:03Z</time>
      </trkpt>
      <trkpt lat="48.94945" lon="-0.4106">
        <ele>222</ele>
        <time>2013-05-19T11:51:16Z</time>
      </trkpt>
      <trkpt lat="48.94931" lon="-0.41029">
        <ele>222</ele>
        <time>2013-05-19T11:51:29Z</time>
      </trkpt>
      <trkpt lat="48.94923" lon="-0.41013">
        <ele>223</ele>
        <time>2013-05-19T11:51:34Z</time>
      </trkpt>
      <trkpt lat="48.94894" lon="-0.40951">
        <ele>222</ele>
        <time>2013-05-19T11:51:51Z</time>
      </trkpt>
      <trkpt lat="48.94864" lon="-0.40888">
        <ele>220</ele>
        <time>2013-05-19T11:52:08Z</time>
      </trkpt>
      <trkpt lat="48.94839" lon="-0.40835">
        <ele>220</ele>
        <time>2013-05-19T11:52:23Z</time>
      </trkpt>
      <trkpt lat="48.94815" lon="-0.40782">
        <ele>219</ele>
        <time>2013-05-19T11:52:36Z</time>
      </trkpt>
      <trkpt lat="48.94787" lon="-0.40705">
        <ele>218</ele>
        <time>2013-05-19T11:52:54Z</time>
      </trkpt>
      <trkpt lat="48.94775" lon="-0.40664">
        <ele>217</ele>
        <time>2013-05-19T11:53:02Z</time>
      </trkpt>
      <trkpt lat="48.94763" lon="-0.40643">
        <ele>217</ele>
        <time>2013-05-19T11:53:09Z</time>
      </trkpt>
      <trkpt lat="48.9476" lon="-0.40641">
        <ele>217</ele>
        <time>2013-05-19T11:53:20Z</time>
      </trkpt>
      <trkpt lat="48.9476" lon="-0.40641">
        <ele>217</ele>
        <time>2013-05-19T11:53:31Z</time>
      </trkpt>
      <trkpt lat="48.94757" lon="-0.4064">
        <ele>217</ele>
        <time>2013-05-19T11:53:34Z</time>
      </trkpt>
      <trkpt lat="48.94729" lon="-0.406">
        <ele>218</ele>
        <time>2013-05-19T11:53:43Z</time>
      </trkpt>
      <trkpt lat="48.94715" lon="-0.40583">
        <ele>219</ele>
        <time>2013-05-19T11:53:50Z</time>
      </trkpt>
      <trkpt lat="48.94715" lon="-0.40583">
        <ele>219</ele>
        <time>2013-05-19T11:54:09Z</time>
      </trkpt>
      <trkpt lat="48.94715" lon="-0.40583">
        <ele>219</ele>
        <time>2013-05-19T11:54:28Z</time>
      </trkpt>
      <trkpt lat="48.9471" lon="-0.40578">
        <ele>219</ele>
        <time>2013-05-19T11:54:39Z</time>
      </trkpt>
      <trkpt lat="48.9471" lon="-0.40578">
        <ele>219</ele>
        <time>2013-05-19T11:54:58Z</time>
      </trkpt>
      <trkpt lat="48.94701" lon="-0.40553">
        <ele>219</ele>
        <time>2013-05-19T11:55:01Z</time>
      </trkpt>
      <trkpt lat="48.94705" lon="-0.40539">
        <ele>219</ele>
        <time>2013-05-19T11:55:06Z</time>
      </trkpt>
      <trkpt lat="48.94705" lon="-0.40528">
        <ele>219</ele>
        <time>2013-05-19T11:55:10Z</time>
      </trkpt>
      <trkpt lat="48.94704" lon="-0.40524">
        <ele>219</ele>
        <time>2013-05-19T11:55:21Z</time>
      </trkpt>
      <trkpt lat="48.94704" lon="-0.40524">
        <ele>219</ele>
        <time>2013-05-19T11:55:22Z</time>
      </trkpt>
      <trkpt lat="48.94704" lon="-0.40524">
        <ele>219</ele>
        <time>2013-05-19T11:55:25Z</time>
      </trkpt>
      <trkpt lat="48.94693" lon="-0.40502">
        <ele>221</ele>
        <time>2013-05-19T11:55:35Z</time>
      </trkpt>
      <trkpt lat="48.94693" lon="-0.40502">
        <ele>221</ele>
        <time>2013-05-19T11:56:10Z</time>
      </trkpt>
      <trkpt lat="48.94693" lon="-0.40502">
        <ele>221</ele>
        <time>2013-05-19T11:56:19Z</time>
      </trkpt>
      <trkpt lat="48.94693" lon="-0.40502">
        <ele>221</ele>
        <time>2013-05-19T11:56:30Z</time>
      </trkpt>
      <trkpt lat="48.94693" lon="-0.40502">
        <ele>221</ele>
        <time>2013-05-19T11:56:45Z</time>
      </trkpt>
      <trkpt lat="48.94693" lon="-0.40502">
        <ele>221</ele>
        <time>2013-05-19T11:56:59Z</time>
      </trkpt>
      <trkpt lat="48.94693" lon="-0.40502">
        <ele>221</ele>
        <time>2013-05-19T11:57:12Z</time>
      </trkpt>
      <trkpt lat="48.94693" lon="-0.40502">
        <ele>221</ele>
        <time>2013-05-19T11:57:20Z</time>
      </trkpt>
      <trkpt lat="48.94693" lon="-0.40502">
        <ele>221</ele>
        <time>2013-05-19T11:57:30Z</time>
      </trkpt>
      <trkpt lat="48.94649" lon="-0.40403">
        <ele>229</ele>
        <time>2013-05-19T11:57:39Z</time>
      </trkpt>
      <trkpt lat="48.94647" lon="-0.40393">
        <ele>230</ele>
        <time>2013-05-19T11:57:44Z</time>
      </trkpt>
      <trkpt lat="48.94647" lon="-0.40379">
        <ele>230</ele>
        <time>2013-05-19T11:57:50Z</time>
      </trkpt>
      <trkpt lat="48.94647" lon="-0.40379">
        <ele>230</ele>
        <time>2013-05-19T11:57:53Z</time>
      </trkpt>
      <trkpt lat="48.94646" lon="-0.4036">
        <ele>231</ele>
        <time>2013-05-19T11:57:56Z</time>
      </trkpt>
      <trkpt lat="48.94646" lon="-0.40358">
        <ele>230</ele>
        <time>2013-05-19T11:58:07Z</time>
      </trkpt>
      <trkpt lat="48.94644" lon="-0.40331">
        <ele>231</ele>
        <time>2013-05-19T11:58:09Z</time>
      </trkpt>
      <trkpt lat="48.94644" lon="-0.40325">
        <ele>232</ele>
        <time>2013-05-19T11:58:12Z</time>
      </trkpt>
      <trkpt lat="48.94644" lon="-0.40325">
        <ele>232</ele>
        <time>2013-05-19T11:58:22Z</time>
      </trkpt>
      <trkpt lat="48.94641" lon="-0.40295">
        <ele>233</ele>
        <time>2013-05-19T11:58:29Z</time>
      </trkpt>
      <trkpt lat="48.94639" lon="-0.40275">
        <ele>233</ele>
        <time>2013-05-19T11:58:35Z</time>
      </trkpt>
      <trkpt lat="48.94637" lon="-0.40257">
        <ele>233</ele>
        <time>2013-05-19T11:58:44Z</time>
      </trkpt>
      <trkpt lat="48.94637" lon="-0.40257">
        <ele>233</ele>
        <time>2013-05-19T11:58:59Z</time>
      </trkpt>
      <trkpt lat="48.94637" lon="-0.40257">
        <ele>233</ele>
        <time>2013-05-19T12:00:39Z</time>
      </trkpt>
      <trkpt lat="48.94637" lon="-0.40257">
        <ele>233</ele>
        <time>2013-05-19T12:01:26Z</time>
      </trkpt>
      <trkpt lat="48.94637" lon="-0.40257">
        <ele>233</ele>
        <time>2013-05-19T12:01:39Z</time>
      </trkpt>
      <trkpt lat="48.94628" lon="-0.40191">
        <ele>234</ele>
        <time>2013-05-19T12:01:43Z</time>
      </trkpt>
      <trkpt lat="48.94627" lon="-0.40181">
        <ele>234</ele>
        <time>2013-05-19T12:01:46Z</time>
      </trkpt>
      <trkpt lat="48.94618" lon="-0.40153">
        <ele>234</ele>
        <time>2013-05-19T12:01:55Z</time>
      </trkpt>
      <trkpt lat="48.94617" lon="-0.40125">
        <ele>234</ele>
        <time>2013-05-19T12:02:05Z</time>
      </trkpt>
      <trkpt lat="48.94621" lon="-0.40067">
        <ele>233</ele>
        <time>2013-05-19T12:02:23Z</time>
      </trkpt>
      <trkpt lat="48.9462" lon="-0.40026">
        <ele>233</ele>
        <time>2013-05-19T12:02:36Z</time>
      </trkpt>
      <trkpt lat="48.94616" lon="-0.39983">
        <ele>233</ele>
        <time>2013-05-19T12:02:50Z</time>
      </trkpt>
      <trkpt lat="48.94612" lon="-0.3994">
        <ele>232</ele>
        <time>2013-05-19T12:03:01Z</time>
      </trkpt>
      <trkpt lat="48.94606" lon="-0.39885">
        <ele>232</ele>
        <time>2013-05-19T12:03:17Z</time>
      </trkpt>
      <trkpt lat="48.94606" lon="-0.39881">
        <ele>232</ele>
        <time>2013-05-19T12:03:21Z</time>
      </trkpt>
      <trkpt lat="48.94605" lon="-0.3987">
        <ele>232</ele>
        <time>2013-05-19T12:03:25Z</time>
      </trkpt>
      <trkpt lat="48.94604" lon="-0.39864">
        <ele>232</ele>
        <time>2013-05-19T12:03:27Z</time>
      </trkpt>
      <trkpt lat="48.94603" lon="-0.39851">
        <ele>232</ele>
        <time>2013-05-19T12:03:31Z</time>
      </trkpt>
      <trkpt lat="48.94601" lon="-0.39817">
        <ele>231</ele>
        <time>2013-05-19T12:03:41Z</time>
      </trkpt>
      <trkpt lat="48.94601" lon="-0.39817">
        <ele>231</ele>
        <time>2013-05-19T12:03:50Z</time>
      </trkpt>
      <trkpt lat="48.94601" lon="-0.39817">
        <ele>231</ele>
        <time>2013-05-19T12:04:01Z</time>
      </trkpt>
      <trkpt lat="48.94601" lon="-0.39817">
        <ele>231</ele>
        <time>2013-05-19T12:04:07Z</time>
      </trkpt>
      <trkpt lat="48.94597" lon="-0.39779">
        <ele>230</ele>
        <time>2013-05-19T12:04:16Z</time>
      </trkpt>
      <trkpt lat="48.94592" lon="-0.39737">
        <ele>229</ele>
        <time>2013-05-19T12:04:26Z</time>
      </trkpt>
      <trkpt lat="48.9459" lon="-0.39719">
        <ele>228</ele>
        <time>2013-05-19T12:04:34Z</time>
      </trkpt>
      <trkpt lat="48.94589" lon="-0.39707">
        <ele>228</ele>
        <time>2013-05-19T12:07:00Z</time>
      </trkpt>
      <trkpt lat="48.94588" lon="-0.39701">
        <ele>228</ele>
        <time>2013-05-19T12:07:02Z</time>
      </trkpt>
      <trkpt lat="48.94587" lon="-0.39691">
        <ele>227</ele>
        <time>2013-05-19T12:07:05Z</time>
      </trkpt>
      <trkpt lat="48.94586" lon="-0.39685">
        <ele>227</ele>
        <time>2013-05-19T12:07:14Z</time>
      </trkpt>
      <trkpt lat="48.94586" lon="-0.39685">
        <ele>227</ele>
        <time>2013-05-19T12:10:58Z</time>
      </trkpt>
      <trkpt lat="48.9458" lon="-0.39665">
        <ele>227</ele>
        <time>2013-05-19T12:11:07Z</time>
      </trkpt>
      <trkpt lat="48.94575" lon="-0.39648">
        <ele>227</ele>
        <time>2013-05-19T12:11:17Z</time>
      </trkpt>
      <trkpt lat="48.9457" lon="-0.39632">
        <ele>226</ele>
        <time>2013-05-19T12:11:25Z</time>
      </trkpt>
      <trkpt lat="48.9457" lon="-0.39632">
        <ele>226</ele>
        <time>2013-05-19T12:11:37Z</time>
      </trkpt>
      <trkpt lat="48.94556" lon="-0.39584">
        <ele>225</ele>
        <time>2013-05-19T12:11:49Z</time>
      </trkpt>
      <trkpt lat="48.94547" lon="-0.3955">
        <ele>223</ele>
        <time>2013-05-19T12:12:01Z</time>
      </trkpt>
      <trkpt lat="48.94543" lon="-0.39537">
        <ele>223</ele>
        <time>2013-05-19T12:12:10Z</time>
      </trkpt>
      <trkpt lat="48.94543" lon="-0.39537">
        <ele>223</ele>
        <time>2013-05-19T12:12:24Z</time>
      </trkpt>
      <trkpt lat="48.94543" lon="-0.39537">
        <ele>223</ele>
        <time>2013-05-19T12:12:28Z</time>
      </trkpt>
      <trkpt lat="48.94532" lon="-0.39506">
        <ele>222</ele>
        <time>2013-05-19T12:12:35Z</time>
      </trkpt>
      <trkpt lat="48.94528" lon="-0.39494">
        <ele>220</ele>
        <time>2013-05-19T12:12:40Z</time>
      </trkpt>
      <trkpt lat="48.94521" lon="-0.39472">
        <ele>220</ele>
        <time>2013-05-19T12:12:51Z</time>
      </trkpt>
      <trkpt lat="48.94521" lon="-0.39472">
        <ele>220</ele>
        <time>2013-05-19T12:13:03Z</time>
      </trkpt>
      <trkpt lat="48.94509" lon="-0.39433">
        <ele>219</ele>
        <time>2013-05-19T12:13:12Z</time>
      </trkpt>
      <trkpt lat="48.94508" lon="-0.3943">
        <ele>219</ele>
        <time>2013-05-19T12:13:19Z</time>
      </trkpt>
      <trkpt lat="48.94508" lon="-0.3943">
        <ele>219</ele>
        <time>2013-05-19T12:13:32Z</time>
      </trkpt>
      <trkpt lat="48.94508" lon="-0.3943">
        <ele>219</ele>
        <time>2013-05-19T12:13:37Z</time>
      </trkpt>
      <trkpt lat="48.94503" lon="-0.39398">
        <ele>217</ele>
        <time>2013-05-19T12:13:42Z</time>
      </trkpt>
      <trkpt lat="48.945" lon="-0.39383">
        <ele>216</ele>
        <time>2013-05-19T12:13:47Z</time>
      </trkpt>
      <trkpt lat="48.945" lon="-0.39383">
        <ele>216</ele>
        <time>2013-05-19T12:13:57Z</time>
      </trkpt>
      <trkpt lat="48.945" lon="-0.39383">
        <ele>216</ele>
        <time>2013-05-19T12:14:01Z</time>
      </trkpt>
      <trkpt lat="48.94494" lon="-0.39358">
        <ele>215</ele>
        <time>2013-05-19T12:14:12Z</time>
      </trkpt>
      <trkpt lat="48.94488" lon="-0.39329">
        <ele>212</ele>
        <time>2013-05-19T12:15:02Z</time>
      </trkpt>
      <trkpt lat="48.94488" lon="-0.39329">
        <ele>212</ele>
        <time>2013-05-19T12:15:03Z</time>
      </trkpt>
      <trkpt lat="48.94485" lon="-0.39313">
        <ele>212</ele>
        <time>2013-05-19T12:15:08Z</time>
      </trkpt>
      <trkpt lat="48.9448" lon="-0.39292">
        <ele>211</ele>
        <time>2013-05-19T12:15:21Z</time>
      </trkpt>
      <trkpt lat="48.9448" lon="-0.39292">
        <ele>211</ele>
        <time>2013-05-19T12:15:32Z</time>
      </trkpt>
      <trkpt lat="48.9448" lon="-0.39292">
        <ele>211</ele>
        <time>2013-05-19T12:15:43Z</time>
      </trkpt>
      <trkpt lat="48.9448" lon="-0.39292">
        <ele>211</ele>
        <time>2013-05-19T12:15:55Z</time>
      </trkpt>
      <trkpt lat="48.9448" lon="-0.39292">
        <ele>211</ele>
        <time>2013-05-19T12:15:56Z</time>
      </trkpt>
      <trkpt lat="48.9448" lon="-0.39292">
        <ele>211</ele>
        <time>2013-05-19T12:16:01Z</time>
      </trkpt>
      <trkpt lat="48.9448" lon="-0.39292">
        <ele>211</ele>
        <time>2013-05-19T12:16:09Z</time>
      </trkpt>
      <trkpt lat="48.9446" lon="-0.39209">
        <ele>209</ele>
        <time>2013-05-19T12:16:13Z</time>
      </trkpt>
      <trkpt lat="48.94458" lon="-0.39207">
        <ele>209</ele>
        <time>2013-05-19T12:16:23Z</time>
      </trkpt>
      <trkpt lat="48.94458" lon="-0.39207">
        <ele>209</ele>
        <time>2013-05-19T12:16:42Z</time>
      </trkpt>
      <trkpt lat="48.94458" lon="-0.39207">
        <ele>209</ele>
        <time>2013-05-19T12:17:49Z</time>
      </trkpt>
      <trkpt lat="48.94458" lon="-0.39207">
        <ele>209</ele>
        <time>2013-05-19T12:17:53Z</time>
      </trkpt>
      <trkpt lat="48.9445" lon="-0.39195">
        <ele>209</ele>
        <time>2013-05-19T12:18:02Z</time>
      </trkpt>
      <trkpt lat="48.9445" lon="-0.39195">
        <ele>209</ele>
        <time>2013-05-19T12:18:22Z</time>
      </trkpt>
      <trkpt lat="48.9445" lon="-0.39195">
        <ele>209</ele>
        <time>2013-05-19T12:18:33Z</time>
      </trkpt>
      <trkpt lat="48.9445" lon="-0.39195">
        <ele>209</ele>
        <time>2013-05-19T12:19:12Z</time>
      </trkpt>
      <trkpt lat="48.9445" lon="-0.39195">
        <ele>209</ele>
        <time>2013-05-19T12:19:19Z</time>
      </trkpt>
      <trkpt lat="48.94434" lon="-0.39183">
        <ele>209</ele>
        <time>2013-05-19T12:19:28Z</time>
      </trkpt>
      <trkpt lat="48.94434" lon="-0.39183">
        <ele>209</ele>
        <time>2013-05-19T12:19:39Z</time>
      </trkpt>
      <trkpt lat="48.94434" lon="-0.39183">
        <ele>209</ele>
        <time>2013-05-19T12:20:28Z</time>
      </trkpt>
      <trkpt lat="48.94434" lon="-0.39183">
        <ele>209</ele>
        <time>2013-05-19T12:20:42Z</time>
      </trkpt>
      <trkpt lat="48.94434" lon="-0.39183">
        <ele>209</ele>
        <time>2013-05-19T12:21:19Z</time>
      </trkpt>
      <trkpt lat="48.94434" lon="-0.39183">
        <ele>209</ele>
        <time>2013-05-19T12:21:30Z</time>
      </trkpt>
      <trkpt lat="48.94434" lon="-0.39183">
        <ele>209</ele>
        <time>2013-05-19T12:21:49Z</time>
      </trkpt>
      <trkpt lat="48.94434" lon="-0.39183">
        <ele>209</ele>
        <time>2013-05-19T12:23:23Z</time>
      </trkpt>
      <trkpt lat="48.94434" lon="-0.39183">
        <ele>209</ele>
        <time>2013-05-19T12:23:29Z</time>
      </trkpt>
      <trkpt lat="48.94434" lon="-0.39183">
        <ele>209</ele>
        <time>2013-05-19T12:23:42Z</time>
      </trkpt>
      <trkpt lat="48.94434" lon="-0.39183">
        <ele>209</ele>
        <time>2013-05-19T12:23:57Z</time>
      </trkpt>
      <trkpt lat="48.94434" lon="-0.39183">
        <ele>209</ele>
        <time>2013-05-19T12:24:18Z</time>
      </trkpt>
      <trkpt lat="48.94404" lon="-0.39154">
        <ele>211</ele>
        <time>2013-05-19T12:24:29Z</time>
      </trkpt>
      <trkpt lat="48.94404" lon="-0.39154">
        <ele>211</ele>
        <time>2013-05-19T12:24:43Z</time>
      </trkpt>
      <trkpt lat="48.94404" lon="-0.39154">
        <ele>211</ele>
        <time>2013-05-19T12:24:48Z</time>
      </trkpt>
      <trkpt lat="48.94404" lon="-0.39154">
        <ele>211</ele>
        <time>2013-05-19T12:24:58Z</time>
      </trkpt>
      <trkpt lat="48.94404" lon="-0.39154">
        <ele>211</ele>
        <time>2013-05-19T12:25:09Z</time>
      </trkpt>
      <trkpt lat="48.94404" lon="-0.39154">
        <ele>211</ele>
        <time>2013-05-19T12:25:20Z</time>
      </trkpt>
      <trkpt lat="48.94404" lon="-0.39154">
        <ele>211</ele>
        <time>2013-05-19T12:25:30Z</time>
      </trkpt>
      <trkpt lat="48.94404" lon="-0.39154">
        <ele>211</ele>
        <time>2013-05-19T12:25:43Z</time>
      </trkpt>
      <trkpt lat="48.94404" lon="-0.39154">
        <ele>211</ele>
        <time>2013-05-19T12:25:50Z</time>
      </trkpt>
      <trkpt lat="48.94404" lon="-0.39154">
        <ele>211</ele>
        <time>2013-05-19T12:25:55Z</time>
      </trkpt>
      <trkpt lat="48.94404" lon="-0.39154">
        <ele>211</ele>
        <time>2013-05-19T12:26:04Z</time>
      </trkpt>
      <trkpt lat="48.94387" lon="-0.39059">
        <ele>217</ele>
        <time>2013-05-19T12:26:18Z</time>
      </trkpt>
      <trkpt lat="48.94384" lon="-0.39048">
        <ele>217</ele>
        <time>2013-05-19T12:26:35Z</time>
      </trkpt>
      <trkpt lat="48.94384" lon="-0.39048">
        <ele>217</ele>
        <time>2013-05-19T12:26:43Z</time>
      </trkpt>
      <trkpt lat="48.94384" lon="-0.39048">
        <ele>217</ele>
        <time>2013-05-19T12:28:12Z</time>
      </trkpt>
      <trkpt lat="48.94384" lon="-0.39048">
        <ele>217</ele>
        <time>2013-05-19T12:28:29Z</time>
      </trkpt>
      <trkpt lat="48.94379" lon="-0.39029">
        <ele>217</ele>
        <time>2013-05-19T12:28:39Z</time>
      </trkpt>
      <trkpt lat="48.94379" lon="-0.39029">
        <ele>217</ele>
        <time>2013-05-19T12:28:41Z</time>
      </trkpt>
      <trkpt lat="48.94379" lon="-0.39029">
        <ele>217</ele>
        <time>2013-05-19T12:28:54Z</time>
      </trkpt>
      <trkpt lat="48.94379" lon="-0.39029">
        <ele>217</ele>
        <time>2013-05-19T12:29:04Z</time>
      </trkpt>
      <trkpt lat="48.94379" lon="-0.39029">
        <ele>217</ele>
        <time>2013-05-19T12:29:14Z</time>
      </trkpt>
      <trkpt lat="48.94374" lon="-0.38938">
        <ele>221</ele>
        <time>2013-05-19T12:29:26Z</time>
      </trkpt>
      <trkpt lat="48.94372" lon="-0.38918">
        <ele>221</ele>
        <time>2013-05-19T12:29:35Z</time>
      </trkpt>
      <trkpt lat="48.94371" lon="-0.38913">
        <ele>222</ele>
        <time>2013-05-19T12:29:46Z</time>
      </trkpt>
      <trkpt lat="48.94371" lon="-0.38913">
        <ele>222</ele>
        <time>2013-05-19T12:29:57Z</time>
      </trkpt>
      <trkpt lat="48.94371" lon="-0.38913">
        <ele>222</ele>
        <time>2013-05-19T12:29:58Z</time>
      </trkpt>
      <trkpt lat="48.94366" lon="-0.38856">
        <ele>222</ele>
        <time>2013-05-19T12:30:05Z</time>
      </trkpt>
      <trkpt lat="48.94365" lon="-0.3884">
        <ele>222</ele>
        <time>2013-05-19T12:30:13Z</time>
      </trkpt>
      <trkpt lat="48.94365" lon="-0.3884">
        <ele>222</ele>
        <time>2013-05-19T12:30:14Z</time>
      </trkpt>
      <trkpt lat="48.94361" lon="-0.38802">
        <ele>223</ele>
        <time>2013-05-19T12:30:26Z</time>
      </trkpt>
      <trkpt lat="48.9436" lon="-0.38789">
        <ele>223</ele>
        <time>2013-05-19T12:30:30Z</time>
      </trkpt>
      <trkpt lat="48.94359" lon="-0.3878">
        <ele>223</ele>
        <time>2013-05-19T12:30:32Z</time>
      </trkpt>
      <trkpt lat="48.94358" lon="-0.38771">
        <ele>223</ele>
        <time>2013-05-19T12:30:38Z</time>
      </trkpt>
      <trkpt lat="48.94356" lon="-0.38752">
        <ele>223</ele>
        <time>2013-05-19T12:30:45Z</time>
      </trkpt>
      <trkpt lat="48.94356" lon="-0.38742">
        <ele>223</ele>
        <time>2013-05-19T12:30:52Z</time>
      </trkpt>
      <trkpt lat="48.94355" lon="-0.38736">
        <ele>223</ele>
        <time>2013-05-19T12:31:02Z</time>
      </trkpt>
      <trkpt lat="48.94355" lon="-0.38736">
        <ele>223</ele>
        <time>2013-05-19T12:31:04Z</time>
      </trkpt>
      <trkpt lat="48.94353" lon="-0.38715">
        <ele>223</ele>
        <time>2013-05-19T12:31:16Z</time>
      </trkpt>
      <trkpt lat="48.94353" lon="-0.38715">
        <ele>223</ele>
        <time>2013-05-19T12:31:17Z</time>
      </trkpt>
      <trkpt lat="48.94351" lon="-0.38697">
        <ele>223</ele>
        <time>2013-05-19T12:31:22Z</time>
      </trkpt>
      <trkpt lat="48.94351" lon="-0.3869">
        <ele>223</ele>
        <time>2013-05-19T12:31:27Z</time>
      </trkpt>
      <trkpt lat="48.94351" lon="-0.3869">
        <ele>223</ele>
        <time>2013-05-19T12:31:29Z</time>
      </trkpt>
      <trkpt lat="48.94349" lon="-0.38676">
        <ele>222</ele>
        <time>2013-05-19T12:31:34Z</time>
      </trkpt>
      <trkpt lat="48.94346" lon="-0.38626">
        <ele>222</ele>
        <time>2013-05-19T12:31:45Z</time>
      </trkpt>
      <trkpt lat="48.94342" lon="-0.38576">
        <ele>222</ele>
        <time>2013-05-19T12:31:56Z</time>
      </trkpt>
      <trkpt lat="48.9434" lon="-0.38545">
        <ele>222</ele>
        <time>2013-05-19T12:32:05Z</time>
      </trkpt>
      <trkpt lat="48.9434" lon="-0.38533">
        <ele>222</ele>
        <time>2013-05-19T12:32:09Z</time>
      </trkpt>
      <trkpt lat="48.94338" lon="-0.38517">
        <ele>221</ele>
        <time>2013-05-19T12:32:20Z</time>
      </trkpt>
      <trkpt lat="48.94338" lon="-0.38517">
        <ele>221</ele>
        <time>2013-05-19T12:32:30Z</time>
      </trkpt>
      <trkpt lat="48.94338" lon="-0.38517">
        <ele>221</ele>
        <time>2013-05-19T12:32:46Z</time>
      </trkpt>
      <trkpt lat="48.94338" lon="-0.38517">
        <ele>221</ele>
        <time>2013-05-19T12:33:01Z</time>
      </trkpt>
      <trkpt lat="48.94338" lon="-0.38517">
        <ele>221</ele>
        <time>2013-05-19T12:33:21Z</time>
      </trkpt>
      <trkpt lat="48.94338" lon="-0.38517">
        <ele>221</ele>
        <time>2013-05-19T12:33:32Z</time>
      </trkpt>
      <trkpt lat="48.94338" lon="-0.38517">
        <ele>221</ele>
        <time>2013-05-19T12:33:46Z</time>
      </trkpt>
      <trkpt lat="48.94334" lon="-0.38454">
        <ele>220</ele>
        <time>2013-05-19T12:39:20Z</time>
      </trkpt>
      <trkpt lat="48.94334" lon="-0.38454">
        <ele>220</ele>
        <time>2013-05-19T12:39:25Z</time>
      </trkpt>
      <trkpt lat="48.94309" lon="-0.38422">
        <ele>220</ele>
        <time>2013-05-19T12:39:36Z</time>
      </trkpt>
      <trkpt lat="48.94295" lon="-0.38401">
        <ele>218</ele>
        <time>2013-05-19T12:39:43Z</time>
      </trkpt>
      <trkpt lat="48.94287" lon="-0.38388">
        <ele>218</ele>
        <time>2013-05-19T12:39:50Z</time>
      </trkpt>
      <trkpt lat="48.94298" lon="-0.38326">
        <ele>216</ele>
        <time>2013-05-19T12:39:58Z</time>
      </trkpt>
      <trkpt lat="48.94299" lon="-0.38319">
        <ele>216</ele>
        <time>2013-05-19T12:39:59Z</time>
      </trkpt>
      <trkpt lat="48.94297" lon="-0.3827">
        <ele>215</ele>
        <time>2013-05-19T12:40:07Z</time>
      </trkpt>
      <trkpt lat="48.94308" lon="-0.38214">
        <ele>214</ele>
        <time>2013-05-19T12:40:15Z</time>
      </trkpt>
      <trkpt lat="48.94336" lon="-0.38172">
        <ele>214</ele>
        <time>2013-05-19T12:40:23Z</time>
      </trkpt>
      <trkpt lat="48.94346" lon="-0.38157">
        <ele>212</ele>
        <time>2013-05-19T12:40:26Z</time>
      </trkpt>
      <trkpt lat="48.94395" lon="-0.38085">
        <ele>209</ele>
        <time>2013-05-19T12:40:38Z</time>
      </trkpt>
      <trkpt lat="48.94454" lon="-0.37998">
        <ele>203</ele>
        <time>2013-05-19T12:40:50Z</time>
      </trkpt>
      <trkpt lat="48.94494" lon="-0.37934">
        <ele>202</ele>
        <time>2013-05-19T12:40:59Z</time>
      </trkpt>
      <trkpt lat="48.94513" lon="-0.379">
        <ele>204</ele>
        <time>2013-05-19T12:41:08Z</time>
      </trkpt>
      <trkpt lat="48.94514" lon="-0.37899">
        <ele>204</ele>
        <time>2013-05-19T12:41:17Z</time>
      </trkpt>
      <trkpt lat="48.94514" lon="-0.37899">
        <ele>204</ele>
        <time>2013-05-19T12:42:37Z</time>
      </trkpt>
      <trkpt lat="48.94514" lon="-0.37899">
        <ele>204</ele>
        <time>2013-05-19T12:42:39Z</time>
      </trkpt>
      <trkpt lat="48.94494" lon="-0.37871">
        <ele>202</ele>
        <time>2013-05-19T12:42:50Z</time>
      </trkpt>
      <trkpt lat="48.94461" lon="-0.37825">
        <ele>202</ele>
        <time>2013-05-19T12:43:01Z</time>
      </trkpt>
      <trkpt lat="48.94432" lon="-0.37797">
        <ele>201</ele>
        <time>2013-05-19T12:43:09Z</time>
      </trkpt>
      <trkpt lat="48.94379" lon="-0.37749">
        <ele>196</ele>
        <time>2013-05-19T12:43:17Z</time>
      </trkpt>
      <trkpt lat="48.94352" lon="-0.37706">
        <ele>195</ele>
        <time>2013-05-19T12:43:22Z</time>
      </trkpt>
      <trkpt lat="48.94312" lon="-0.37681">
        <ele>195</ele>
        <time>2013-05-19T12:43:29Z</time>
      </trkpt>
      <trkpt lat="48.94296" lon="-0.3769">
        <ele>196</ele>
        <time>2013-05-19T12:43:32Z</time>
      </trkpt>
      <trkpt lat="48.9428" lon="-0.37702">
        <ele>196</ele>
        <time>2013-05-19T12:43:36Z</time>
      </trkpt>
      <trkpt lat="48.94245" lon="-0.37716">
        <ele>199</ele>
        <time>2013-05-19T12:43:47Z</time>
      </trkpt>
      <trkpt lat="48.94237" lon="-0.3772">
        <ele>199</ele>
        <time>2013-05-19T12:44:03Z</time>
      </trkpt>
      <trkpt lat="48.94217" lon="-0.37732">
        <ele>200</ele>
        <time>2013-05-19T12:44:11Z</time>
      </trkpt>
      <trkpt lat="48.94204" lon="-0.37735">
        <ele>201</ele>
        <time>2013-05-19T12:44:19Z</time>
      </trkpt>
      <trkpt lat="48.94185" lon="-0.37733">
        <ele>201</ele>
        <time>2013-05-19T12:44:32Z</time>
      </trkpt>
      <trkpt lat="48.94162" lon="-0.37724">
        <ele>205</ele>
        <time>2013-05-19T12:44:48Z</time>
      </trkpt>
      <trkpt lat="48.9414" lon="-0.37714">
        <ele>205</ele>
        <time>2013-05-19T12:45:05Z</time>
      </trkpt>
      <trkpt lat="48.94126" lon="-0.37706">
        <ele>206</ele>
        <time>2013-05-19T12:45:15Z</time>
      </trkpt>
      <trkpt lat="48.94104" lon="-0.37689">
        <ele>207</ele>
        <time>2013-05-19T12:45:31Z</time>
      </trkpt>
      <trkpt lat="48.94078" lon="-0.37659">
        <ele>210</ele>
        <time>2013-05-19T12:45:53Z</time>
      </trkpt>
      <trkpt lat="48.94049" lon="-0.37629">
        <ele>211</ele>
        <time>2013-05-19T12:46:15Z</time>
      </trkpt>
      <trkpt lat="48.94022" lon="-0.376">
        <ele>212</ele>
        <time>2013-05-19T12:46:34Z</time>
      </trkpt>
      <trkpt lat="48.93998" lon="-0.37585">
        <ele>213</ele>
        <time>2013-05-19T12:46:47Z</time>
      </trkpt>
      <trkpt lat="48.93966" lon="-0.37562">
        <ele>214</ele>
        <time>2013-05-19T12:47:03Z</time>
      </trkpt>
      <trkpt lat="48.93926" lon="-0.37533">
        <ele>215</ele>
        <time>2013-05-19T12:47:22Z</time>
      </trkpt>
      <trkpt lat="48.93898" lon="-0.37514">
        <ele>219</ele>
        <time>2013-05-19T12:47:33Z</time>
      </trkpt>
      <trkpt lat="48.93869" lon="-0.37495">
        <ele>218</ele>
        <time>2013-05-19T12:47:45Z</time>
      </trkpt>
      <trkpt lat="48.93814" lon="-0.37459">
        <ele>221</ele>
        <time>2013-05-19T12:48:02Z</time>
      </trkpt>
      <trkpt lat="48.9376" lon="-0.37422">
        <ele>220</ele>
        <time>2013-05-19T12:48:19Z</time>
      </trkpt>
      <trkpt lat="48.93713" lon="-0.37388">
        <ele>220</ele>
        <time>2013-05-19T12:48:32Z</time>
      </trkpt>
      <trkpt lat="48.93667" lon="-0.37356">
        <ele>219</ele>
        <time>2013-05-19T12:48:45Z</time>
      </trkpt>
      <trkpt lat="48.9361" lon="-0.37316">
        <ele>220</ele>
        <time>2013-05-19T12:49:01Z</time>
      </trkpt>
      <trkpt lat="48.93556" lon="-0.37278">
        <ele>224</ele>
        <time>2013-05-19T12:49:19Z</time>
      </trkpt>
      <trkpt lat="48.93511" lon="-0.37247">
        <ele>225</ele>
        <time>2013-05-19T12:49:39Z</time>
      </trkpt>
      <trkpt lat="48.93487" lon="-0.37231">
        <ele>228</ele>
        <time>2013-05-19T12:49:50Z</time>
      </trkpt>
      <trkpt lat="48.93451" lon="-0.37206">
        <ele>229</ele>
        <time>2013-05-19T12:50:06Z</time>
      </trkpt>
      <trkpt lat="48.93451" lon="-0.37206">
        <ele>229</ele>
        <time>2013-05-19T12:50:08Z</time>
      </trkpt>
      <trkpt lat="48.93446" lon="-0.37202">
        <ele>229</ele>
        <time>2013-05-19T12:50:20Z</time>
      </trkpt>
      <trkpt lat="48.93446" lon="-0.37202">
        <ele>229</ele>
        <time>2013-05-19T12:52:29Z</time>
      </trkpt>
      <trkpt lat="48.93446" lon="-0.37202">
        <ele>229</ele>
        <time>2013-05-19T12:59:28Z</time>
      </trkpt>
      <trkpt lat="48.93446" lon="-0.37202">
        <ele>229</ele>
        <time>2013-05-19T12:59:34Z</time>
      </trkpt>
      <trkpt lat="48.93425" lon="-0.37187">
        <ele>229</ele>
        <time>2013-05-19T12:59:44Z</time>
      </trkpt>
      <trkpt lat="48.93402" lon="-0.37172">
        <ele>232</ele>
        <time>2013-05-19T12:59:55Z</time>
      </trkpt>
      <trkpt lat="48.93366" lon="-0.37147">
        <ele>231</ele>
        <time>2013-05-19T13:00:07Z</time>
      </trkpt>
      <trkpt lat="48.93353" lon="-0.37138">
        <ele>231</ele>
        <time>2013-05-19T13:00:11Z</time>
      </trkpt>
      <trkpt lat="48.93328" lon="-0.37121">
        <ele>231</ele>
        <time>2013-05-19T13:00:17Z</time>
      </trkpt>
      <trkpt lat="48.93278" lon="-0.37085">
        <ele>230</ele>
        <time>2013-05-19T13:00:27Z</time>
      </trkpt>
      <trkpt lat="48.93239" lon="-0.37058">
        <ele>225</ele>
        <time>2013-05-19T13:00:34Z</time>
      </trkpt>
      <trkpt lat="48.93184" lon="-0.3702">
        <ele>223</ele>
        <time>2013-05-19T13:00:42Z</time>
      </trkpt>
      <trkpt lat="48.93135" lon="-0.36985">
        <ele>222</ele>
        <time>2013-05-19T13:00:50Z</time>
      </trkpt>
      <trkpt lat="48.93106" lon="-0.36965">
        <ele>223</ele>
        <time>2013-05-19T13:00:56Z</time>
      </trkpt>
      <trkpt lat="48.9307" lon="-0.36941">
        <ele>225</ele>
        <time>2013-05-19T13:01:03Z</time>
      </trkpt>
      <trkpt lat="48.93037" lon="-0.36918">
        <ele>226</ele>
        <time>2013-05-19T13:01:13Z</time>
      </trkpt>
      <trkpt lat="48.92987" lon="-0.3688">
        <ele>220</ele>
        <time>2013-05-19T13:01:26Z</time>
      </trkpt>
      <trkpt lat="48.92917" lon="-0.36824">
        <ele>214</ele>
        <time>2013-05-19T13:01:40Z</time>
      </trkpt>
      <trkpt lat="48.92879" lon="-0.36803">
        <ele>210</ele>
        <time>2013-05-19T13:01:46Z</time>
      </trkpt>
      <trkpt lat="48.92834" lon="-0.36813">
        <ele>209</ele>
        <time>2013-05-19T13:01:52Z</time>
      </trkpt>
      <trkpt lat="48.9282" lon="-0.36839">
        <ele>207</ele>
        <time>2013-05-19T13:01:55Z</time>
      </trkpt>
      <trkpt lat="48.92806" lon="-0.36873">
        <ele>206</ele>
        <time>2013-05-19T13:01:59Z</time>
      </trkpt>
      <trkpt lat="48.92777" lon="-0.36905">
        <ele>205</ele>
        <time>2013-05-19T13:02:05Z</time>
      </trkpt>
      <trkpt lat="48.92672" lon="-0.3695">
        <ele>201</ele>
        <time>2013-05-19T13:02:19Z</time>
      </trkpt>
      <trkpt lat="48.92624" lon="-0.37003">
        <ele>200</ele>
        <time>2013-05-19T13:02:27Z</time>
      </trkpt>
      <trkpt lat="48.926" lon="-0.37049">
        <ele>200</ele>
        <time>2013-05-19T13:02:33Z</time>
      </trkpt>
      <trkpt lat="48.92589" lon="-0.37059">
        <ele>199</ele>
        <time>2013-05-19T13:02:39Z</time>
      </trkpt>
      <trkpt lat="48.92589" lon="-0.37059">
        <ele>199</ele>
        <time>2013-05-19T13:02:53Z</time>
      </trkpt>
      <trkpt lat="48.92565" lon="-0.37054">
        <ele>199</ele>
        <time>2013-05-19T13:03:01Z</time>
      </trkpt>
      <trkpt lat="48.92556" lon="-0.37046">
        <ele>199</ele>
        <time>2013-05-19T13:03:03Z</time>
      </trkpt>
      <trkpt lat="48.92532" lon="-0.37019">
        <ele>199</ele>
        <time>2013-05-19T13:03:11Z</time>
      </trkpt>
      <trkpt lat="48.92514" lon="-0.36995">
        <ele>201</ele>
        <time>2013-05-19T13:03:23Z</time>
      </trkpt>
      <trkpt lat="48.92502" lon="-0.36978">
        <ele>201</ele>
        <time>2013-05-19T13:03:36Z</time>
      </trkpt>
      <trkpt lat="48.92483" lon="-0.36955">
        <ele>204</ele>
        <time>2013-05-19T13:03:50Z</time>
      </trkpt>
      <trkpt lat="48.92463" lon="-0.36929">
        <ele>205</ele>
        <time>2013-05-19T13:04:06Z</time>
      </trkpt>
      <trkpt lat="48.92433" lon="-0.36896">
        <ele>207</ele>
        <time>2013-05-19T13:04:26Z</time>
      </trkpt>
      <trkpt lat="48.92401" lon="-0.36869">
        <ele>209</ele>
        <time>2013-05-19T13:04:43Z</time>
      </trkpt>
      <trkpt lat="48.92401" lon="-0.36868">
        <ele>209</ele>
        <time>2013-05-19T13:04:44Z</time>
      </trkpt>
      <trkpt lat="48.92381" lon="-0.36908">
        <ele>209</ele>
        <time>2013-05-19T13:04:59Z</time>
      </trkpt>
      <trkpt lat="48.9238" lon="-0.36911">
        <ele>209</ele>
        <time>2013-05-19T13:05:08Z</time>
      </trkpt>
      <trkpt lat="48.92372" lon="-0.36929">
        <ele>209</ele>
        <time>2013-05-19T13:05:16Z</time>
      </trkpt>
      <trkpt lat="48.92345" lon="-0.3698">
        <ele>210</ele>
        <time>2013-05-19T13:05:37Z</time>
      </trkpt>
      <trkpt lat="48.92323" lon="-0.37024">
        <ele>212</ele>
        <time>2013-05-19T13:05:53Z</time>
      </trkpt>
      <trkpt lat="48.92314" lon="-0.37052">
        <ele>212</ele>
        <time>2013-05-19T13:06:04Z</time>
      </trkpt>
      <trkpt lat="48.92299" lon="-0.37119">
        <ele>213</ele>
        <time>2013-05-19T13:06:22Z</time>
      </trkpt>
      <trkpt lat="48.9229" lon="-0.37165">
        <ele>214</ele>
        <time>2013-05-19T13:06:35Z</time>
      </trkpt>
      <trkpt lat="48.92286" lon="-0.37173">
        <ele>214</ele>
        <time>2013-05-19T13:06:40Z</time>
      </trkpt>
      <trkpt lat="48.92298" lon="-0.37224">
        <ele>214</ele>
        <time>2013-05-19T13:06:52Z</time>
      </trkpt>
      <trkpt lat="48.9231" lon="-0.37265">
        <ele>213</ele>
        <time>2013-05-19T13:07:02Z</time>
      </trkpt>
      <trkpt lat="48.92334" lon="-0.37346">
        <ele>210</ele>
        <time>2013-05-19T13:07:15Z</time>
      </trkpt>
      <trkpt lat="48.92357" lon="-0.37453">
        <ele>211</ele>
        <time>2013-05-19T13:07:32Z</time>
      </trkpt>
      <trkpt lat="48.92368" lon="-0.37558">
        <ele>211</ele>
        <time>2013-05-19T13:07:48Z</time>
      </trkpt>
      <trkpt lat="48.92367" lon="-0.37648">
        <ele>212</ele>
        <time>2013-05-19T13:08:04Z</time>
      </trkpt>
      <trkpt lat="48.92358" lon="-0.37703">
        <ele>214</ele>
        <time>2013-05-19T13:08:18Z</time>
      </trkpt>
      <trkpt lat="48.92352" lon="-0.37731">
        <ele>214</ele>
        <time>2013-05-19T13:08:30Z</time>
      </trkpt>
      <trkpt lat="48.92344" lon="-0.3777">
        <ele>216</ele>
        <time>2013-05-19T13:08:45Z</time>
      </trkpt>
      <trkpt lat="48.92338" lon="-0.37796">
        <ele>217</ele>
        <time>2013-05-19T13:08:56Z</time>
      </trkpt>
      <trkpt lat="48.92333" lon="-0.37816">
        <ele>218</ele>
        <time>2013-05-19T13:09:06Z</time>
      </trkpt>
      <trkpt lat="48.92326" lon="-0.37847">
        <ele>220</ele>
        <time>2013-05-19T13:09:18Z</time>
      </trkpt>
      <trkpt lat="48.92317" lon="-0.37884">
        <ele>222</ele>
        <time>2013-05-19T13:09:33Z</time>
      </trkpt>
      <trkpt lat="48.92308" lon="-0.37927">
        <ele>224</ele>
        <time>2013-05-19T13:09:50Z</time>
      </trkpt>
      <trkpt lat="48.92298" lon="-0.37971">
        <ele>226</ele>
        <time>2013-05-19T13:10:07Z</time>
      </trkpt>
      <trkpt lat="48.923" lon="-0.38017">
        <ele>228</ele>
        <time>2013-05-19T13:10:23Z</time>
      </trkpt>
      <trkpt lat="48.9232" lon="-0.38053">
        <ele>228</ele>
        <time>2013-05-19T13:10:36Z</time>
      </trkpt>
      <trkpt lat="48.92347" lon="-0.38088">
        <ele>225</ele>
        <time>2013-05-19T13:10:48Z</time>
      </trkpt>
      <trkpt lat="48.92347" lon="-0.38088">
        <ele>225</ele>
        <time>2013-05-19T13:10:55Z</time>
      </trkpt>
      <trkpt lat="48.92347" lon="-0.38088">
        <ele>225</ele>
        <time>2013-05-19T13:11:58Z</time>
      </trkpt>
      <trkpt lat="48.92347" lon="-0.38088">
        <ele>225</ele>
        <time>2013-05-19T13:20:01Z</time>
      </trkpt>
      <trkpt lat="48.92347" lon="-0.38088">
        <ele>225</ele>
        <time>2013-05-19T13:20:41Z</time>
      </trkpt>
      <trkpt lat="48.92356" lon="-0.38098">
        <ele>224</ele>
        <time>2013-05-19T13:20:45Z</time>
      </trkpt>
      <trkpt lat="48.92364" lon="-0.38152">
        <ele>224</ele>
        <time>2013-05-19T13:20:58Z</time>
      </trkpt>
      <trkpt lat="48.92364" lon="-0.38231">
        <ele>226</ele>
        <time>2013-05-19T13:21:14Z</time>
      </trkpt>
      <trkpt lat="48.92364" lon="-0.38301">
        <ele>228</ele>
        <time>2013-05-19T13:21:29Z</time>
      </trkpt>
      <trkpt lat="48.92361" lon="-0.38333">
        <ele>228</ele>
        <time>2013-05-19T13:21:40Z</time>
      </trkpt>
      <trkpt lat="48.92361" lon="-0.3834">
        <ele>230</ele>
        <time>2013-05-19T13:21:43Z</time>
      </trkpt>
      <trkpt lat="48.92356" lon="-0.38362">
        <ele>230</ele>
        <time>2013-05-19T13:22:01Z</time>
      </trkpt>
      <trkpt lat="48.92348" lon="-0.38399">
        <ele>232</ele>
        <time>2013-05-19T13:22:15Z</time>
      </trkpt>
      <trkpt lat="48.92343" lon="-0.38424">
        <ele>233</ele>
        <time>2013-05-19T13:22:28Z</time>
      </trkpt>
      <trkpt lat="48.92337" lon="-0.38456">
        <ele>234</ele>
        <time>2013-05-19T13:22:44Z</time>
      </trkpt>
      <trkpt lat="48.92329" lon="-0.38496">
        <ele>236</ele>
        <time>2013-05-19T13:23:02Z</time>
      </trkpt>
      <trkpt lat="48.92318" lon="-0.3854">
        <ele>238</ele>
        <time>2013-05-19T13:23:24Z</time>
      </trkpt>
      <trkpt lat="48.92302" lon="-0.38581">
        <ele>239</ele>
        <time>2013-05-19T13:23:42Z</time>
      </trkpt>
      <trkpt lat="48.92285" lon="-0.38614">
        <ele>241</ele>
        <time>2013-05-19T13:23:56Z</time>
      </trkpt>
      <trkpt lat="48.9226" lon="-0.38663">
        <ele>244</ele>
        <time>2013-05-19T13:24:13Z</time>
      </trkpt>
      <trkpt lat="48.92244" lon="-0.38718">
        <ele>248</ele>
        <time>2013-05-19T13:24:29Z</time>
      </trkpt>
      <trkpt lat="48.92244" lon="-0.38788">
        <ele>249</ele>
        <time>2013-05-19T13:24:48Z</time>
      </trkpt>
      <trkpt lat="48.9224" lon="-0.38841">
        <ele>247</ele>
        <time>2013-05-19T13:25:02Z</time>
      </trkpt>
      <trkpt lat="48.9223" lon="-0.38909">
        <ele>249</ele>
        <time>2013-05-19T13:25:22Z</time>
      </trkpt>
      <trkpt lat="48.9222" lon="-0.38955">
        <ele>250</ele>
        <time>2013-05-19T13:25:35Z</time>
      </trkpt>
      <trkpt lat="48.92209" lon="-0.38995">
        <ele>250</ele>
        <time>2013-05-19T13:25:48Z</time>
      </trkpt>
      <trkpt lat="48.92202" lon="-0.39024">
        <ele>251</ele>
        <time>2013-05-19T13:26:03Z</time>
      </trkpt>
      <trkpt lat="48.92194" lon="-0.39054">
        <ele>252</ele>
        <time>2013-05-19T13:26:17Z</time>
      </trkpt>
      <trkpt lat="48.92193" lon="-0.39059">
        <ele>252</ele>
        <time>2013-05-19T13:26:19Z</time>
      </trkpt>
      <trkpt lat="48.92183" lon="-0.39091">
        <ele>255</ele>
        <time>2013-05-19T13:26:36Z</time>
      </trkpt>
      <trkpt lat="48.92173" lon="-0.3912">
        <ele>255</ele>
        <time>2013-05-19T13:26:52Z</time>
      </trkpt>
      <trkpt lat="48.92164" lon="-0.39147">
        <ele>262</ele>
        <time>2013-05-19T13:27:07Z</time>
      </trkpt>
      <trkpt lat="48.92156" lon="-0.3917">
        <ele>263</ele>
        <time>2013-05-19T13:27:19Z</time>
      </trkpt>
      <trkpt lat="48.92143" lon="-0.39207">
        <ele>264</ele>
        <time>2013-05-19T13:27:36Z</time>
      </trkpt>
      <trkpt lat="48.92132" lon="-0.3924">
        <ele>265</ele>
        <time>2013-05-19T13:27:53Z</time>
      </trkpt>
      <trkpt lat="48.92119" lon="-0.3928">
        <ele>266</ele>
        <time>2013-05-19T13:28:11Z</time>
      </trkpt>
      <trkpt lat="48.92115" lon="-0.39296">
        <ele>267</ele>
        <time>2013-05-19T13:28:18Z</time>
      </trkpt>
      <trkpt lat="48.92108" lon="-0.3932">
        <ele>267</ele>
        <time>2013-05-19T13:28:31Z</time>
      </trkpt>
      <trkpt lat="48.921" lon="-0.3935">
        <ele>268</ele>
        <time>2013-05-19T13:28:47Z</time>
      </trkpt>
      <trkpt lat="48.92091" lon="-0.3938">
        <ele>269</ele>
        <time>2013-05-19T13:28:59Z</time>
      </trkpt>
      <trkpt lat="48.92083" lon="-0.3941">
        <ele>273</ele>
        <time>2013-05-19T13:29:10Z</time>
      </trkpt>
      <trkpt lat="48.92079" lon="-0.39425">
        <ele>274</ele>
        <time>2013-05-19T13:29:17Z</time>
      </trkpt>
      <trkpt lat="48.92079" lon="-0.39425">
        <ele>274</ele>
        <time>2013-05-19T13:29:20Z</time>
      </trkpt>
      <trkpt lat="48.9207" lon="-0.39457">
        <ele>274</ele>
        <time>2013-05-19T13:29:29Z</time>
      </trkpt>
      <trkpt lat="48.92062" lon="-0.39487">
        <ele>275</ele>
        <time>2013-05-19T13:29:37Z</time>
      </trkpt>
      <trkpt lat="48.92047" lon="-0.39556">
        <ele>276</ele>
        <time>2013-05-19T13:29:53Z</time>
      </trkpt>
      <trkpt lat="48.92045" lon="-0.39599">
        <ele>277</ele>
        <time>2013-05-19T13:30:04Z</time>
      </trkpt>
      <trkpt lat="48.92046" lon="-0.39663">
        <ele>277</ele>
        <time>2013-05-19T13:30:19Z</time>
      </trkpt>
      <trkpt lat="48.92047" lon="-0.39695">
        <ele>279</ele>
        <time>2013-05-19T13:30:29Z</time>
      </trkpt>
      <trkpt lat="48.92045" lon="-0.3974">
        <ele>280</ele>
        <time>2013-05-19T13:30:40Z</time>
      </trkpt>
      <trkpt lat="48.92042" lon="-0.39791">
        <ele>282</ele>
        <time>2013-05-19T13:30:52Z</time>
      </trkpt>
      <trkpt lat="48.92037" lon="-0.39841">
        <ele>283</ele>
        <time>2013-05-19T13:31:02Z</time>
      </trkpt>
      <trkpt lat="48.92025" lon="-0.39911">
        <ele>283</ele>
        <time>2013-05-19T13:31:16Z</time>
      </trkpt>
      <trkpt lat="48.92013" lon="-0.39972">
        <ele>282</ele>
        <time>2013-05-19T13:31:29Z</time>
      </trkpt>
      <trkpt lat="48.9201" lon="-0.40024">
        <ele>283</ele>
        <time>2013-05-19T13:31:41Z</time>
      </trkpt>
      <trkpt lat="48.92011" lon="-0.40062">
        <ele>283</ele>
        <time>2013-05-19T13:31:51Z</time>
      </trkpt>
      <trkpt lat="48.92013" lon="-0.401">
        <ele>284</ele>
        <time>2013-05-19T13:32:00Z</time>
      </trkpt>
      <trkpt lat="48.92016" lon="-0.40125">
        <ele>284</ele>
        <time>2013-05-19T13:32:05Z</time>
      </trkpt>
      <trkpt lat="48.92019" lon="-0.40163">
        <ele>284</ele>
        <time>2013-05-19T13:32:15Z</time>
      </trkpt>
      <trkpt lat="48.92022" lon="-0.40202">
        <ele>285</ele>
        <time>2013-05-19T13:32:23Z</time>
      </trkpt>
      <trkpt lat="48.92025" lon="-0.40237">
        <ele>285</ele>
        <time>2013-05-19T13:32:31Z</time>
      </trkpt>
      <trkpt lat="48.92032" lon="-0.40285">
        <ele>286</ele>
        <time>2013-05-19T13:32:40Z</time>
      </trkpt>
      <trkpt lat="48.92037" lon="-0.40327">
        <ele>286</ele>
        <time>2013-05-19T13:32:49Z</time>
      </trkpt>
      <trkpt lat="48.9204" lon="-0.40364">
        <ele>287</ele>
        <time>2013-05-19T13:32:56Z</time>
      </trkpt>
      <trkpt lat="48.92045" lon="-0.40414">
        <ele>287</ele>
        <time>2013-05-19T13:33:06Z</time>
      </trkpt>
      <trkpt lat="48.92047" lon="-0.40449">
        <ele>288</ele>
        <time>2013-05-19T13:33:13Z</time>
      </trkpt>
      <trkpt lat="48.92048" lon="-0.40485">
        <ele>288</ele>
        <time>2013-05-19T13:33:21Z</time>
      </trkpt>
      <trkpt lat="48.92049" lon="-0.40525">
        <ele>288</ele>
        <time>2013-05-19T13:33:30Z</time>
      </trkpt>
      <trkpt lat="48.92049" lon="-0.40577">
        <ele>288</ele>
        <time>2013-05-19T13:33:40Z</time>
      </trkpt>
      <trkpt lat="48.92049" lon="-0.40613">
        <ele>288</ele>
        <time>2013-05-19T13:33:47Z</time>
      </trkpt>
      <trkpt lat="48.92049" lon="-0.40622">
        <ele>288</ele>
        <time>2013-05-19T13:33:54Z</time>
      </trkpt>
      <trkpt lat="48.92049" lon="-0.40626">
        <ele>288</ele>
        <time>2013-05-19T13:37:20Z</time>
      </trkpt>
      <trkpt lat="48.92051" lon="-0.40643">
        <ele>288</ele>
        <time>2013-05-19T13:37:28Z</time>
      </trkpt>
      <trkpt lat="48.92092" lon="-0.4066">
        <ele>289</ele>
        <time>2013-05-19T13:37:41Z</time>
      </trkpt>
      <trkpt lat="48.92119" lon="-0.40666">
        <ele>289</ele>
        <time>2013-05-19T13:37:50Z</time>
      </trkpt>
      <trkpt lat="48.92121" lon="-0.40689">
        <ele>291</ele>
        <time>2013-05-19T13:37:56Z</time>
      </trkpt>
      <trkpt lat="48.92103" lon="-0.40733">
        <ele>292</ele>
        <time>2013-05-19T13:38:09Z</time>
      </trkpt>
      <trkpt lat="48.92087" lon="-0.40795">
        <ele>294</ele>
        <time>2013-05-19T13:38:26Z</time>
      </trkpt>
      <trkpt lat="48.92079" lon="-0.40847">
        <ele>294</ele>
        <time>2013-05-19T13:38:41Z</time>
      </trkpt>
      <trkpt lat="48.92077" lon="-0.40924">
        <ele>296</ele>
        <time>2013-05-19T13:39:01Z</time>
      </trkpt>
      <trkpt lat="48.92076" lon="-0.40942">
        <ele>295</ele>
        <time>2013-05-19T13:39:07Z</time>
      </trkpt>
      <trkpt lat="48.92061" lon="-0.41011">
        <ele>296</ele>
        <time>2013-05-19T13:39:21Z</time>
      </trkpt>
      <trkpt lat="48.92027" lon="-0.41062">
        <ele>295</ele>
        <time>2013-05-19T13:39:32Z</time>
      </trkpt>
      <trkpt lat="48.91979" lon="-0.41109">
        <ele>290</ele>
        <time>2013-05-19T13:39:41Z</time>
      </trkpt>
      <trkpt lat="48.91956" lon="-0.41147">
        <ele>290</ele>
        <time>2013-05-19T13:39:46Z</time>
      </trkpt>
      <trkpt lat="48.91924" lon="-0.41195">
        <ele>291</ele>
        <time>2013-05-19T13:39:54Z</time>
      </trkpt>
      <trkpt lat="48.91885" lon="-0.41271">
        <ele>291</ele>
        <time>2013-05-19T13:40:08Z</time>
      </trkpt>
      <trkpt lat="48.91844" lon="-0.4137">
        <ele>291</ele>
        <time>2013-05-19T13:40:27Z</time>
      </trkpt>
      <trkpt lat="48.91809" lon="-0.41456">
        <ele>290</ele>
        <time>2013-05-19T13:40:44Z</time>
      </trkpt>
      <trkpt lat="48.91782" lon="-0.41528">
        <ele>291</ele>
        <time>2013-05-19T13:40:56Z</time>
      </trkpt>
      <trkpt lat="48.91769" lon="-0.4156">
        <ele>291</ele>
        <time>2013-05-19T13:41:01Z</time>
      </trkpt>
      <trkpt lat="48.91762" lon="-0.41579">
        <ele>291</ele>
        <time>2013-05-19T13:41:04Z</time>
      </trkpt>
      <trkpt lat="48.91719" lon="-0.41687">
        <ele>290</ele>
        <time>2013-05-19T13:41:21Z</time>
      </trkpt>
      <trkpt lat="48.91681" lon="-0.41792">
        <ele>289</ele>
        <time>2013-05-19T13:41:38Z</time>
      </trkpt>
      <trkpt lat="48.91653" lon="-0.4191">
        <ele>286</ele>
        <time>2013-05-19T13:41:53Z</time>
      </trkpt>
      <trkpt lat="48.91639" lon="-0.42008">
        <ele>283</ele>
        <time>2013-05-19T13:42:06Z</time>
      </trkpt>
      <trkpt lat="48.91633" lon="-0.42114">
        <ele>279</ele>
        <time>2013-05-19T13:42:19Z</time>
      </trkpt>
      <trkpt lat="48.91615" lon="-0.42235">
        <ele>274</ele>
        <time>2013-05-19T13:42:32Z</time>
      </trkpt>
      <trkpt lat="48.91609" lon="-0.42338">
        <ele>269</ele>
        <time>2013-05-19T13:42:43Z</time>
      </trkpt>
      <trkpt lat="48.9161" lon="-0.42356">
        <ele>268</ele>
        <time>2013-05-19T13:42:50Z</time>
      </trkpt>
      <trkpt lat="48.91611" lon="-0.4238">
        <ele>268</ele>
        <time>2013-05-19T13:43:55Z</time>
      </trkpt>
      <trkpt lat="48.91611" lon="-0.42454">
        <ele>267</ele>
        <time>2013-05-19T13:44:06Z</time>
      </trkpt>
      <trkpt lat="48.91615" lon="-0.42565">
        <ele>267</ele>
        <time>2013-05-19T13:44:20Z</time>
      </trkpt>
      <trkpt lat="48.91613" lon="-0.42676">
        <ele>268</ele>
        <time>2013-05-19T13:44:35Z</time>
      </trkpt>
      <trkpt lat="48.91615" lon="-0.42763">
        <ele>269</ele>
        <time>2013-05-19T13:44:49Z</time>
      </trkpt>
      <trkpt lat="48.91621" lon="-0.42839">
        <ele>269</ele>
        <time>2013-05-19T13:45:03Z</time>
      </trkpt>
      <trkpt lat="48.91627" lon="-0.42914">
        <ele>269</ele>
        <time>2013-05-19T13:45:18Z</time>
      </trkpt>
      <trkpt lat="48.91632" lon="-0.43034">
        <ele>269</ele>
        <time>2013-05-19T13:45:38Z</time>
      </trkpt>
      <trkpt lat="48.91643" lon="-0.43125">
        <ele>268</ele>
        <time>2013-05-19T13:45:50Z</time>
      </trkpt>
      <trkpt lat="48.91656" lon="-0.43241">
        <ele>267</ele>
        <time>2013-05-19T13:46:03Z</time>
      </trkpt>
      <trkpt lat="48.91669" lon="-0.43359">
        <ele>263</ele>
        <time>2013-05-19T13:46:18Z</time>
      </trkpt>
      <trkpt lat="48.91673" lon="-0.43405">
        <ele>262</ele>
        <time>2013-05-19T13:46:26Z</time>
      </trkpt>
      <trkpt lat="48.9168" lon="-0.43474">
        <ele>258</ele>
        <time>2013-05-19T13:46:34Z</time>
      </trkpt>
      <trkpt lat="48.91693" lon="-0.43589">
        <ele>249</ele>
        <time>2013-05-19T13:46:42Z</time>
      </trkpt>
      <trkpt lat="48.91721" lon="-0.43781">
        <ele>243</ele>
        <time>2013-05-19T13:46:53Z</time>
      </trkpt>
      <trkpt lat="48.91725" lon="-0.43933">
        <ele>240</ele>
        <time>2013-05-19T13:47:03Z</time>
      </trkpt>
      <trkpt lat="48.917" lon="-0.44014">
        <ele>242</ele>
        <time>2013-05-19T13:47:10Z</time>
      </trkpt>
      <trkpt lat="48.91674" lon="-0.44082">
        <ele>241</ele>
        <time>2013-05-19T13:47:19Z</time>
      </trkpt>
      <trkpt lat="48.91643" lon="-0.44126">
        <ele>239</ele>
        <time>2013-05-19T13:47:30Z</time>
      </trkpt>
      <trkpt lat="48.91597" lon="-0.44171">
        <ele>239</ele>
        <time>2013-05-19T13:47:44Z</time>
      </trkpt>
      <trkpt lat="48.91549" lon="-0.4425">
        <ele>236</ele>
        <time>2013-05-19T13:47:59Z</time>
      </trkpt>
      <trkpt lat="48.91518" lon="-0.44316">
        <ele>234</ele>
        <time>2013-05-19T13:48:10Z</time>
      </trkpt>
      <trkpt lat="48.91503" lon="-0.44353">
        <ele>233</ele>
        <time>2013-05-19T13:48:18Z</time>
      </trkpt>
      <trkpt lat="48.91497" lon="-0.44368">
        <ele>227</ele>
        <time>2013-05-19T13:48:28Z</time>
      </trkpt>
      <trkpt lat="48.91491" lon="-0.44385">
        <ele>226</ele>
        <time>2013-05-19T13:50:55Z</time>
      </trkpt>
      <trkpt lat="48.91472" lon="-0.44457">
        <ele>221</ele>
        <time>2013-05-19T13:51:03Z</time>
      </trkpt>
      <trkpt lat="48.9146" lon="-0.44547">
        <ele>215</ele>
        <time>2013-05-19T13:51:11Z</time>
      </trkpt>
      <trkpt lat="48.91448" lon="-0.44639">
        <ele>208</ele>
        <time>2013-05-19T13:51:19Z</time>
      </trkpt>
      <trkpt lat="48.91432" lon="-0.44751">
        <ele>198</ele>
        <time>2013-05-19T13:51:29Z</time>
      </trkpt>
      <trkpt lat="48.91407" lon="-0.44844">
        <ele>185</ele>
        <time>2013-05-19T13:51:38Z</time>
      </trkpt>
      <trkpt lat="48.91397" lon="-0.44905">
        <ele>178</ele>
        <time>2013-05-19T13:51:44Z</time>
      </trkpt>
      <trkpt lat="48.9137" lon="-0.44961">
        <ele>169</ele>
        <time>2013-05-19T13:51:50Z</time>
      </trkpt>
      <trkpt lat="48.9134" lon="-0.44979">
        <ele>167</ele>
        <time>2013-05-19T13:51:54Z</time>
      </trkpt>
      <trkpt lat="48.91323" lon="-0.44981">
        <ele>164</ele>
        <time>2013-05-19T13:51:56Z</time>
      </trkpt>
      <trkpt lat="48.91286" lon="-0.45014">
        <ele>157</ele>
        <time>2013-05-19T13:52:01Z</time>
      </trkpt>
      <trkpt lat="48.91265" lon="-0.45042">
        <ele>155</ele>
        <time>2013-05-19T13:52:04Z</time>
      </trkpt>
      <trkpt lat="48.91244" lon="-0.45087">
        <ele>148</ele>
        <time>2013-05-19T13:52:08Z</time>
      </trkpt>
      <trkpt lat="48.91242" lon="-0.45152">
        <ele>141</ele>
        <time>2013-05-19T13:52:14Z</time>
      </trkpt>
      <trkpt lat="48.91259" lon="-0.45223">
        <ele>139</ele>
        <time>2013-05-19T13:52:22Z</time>
      </trkpt>
      <trkpt lat="48.91261" lon="-0.45231">
        <ele>138</ele>
        <time>2013-05-19T13:52:28Z</time>
      </trkpt>
      <trkpt lat="48.91261" lon="-0.45231">
        <ele>138</ele>
        <time>2013-05-19T13:54:34Z</time>
      </trkpt>
      <trkpt lat="48.91259" lon="-0.4523">
        <ele>138</ele>
        <time>2013-05-19T13:54:36Z</time>
      </trkpt>
      <trkpt lat="48.91234" lon="-0.45203">
        <ele>133</ele>
        <time>2013-05-19T13:54:45Z</time>
      </trkpt>
      <trkpt lat="48.91204" lon="-0.45148">
        <ele>137</ele>
        <time>2013-05-19T13:54:51Z</time>
      </trkpt>
      <trkpt lat="48.91194" lon="-0.45128">
        <ele>137</ele>
        <time>2013-05-19T13:54:53Z</time>
      </trkpt>
      <trkpt lat="48.91158" lon="-0.45094">
        <ele>132</ele>
        <time>2013-05-19T13:54:59Z</time>
      </trkpt>
      <trkpt lat="48.91107" lon="-0.45101">
        <ele>129</ele>
        <time>2013-05-19T13:55:05Z</time>
      </trkpt>
      <trkpt lat="48.91071" lon="-0.45096">
        <ele>133</ele>
        <time>2013-05-19T13:55:11Z</time>
      </trkpt>
      <trkpt lat="48.91064" lon="-0.45091">
        <ele>134</ele>
        <time>2013-05-19T13:55:21Z</time>
      </trkpt>
      <trkpt lat="48.91064" lon="-0.45091">
        <ele>134</ele>
        <time>2013-05-19T13:55:36Z</time>
      </trkpt>
      <trkpt lat="48.91064" lon="-0.45091">
        <ele>134</ele>
        <time>2013-05-19T13:55:48Z</time>
      </trkpt>
      <trkpt lat="48.91027" lon="-0.45067">
        <ele>138</ele>
        <time>2013-05-19T13:56:00Z</time>
      </trkpt>
      <trkpt lat="48.91027" lon="-0.45067">
        <ele>138</ele>
        <time>2013-05-19T13:56:16Z</time>
      </trkpt>
      <trkpt lat="48.91027" lon="-0.45067">
        <ele>138</ele>
        <time>2013-05-19T13:56:35Z</time>
      </trkpt>
      <trkpt lat="48.91027" lon="-0.45067">
        <ele>138</ele>
        <time>2013-05-19T13:56:38Z</time>
      </trkpt>
      <trkpt lat="48.90987" lon="-0.45065">
        <ele>146</ele>
        <time>2013-05-19T13:56:47Z</time>
      </trkpt>
      <trkpt lat="48.90987" lon="-0.45065">
        <ele>146</ele>
        <time>2013-05-19T13:56:59Z</time>
      </trkpt>
      <trkpt lat="48.90987" lon="-0.45065">
        <ele>146</ele>
        <time>2013-05-19T13:57:13Z</time>
      </trkpt>
      <trkpt lat="48.90987" lon="-0.45065">
        <ele>146</ele>
        <time>2013-05-19T13:59:14Z</time>
      </trkpt>
      <trkpt lat="48.90987" lon="-0.45065">
        <ele>146</ele>
        <time>2013-05-19T13:59:53Z</time>
      </trkpt>
      <trkpt lat="48.90987" lon="-0.45065">
        <ele>146</ele>
        <time>2013-05-19T14:00:36Z</time>
      </trkpt>
      <trkpt lat="48.90958" lon="-0.45117">
        <ele>147</ele>
        <time>2013-05-19T14:00:45Z</time>
      </trkpt>
      <trkpt lat="48.90947" lon="-0.45154">
        <ele>146</ele>
        <time>2013-05-19T14:00:59Z</time>
      </trkpt>
      <trkpt lat="48.90943" lon="-0.45193">
        <ele>145</ele>
        <time>2013-05-19T14:01:12Z</time>
      </trkpt>
      <trkpt lat="48.90941" lon="-0.45227">
        <ele>145</ele>
        <time>2013-05-19T14:01:21Z</time>
      </trkpt>
      <trkpt lat="48.9094" lon="-0.45283">
        <ele>146</ele>
        <time>2013-05-19T14:01:31Z</time>
      </trkpt>
      <trkpt lat="48.90943" lon="-0.45312">
        <ele>146</ele>
        <time>2013-05-19T14:01:37Z</time>
      </trkpt>
      <trkpt lat="48.90946" lon="-0.4534">
        <ele>146</ele>
        <time>2013-05-19T14:01:46Z</time>
      </trkpt>
      <trkpt lat="48.90946" lon="-0.45381">
        <ele>146</ele>
        <time>2013-05-19T14:01:57Z</time>
      </trkpt>
      <trkpt lat="48.90955" lon="-0.45427">
        <ele>142</ele>
        <time>2013-05-19T14:02:06Z</time>
      </trkpt>
      <trkpt lat="48.90961" lon="-0.45448">
        <ele>141</ele>
        <time>2013-05-19T14:02:15Z</time>
      </trkpt>
      <trkpt lat="48.90961" lon="-0.45448">
        <ele>141</ele>
        <time>2013-05-19T14:02:42Z</time>
      </trkpt>
      <trkpt lat="48.90963" lon="-0.45453">
        <ele>141</ele>
        <time>2013-05-19T14:10:20Z</time>
      </trkpt>
      <trkpt lat="48.90963" lon="-0.45453">
        <ele>141</ele>
        <time>2013-05-19T14:10:31Z</time>
      </trkpt>
      <trkpt lat="48.90971" lon="-0.45477">
        <ele>141</ele>
        <time>2013-05-19T14:10:51Z</time>
      </trkpt>
      <trkpt lat="48.90979" lon="-0.45499">
        <ele>143</ele>
        <time>2013-05-19T14:10:56Z</time>
      </trkpt>
      <trkpt lat="48.90987" lon="-0.45521">
        <ele>132</ele>
        <time>2013-05-19T14:11:00Z</time>
      </trkpt>
      <trkpt lat="48.90996" lon="-0.45539">
        <ele>128</ele>
        <time>2013-05-19T14:11:03Z</time>
      </trkpt>
      <trkpt lat="48.91023" lon="-0.45594">
        <ele>132</ele>
        <time>2013-05-19T14:11:11Z</time>
      </trkpt>
      <trkpt lat="48.91027" lon="-0.45601">
        <ele>132</ele>
        <time>2013-05-19T14:11:12Z</time>
      </trkpt>
      <trkpt lat="48.91032" lon="-0.45634">
        <ele>130</ele>
        <time>2013-05-19T14:11:18Z</time>
      </trkpt>
      <trkpt lat="48.91032" lon="-0.45634">
        <ele>130</ele>
        <time>2013-05-19T14:11:35Z</time>
      </trkpt>
      <trkpt lat="48.91032" lon="-0.45634">
        <ele>130</ele>
        <time>2013-05-19T14:11:38Z</time>
      </trkpt>
      <trkpt lat="48.9103" lon="-0.45641">
        <ele>129</ele>
        <time>2013-05-19T14:11:41Z</time>
      </trkpt>
      <trkpt lat="48.91028" lon="-0.4567">
        <ele>117</ele>
        <time>2013-05-19T14:11:49Z</time>
      </trkpt>
      <trkpt lat="48.91042" lon="-0.45701">
        <ele>120</ele>
        <time>2013-05-19T14:11:55Z</time>
      </trkpt>
      <trkpt lat="48.91048" lon="-0.45736">
        <ele>119</ele>
        <time>2013-05-19T14:12:01Z</time>
      </trkpt>
      <trkpt lat="48.9105" lon="-0.45749">
        <ele>120</ele>
        <time>2013-05-19T14:12:04Z</time>
      </trkpt>
      <trkpt lat="48.91057" lon="-0.45776">
        <ele>112</ele>
        <time>2013-05-19T14:12:12Z</time>
      </trkpt>
      <trkpt lat="48.91064" lon="-0.45801">
        <ele>112</ele>
        <time>2013-05-19T14:12:17Z</time>
      </trkpt>
      <trkpt lat="48.91067" lon="-0.45843">
        <ele>110</ele>
        <time>2013-05-19T14:12:25Z</time>
      </trkpt>
      <trkpt lat="48.91068" lon="-0.45867">
        <ele>106</ele>
        <time>2013-05-19T14:12:30Z</time>
      </trkpt>
      <trkpt lat="48.91073" lon="-0.45924">
        <ele>111</ele>
        <time>2013-05-19T14:12:40Z</time>
      </trkpt>
      <trkpt lat="48.91076" lon="-0.45971">
        <ele>103</ele>
        <time>2013-05-19T14:12:47Z</time>
      </trkpt>
      <trkpt lat="48.91081" lon="-0.46022">
        <ele>102</ele>
        <time>2013-05-19T14:12:54Z</time>
      </trkpt>
      <trkpt lat="48.91088" lon="-0.46057">
        <ele>113</ele>
        <time>2013-05-19T14:13:01Z</time>
      </trkpt>
      <trkpt lat="48.91099" lon="-0.46074">
        <ele>112</ele>
        <time>2013-05-19T14:13:06Z</time>
      </trkpt>
      <trkpt lat="48.91105" lon="-0.4609">
        <ele>109</ele>
        <time>2013-05-19T14:13:09Z</time>
      </trkpt>
      <trkpt lat="48.91105" lon="-0.46094">
        <ele>109</ele>
        <time>2013-05-19T14:13:19Z</time>
      </trkpt>
      <trkpt lat="48.91105" lon="-0.46094">
        <ele>109</ele>
        <time>2013-05-19T14:14:14Z</time>
      </trkpt>
      <trkpt lat="48.91101" lon="-0.46116">
        <ele>108</ele>
        <time>2013-05-19T14:14:19Z</time>
      </trkpt>
      <trkpt lat="48.911" lon="-0.46146">
        <ele>106</ele>
        <time>2013-05-19T14:14:24Z</time>
      </trkpt>
      <trkpt lat="48.91114" lon="-0.46185">
        <ele>103</ele>
        <time>2013-05-19T14:14:32Z</time>
      </trkpt>
      <trkpt lat="48.91119" lon="-0.46196">
        <ele>104</ele>
        <time>2013-05-19T14:14:35Z</time>
      </trkpt>
      <trkpt lat="48.91123" lon="-0.46216">
        <ele>104</ele>
        <time>2013-05-19T14:14:39Z</time>
      </trkpt>
      <trkpt lat="48.91121" lon="-0.46267">
        <ele>100</ele>
        <time>2013-05-19T14:14:48Z</time>
      </trkpt>
      <trkpt lat="48.91114" lon="-0.4632">
        <ele>98</ele>
        <time>2013-05-19T14:14:57Z</time>
      </trkpt>
      <trkpt lat="48.91112" lon="-0.46329">
        <ele>97</ele>
        <time>2013-05-19T14:15:00Z</time>
      </trkpt>
      <trkpt lat="48.91119" lon="-0.4635">
        <ele>97</ele>
        <time>2013-05-19T14:15:04Z</time>
      </trkpt>
      <trkpt lat="48.91125" lon="-0.4638">
        <ele>98</ele>
        <time>2013-05-19T14:15:08Z</time>
      </trkpt>
      <trkpt lat="48.91125" lon="-0.46435">
        <ele>97</ele>
        <time>2013-05-19T14:15:17Z</time>
      </trkpt>
      <trkpt lat="48.9112" lon="-0.46458">
        <ele>96</ele>
        <time>2013-05-19T14:15:22Z</time>
      </trkpt>
      <trkpt lat="48.9112" lon="-0.46478">
        <ele>95</ele>
        <time>2013-05-19T14:15:25Z</time>
      </trkpt>
      <trkpt lat="48.9112" lon="-0.46488">
        <ele>95</ele>
        <time>2013-05-19T14:15:32Z</time>
      </trkpt>
      <trkpt lat="48.91122" lon="-0.46499">
        <ele>96</ele>
        <time>2013-05-19T14:16:55Z</time>
      </trkpt>
      <trkpt lat="48.91127" lon="-0.46515">
        <ele>95</ele>
        <time>2013-05-19T14:16:58Z</time>
      </trkpt>
      <trkpt lat="48.91124" lon="-0.46545">
        <ele>94</ele>
        <time>2013-05-19T14:17:03Z</time>
      </trkpt>
      <trkpt lat="48.91121" lon="-0.4656">
        <ele>93</ele>
        <time>2013-05-19T14:17:10Z</time>
      </trkpt>
      <trkpt lat="48.91117" lon="-0.46565">
        <ele>92</ele>
        <time>2013-05-19T14:17:14Z</time>
      </trkpt>
      <trkpt lat="48.91116" lon="-0.46566">
        <ele>92</ele>
        <time>2013-05-19T14:17:26Z</time>
      </trkpt>
      <trkpt lat="48.91116" lon="-0.46566">
        <ele>92</ele>
        <time>2013-05-19T14:18:10Z</time>
      </trkpt>
      <trkpt lat="48.91122" lon="-0.46582">
        <ele>93</ele>
        <time>2013-05-19T14:18:18Z</time>
      </trkpt>
      <trkpt lat="48.91134" lon="-0.46595">
        <ele>93</ele>
        <time>2013-05-19T14:18:27Z</time>
      </trkpt>
      <trkpt lat="48.91136" lon="-0.46602">
        <ele>93</ele>
        <time>2013-05-19T14:18:30Z</time>
      </trkpt>
      <trkpt lat="48.91138" lon="-0.46629">
        <ele>92</ele>
        <time>2013-05-19T14:18:40Z</time>
      </trkpt>
      <trkpt lat="48.91132" lon="-0.46675">
        <ele>91</ele>
        <time>2013-05-19T14:18:48Z</time>
      </trkpt>
      <trkpt lat="48.91133" lon="-0.46695">
        <ele>91</ele>
        <time>2013-05-19T14:18:51Z</time>
      </trkpt>
      <trkpt lat="48.91132" lon="-0.46741">
        <ele>91</ele>
        <time>2013-05-19T14:19:00Z</time>
      </trkpt>
      <trkpt lat="48.91118" lon="-0.46789">
        <ele>88</ele>
        <time>2013-05-19T14:19:06Z</time>
      </trkpt>
      <trkpt lat="48.91111" lon="-0.46824">
        <ele>86</ele>
        <time>2013-05-19T14:19:13Z</time>
      </trkpt>
      <trkpt lat="48.91111" lon="-0.4687">
        <ele>90</ele>
        <time>2013-05-19T14:19:22Z</time>
      </trkpt>
      <trkpt lat="48.91107" lon="-0.4688">
        <ele>90</ele>
        <time>2013-05-19T14:19:25Z</time>
      </trkpt>
      <trkpt lat="48.911" lon="-0.46885">
        <ele>90</ele>
        <time>2013-05-19T14:19:29Z</time>
      </trkpt>
      <trkpt lat="48.91097" lon="-0.46887">
        <ele>90</ele>
        <time>2013-05-19T14:19:31Z</time>
      </trkpt>
      <trkpt lat="48.91094" lon="-0.46895">
        <ele>90</ele>
        <time>2013-05-19T14:19:41Z</time>
      </trkpt>
      <trkpt lat="48.91094" lon="-0.46906">
        <ele>90</ele>
        <time>2013-05-19T14:27:15Z</time>
      </trkpt>
      <trkpt lat="48.91091" lon="-0.46941">
        <ele>91</ele>
        <time>2013-05-19T14:27:25Z</time>
      </trkpt>
      <trkpt lat="48.91083" lon="-0.46959">
        <ele>74</ele>
        <time>2013-05-19T14:27:34Z</time>
      </trkpt>
      <trkpt lat="48.91088" lon="-0.4698">
        <ele>90</ele>
        <time>2013-05-19T14:27:45Z</time>
      </trkpt>
      <trkpt lat="48.91092" lon="-0.4699">
        <ele>89</ele>
        <time>2013-05-19T14:27:52Z</time>
      </trkpt>
      <trkpt lat="48.91096" lon="-0.46994">
        <ele>89</ele>
        <time>2013-05-19T14:27:54Z</time>
      </trkpt>
      <trkpt lat="48.91099" lon="-0.46996">
        <ele>89</ele>
        <time>2013-05-19T14:27:57Z</time>
      </trkpt>
      <trkpt lat="48.91114" lon="-0.47014">
        <ele>87</ele>
        <time>2013-05-19T14:28:08Z</time>
      </trkpt>
      <trkpt lat="48.91117" lon="-0.47017">
        <ele>87</ele>
        <time>2013-05-19T14:28:18Z</time>
      </trkpt>
      <trkpt lat="48.91117" lon="-0.47017">
        <ele>87</ele>
        <time>2013-05-19T14:28:21Z</time>
      </trkpt>
      <trkpt lat="48.91117" lon="-0.47017">
        <ele>87</ele>
        <time>2013-05-19T14:28:32Z</time>
      </trkpt>
      <trkpt lat="48.91117" lon="-0.47017">
        <ele>87</ele>
        <time>2013-05-19T14:28:36Z</time>
      </trkpt>
      <trkpt lat="48.91135" lon="-0.47035">
        <ele>87</ele>
        <time>2013-05-19T14:28:45Z</time>
      </trkpt>
      <trkpt lat="48.91147" lon="-0.47062">
        <ele>86</ele>
        <time>2013-05-19T14:28:54Z</time>
      </trkpt>
      <trkpt lat="48.9116" lon="-0.4708">
        <ele>86</ele>
        <time>2013-05-19T14:29:02Z</time>
      </trkpt>
      <trkpt lat="48.91172" lon="-0.47078">
        <ele>85</ele>
        <time>2013-05-19T14:29:05Z</time>
      </trkpt>
      <trkpt lat="48.91196" lon="-0.47098">
        <ele>75</ele>
        <time>2013-05-19T14:29:12Z</time>
      </trkpt>
      <trkpt lat="48.91205" lon="-0.47104">
        <ele>73</ele>
        <time>2013-05-19T14:29:14Z</time>
      </trkpt>
      <trkpt lat="48.91224" lon="-0.47103">
        <ele>72</ele>
        <time>2013-05-19T14:29:18Z</time>
      </trkpt>
      <trkpt lat="48.91243" lon="-0.47128">
        <ele>69</ele>
        <time>2013-05-19T14:29:26Z</time>
      </trkpt>
      <trkpt lat="48.91263" lon="-0.47176">
        <ele>57</ele>
        <time>2013-05-19T14:29:36Z</time>
      </trkpt>
      <trkpt lat="48.91273" lon="-0.47196">
        <ele>55</ele>
        <time>2013-05-19T14:29:39Z</time>
      </trkpt>
      <trkpt lat="48.91277" lon="-0.47238">
        <ele>54</ele>
        <time>2013-05-19T14:29:44Z</time>
      </trkpt>
      <trkpt lat="48.9128" lon="-0.47245">
        <ele>54</ele>
        <time>2013-05-19T14:29:51Z</time>
      </trkpt>
      <trkpt lat="48.9128" lon="-0.47245">
        <ele>54</ele>
        <time>2013-05-19T14:30:05Z</time>
      </trkpt>
      <trkpt lat="48.9128" lon="-0.47245">
        <ele>54</ele>
        <time>2013-05-19T14:33:47Z</time>
      </trkpt>
      <trkpt lat="48.91286" lon="-0.47247">
        <ele>53</ele>
        <time>2013-05-19T14:33:58Z</time>
      </trkpt>
      <trkpt lat="48.91299" lon="-0.47245">
        <ele>53</ele>
        <time>2013-05-19T14:34:12Z</time>
      </trkpt>
      <trkpt lat="48.9132" lon="-0.47236">
        <ele>52</ele>
        <time>2013-05-19T14:34:16Z</time>
      </trkpt>
      <trkpt lat="48.91345" lon="-0.47234">
        <ele>49</ele>
        <time>2013-05-19T14:34:21Z</time>
      </trkpt>
      <trkpt lat="48.91345" lon="-0.47235">
        <ele>49</ele>
        <time>2013-05-19T14:34:23Z</time>
      </trkpt>
      <trkpt lat="48.91346" lon="-0.47263">
        <ele>48</ele>
        <time>2013-05-19T14:34:26Z</time>
      </trkpt>
      <trkpt lat="48.91358" lon="-0.47315">
        <ele>45</ele>
        <time>2013-05-19T14:34:36Z</time>
      </trkpt>
      <trkpt lat="48.91361" lon="-0.47321">
        <ele>45</ele>
        <time>2013-05-19T14:34:45Z</time>
      </trkpt>
      <trkpt lat="48.91369" lon="-0.47336">
        <ele>42</ele>
        <time>2013-05-19T14:34:59Z</time>
      </trkpt>
      <trkpt lat="48.91379" lon="-0.47378">
        <ele>41</ele>
        <time>2013-05-19T14:35:07Z</time>
      </trkpt>
      <trkpt lat="48.91379" lon="-0.4738">
        <ele>41</ele>
        <time>2013-05-19T14:35:08Z</time>
      </trkpt>
      <trkpt lat="48.91392" lon="-0.47381">
        <ele>41</ele>
        <time>2013-05-19T14:35:14Z</time>
      </trkpt>
      <trkpt lat="48.91411" lon="-0.47375">
        <ele>41</ele>
        <time>2013-05-19T14:35:26Z</time>
      </trkpt>
      <trkpt lat="48.91445" lon="-0.47368">
        <ele>40</ele>
        <time>2013-05-19T14:35:41Z</time>
      </trkpt>
      <trkpt lat="48.91479" lon="-0.47366">
        <ele>40</ele>
        <time>2013-05-19T14:35:51Z</time>
      </trkpt>
      <trkpt lat="48.91527" lon="-0.47365">
        <ele>40</ele>
        <time>2013-05-19T14:36:05Z</time>
      </trkpt>
      <trkpt lat="48.91586" lon="-0.4736">
        <ele>40</ele>
        <time>2013-05-19T14:36:17Z</time>
      </trkpt>
      <trkpt lat="48.91665" lon="-0.47355">
        <ele>39</ele>
        <time>2013-05-19T14:36:32Z</time>
      </trkpt>
      <trkpt lat="48.91671" lon="-0.47361">
        <ele>38</ele>
        <time>2013-05-19T14:36:37Z</time>
      </trkpt>
      <trkpt lat="48.91671" lon="-0.47361">
        <ele>38</ele>
        <time>2013-05-19T14:36:55Z</time>
      </trkpt>
      <trkpt lat="48.91669" lon="-0.47368">
        <ele>38</ele>
        <time>2013-05-19T14:37:01Z</time>
      </trkpt>
      <trkpt lat="48.91652" lon="-0.4745">
        <ele>36</ele>
        <time>2013-05-19T14:37:12Z</time>
      </trkpt>
      <trkpt lat="48.91648" lon="-0.47587">
        <ele>38</ele>
        <time>2013-05-19T14:37:28Z</time>
      </trkpt>
      <trkpt lat="48.91649" lon="-0.47643">
        <ele>43</ele>
        <time>2013-05-19T14:37:37Z</time>
      </trkpt>
      <trkpt lat="48.91638" lon="-0.47652">
        <ele>43</ele>
        <time>2013-05-19T14:37:42Z</time>
      </trkpt>
      <trkpt lat="48.91627" lon="-0.47652">
        <ele>43</ele>
        <time>2013-05-19T14:37:51Z</time>
      </trkpt>
      <trkpt lat="48.91613" lon="-0.4765">
        <ele>43</ele>
        <time>2013-05-19T14:39:23Z</time>
      </trkpt>
      <trkpt lat="48.91576" lon="-0.47644">
        <ele>46</ele>
        <time>2013-05-19T14:39:31Z</time>
      </trkpt>
      <trkpt lat="48.915" lon="-0.47622">
        <ele>47</ele>
        <time>2013-05-19T14:39:43Z</time>
      </trkpt>
      <trkpt lat="48.91465" lon="-0.47616">
        <ele>47</ele>
        <time>2013-05-19T14:39:49Z</time>
      </trkpt>
      <trkpt lat="48.91451" lon="-0.47615">
        <ele>47</ele>
        <time>2013-05-19T14:39:52Z</time>
      </trkpt>
      <trkpt lat="48.91426" lon="-0.47615">
        <ele>47</ele>
        <time>2013-05-19T14:39:56Z</time>
      </trkpt>
      <trkpt lat="48.914" lon="-0.47618">
        <ele>48</ele>
        <time>2013-05-19T14:40:01Z</time>
      </trkpt>
      <trkpt lat="48.91376" lon="-0.4762">
        <ele>48</ele>
        <time>2013-05-19T14:40:05Z</time>
      </trkpt>
      <trkpt lat="48.91335" lon="-0.47614">
        <ele>47</ele>
        <time>2013-05-19T14:40:11Z</time>
      </trkpt>
      <trkpt lat="48.9127" lon="-0.47609">
        <ele>50</ele>
        <time>2013-05-19T14:40:22Z</time>
      </trkpt>
      <trkpt lat="48.91258" lon="-0.4761">
        <ele>50</ele>
        <time>2013-05-19T14:40:24Z</time>
      </trkpt>
      <trkpt lat="48.91215" lon="-0.47617">
        <ele>56</ele>
        <time>2013-05-19T14:40:33Z</time>
      </trkpt>
      <trkpt lat="48.91203" lon="-0.4762">
        <ele>57</ele>
        <time>2013-05-19T14:40:38Z</time>
      </trkpt>
      <trkpt lat="48.91179" lon="-0.47623">
        <ele>58</ele>
        <time>2013-05-19T14:40:45Z</time>
      </trkpt>
      <trkpt lat="48.91118" lon="-0.47627">
        <ele>58</ele>
        <time>2013-05-19T14:40:55Z</time>
      </trkpt>
      <trkpt lat="48.91066" lon="-0.47634">
        <ele>57</ele>
        <time>2013-05-19T14:41:04Z</time>
      </trkpt>
      <trkpt lat="48.91028" lon="-0.47638">
        <ele>56</ele>
        <time>2013-05-19T14:41:13Z</time>
      </trkpt>
      <trkpt lat="48.91024" lon="-0.47639">
        <ele>56</ele>
        <time>2013-05-19T14:41:14Z</time>
      </trkpt>
      <trkpt lat="48.91" lon="-0.47642">
        <ele>57</ele>
        <time>2013-05-19T14:41:19Z</time>
      </trkpt>
      <trkpt lat="48.90974" lon="-0.4764">
        <ele>61</ele>
        <time>2013-05-19T14:41:24Z</time>
      </trkpt>
      <trkpt lat="48.90921" lon="-0.47604">
        <ele>59</ele>
        <time>2013-05-19T14:41:35Z</time>
      </trkpt>
      <trkpt lat="48.90899" lon="-0.47559">
        <ele>59</ele>
        <time>2013-05-19T14:41:41Z</time>
      </trkpt>
      <trkpt lat="48.90882" lon="-0.47491">
        <ele>51</ele>
        <time>2013-05-19T14:41:50Z</time>
      </trkpt>
      <trkpt lat="48.90878" lon="-0.47404">
        <ele>47</ele>
        <time>2013-05-19T14:42:02Z</time>
      </trkpt>
      <trkpt lat="48.90879" lon="-0.47377">
        <ele>46</ele>
        <time>2013-05-19T14:42:06Z</time>
      </trkpt>
      <trkpt lat="48.90879" lon="-0.47314">
        <ele>44</ele>
        <time>2013-05-19T14:42:16Z</time>
      </trkpt>
      <trkpt lat="48.9088" lon="-0.47271">
        <ele>43</ele>
        <time>2013-05-19T14:42:23Z</time>
      </trkpt>
      <trkpt lat="48.90888" lon="-0.47195">
        <ele>43</ele>
        <time>2013-05-19T14:42:36Z</time>
      </trkpt>
      <trkpt lat="48.90894" lon="-0.47154">
        <ele>45</ele>
        <time>2013-05-19T14:42:47Z</time>
      </trkpt>
      <trkpt lat="48.90897" lon="-0.47109">
        <ele>46</ele>
        <time>2013-05-19T14:42:57Z</time>
      </trkpt>
      <trkpt lat="48.90888" lon="-0.47069">
        <ele>47</ele>
        <time>2013-05-19T14:43:08Z</time>
      </trkpt>
      <trkpt lat="48.9088" lon="-0.47044">
        <ele>48</ele>
        <time>2013-05-19T14:43:18Z</time>
      </trkpt>
      <trkpt lat="48.90879" lon="-0.47038">
        <ele>48</ele>
        <time>2013-05-19T14:43:29Z</time>
      </trkpt>
      <trkpt lat="48.90879" lon="-0.47038">
        <ele>48</ele>
        <time>2013-05-19T14:43:51Z</time>
      </trkpt>
      <trkpt lat="48.90879" lon="-0.47038">
        <ele>48</ele>
        <time>2013-05-19T14:43:56Z</time>
      </trkpt>
      <trkpt lat="48.9088" lon="-0.47042">
        <ele>48</ele>
        <time>2013-05-19T14:43:58Z</time>
      </trkpt>
      <trkpt lat="48.90881" lon="-0.47047">
        <ele>48</ele>
        <time>2013-05-19T14:44:07Z</time>
      </trkpt>
      <trkpt lat="48.90881" lon="-0.47047">
        <ele>48</ele>
        <time>2013-05-19T14:44:27Z</time>
      </trkpt>
      <trkpt lat="48.90881" lon="-0.47047">
        <ele>48</ele>
        <time>2013-05-19T14:44:30Z</time>
      </trkpt>
      <trkpt lat="48.90878" lon="-0.47036">
        <ele>48</ele>
        <time>2013-05-19T14:44:34Z</time>
      </trkpt>
      <trkpt lat="48.90848" lon="-0.46962">
        <ele>48</ele>
        <time>2013-05-19T14:44:41Z</time>
      </trkpt>
      <trkpt lat="48.9091" lon="-0.46949">
        <ele>44</ele>
        <time>2013-05-19T14:44:47Z</time>
      </trkpt>
      <trkpt lat="48.90911" lon="-0.4695">
        <ele>44</ele>
        <time>2013-05-19T14:48:17Z</time>
      </trkpt>
      <trkpt lat="48.90904" lon="-0.46947">
        <ele>45</ele>
        <time>2013-05-19T14:48:22Z</time>
      </trkpt>
      <trkpt lat="48.90889" lon="-0.46923">
        <ele>45</ele>
        <time>2013-05-19T14:48:28Z</time>
      </trkpt>
      <trkpt lat="48.90892" lon="-0.46903">
        <ele>45</ele>
        <time>2013-05-19T14:48:33Z</time>
      </trkpt>
      <trkpt lat="48.90856" lon="-0.46874">
        <ele>48</ele>
        <time>2013-05-19T14:48:39Z</time>
      </trkpt>
      <trkpt lat="48.90927" lon="-0.46889">
        <ele>43</ele>
        <time>2013-05-19T14:48:44Z</time>
      </trkpt>
      <trkpt lat="48.90927" lon="-0.46898">
        <ele>43</ele>
        <time>2013-05-19T14:48:45Z</time>
      </trkpt>
      <trkpt lat="48.90936" lon="-0.46925">
        <ele>42</ele>
        <time>2013-05-19T14:48:52Z</time>
      </trkpt>
      <trkpt lat="48.90934" lon="-0.46928">
        <ele>42</ele>
        <time>2013-05-19T14:48:57Z</time>
      </trkpt>
    </trkseg>
  </trk>
</gpx>